<?xml version="1.0" encoding="UTF-8" standalone="no" ?>
<gpx xmlns="http://www.topografix.com/GPX/1/1" xmlns:xsi="http://www.w3.org/2001/XMLSchema-instance" xsi:schemaLocation="http://www.topografix.com/GPX/1/1 http://www.topografix.com/GPX/1/1/gpx.xsd" version="1.1" creator="VisuGPX - https://www.visugpx.com">
  <metadata>
    <name>Hardangervidda 2019</name>
  </metadata>
  <trk>
    <name><![CDATA[2019-04-01]]></name>
    <trkseg>
      <trkpt lat="60.36884" lon="7.50509">
        <ele>1235.91</ele>
        <time>2019-04-01T11:51:27Z</time>
      </trkpt>
      <trkpt lat="60.36884" lon="7.50509">
        <ele>1235.91</ele>
        <time>2019-04-01T11:51:29Z</time>
      </trkpt>
      <trkpt lat="60.36884" lon="7.50508">
        <ele>1245.53</ele>
        <time>2019-04-01T11:51:33Z</time>
      </trkpt>
      <trkpt lat="60.36884" lon="7.50508">
        <ele>1243.6</ele>
        <time>2019-04-01T11:51:34Z</time>
      </trkpt>
      <trkpt lat="60.36883" lon="7.50509">
        <ele>1243.12</ele>
        <time>2019-04-01T11:52:13Z</time>
      </trkpt>
      <trkpt lat="60.36883" lon="7.50509">
        <ele>1243.12</ele>
        <time>2019-04-01T11:52:51Z</time>
      </trkpt>
      <trkpt lat="60.36886" lon="7.50508">
        <ele>1243.12</ele>
        <time>2019-04-01T11:53:14Z</time>
      </trkpt>
      <trkpt lat="60.36886" lon="7.50506">
        <ele>1243.12</ele>
        <time>2019-04-01T11:53:49Z</time>
      </trkpt>
      <trkpt lat="60.36886" lon="7.50507">
        <ele>1243.12</ele>
        <time>2019-04-01T11:54:07Z</time>
      </trkpt>
      <trkpt lat="60.36888" lon="7.5051">
        <ele>1243.12</ele>
        <time>2019-04-01T11:54:09Z</time>
      </trkpt>
      <trkpt lat="60.36894" lon="7.50538">
        <ele>1243.12</ele>
        <time>2019-04-01T11:54:23Z</time>
      </trkpt>
      <trkpt lat="60.36896" lon="7.50546">
        <ele>1243.12</ele>
        <time>2019-04-01T11:54:28Z</time>
      </trkpt>
      <trkpt lat="60.36902" lon="7.50549">
        <ele>1243.12</ele>
        <time>2019-04-01T11:54:35Z</time>
      </trkpt>
      <trkpt lat="60.36914" lon="7.50543">
        <ele>1244.56</ele>
        <time>2019-04-01T11:54:48Z</time>
      </trkpt>
      <trkpt lat="60.36928" lon="7.50536">
        <ele>1245.53</ele>
        <time>2019-04-01T11:55:03Z</time>
      </trkpt>
      <trkpt lat="60.36942" lon="7.50534">
        <ele>1246.97</ele>
        <time>2019-04-01T11:55:18Z</time>
      </trkpt>
      <trkpt lat="60.36952" lon="7.5053">
        <ele>1246.97</ele>
        <time>2019-04-01T11:55:29Z</time>
      </trkpt>
      <trkpt lat="60.36957" lon="7.5053">
        <ele>1246.97</ele>
        <time>2019-04-01T11:55:33Z</time>
      </trkpt>
      <trkpt lat="60.36973" lon="7.50527">
        <ele>1245.04</ele>
        <time>2019-04-01T11:55:46Z</time>
      </trkpt>
      <trkpt lat="60.36994" lon="7.50525">
        <ele>1241.68</ele>
        <time>2019-04-01T11:55:58Z</time>
      </trkpt>
      <trkpt lat="60.37004" lon="7.50524">
        <ele>1240.72</ele>
        <time>2019-04-01T11:56:10Z</time>
      </trkpt>
      <trkpt lat="60.37004" lon="7.50524">
        <ele>1240.72</ele>
        <time>2019-04-01T11:56:14Z</time>
      </trkpt>
      <trkpt lat="60.37013" lon="7.50514">
        <ele>1239.76</ele>
        <time>2019-04-01T11:56:25Z</time>
      </trkpt>
      <trkpt lat="60.37029" lon="7.50546">
        <ele>1239.76</ele>
        <time>2019-04-01T11:56:29Z</time>
      </trkpt>
      <trkpt lat="60.3703" lon="7.50513">
        <ele>1239.76</ele>
        <time>2019-04-01T11:56:43Z</time>
      </trkpt>
      <trkpt lat="60.37029" lon="7.50509">
        <ele>1239.76</ele>
        <time>2019-04-01T11:56:47Z</time>
      </trkpt>
      <trkpt lat="60.3703" lon="7.50507">
        <ele>1239.76</ele>
        <time>2019-04-01T11:56:49Z</time>
      </trkpt>
      <trkpt lat="60.3704" lon="7.50481">
        <ele>1241.2</ele>
        <time>2019-04-01T11:57:03Z</time>
      </trkpt>
      <trkpt lat="60.37046" lon="7.50448">
        <ele>1242.16</ele>
        <time>2019-04-01T11:57:20Z</time>
      </trkpt>
      <trkpt lat="60.37054" lon="7.50429">
        <ele>1243.12</ele>
        <time>2019-04-01T11:57:33Z</time>
      </trkpt>
      <trkpt lat="60.37062" lon="7.50406">
        <ele>1245.04</ele>
        <time>2019-04-01T11:57:49Z</time>
      </trkpt>
      <trkpt lat="60.3707" lon="7.50381">
        <ele>1247.93</ele>
        <time>2019-04-01T11:58:06Z</time>
      </trkpt>
      <trkpt lat="60.37077" lon="7.50357">
        <ele>1250.81</ele>
        <time>2019-04-01T11:58:23Z</time>
      </trkpt>
      <trkpt lat="60.37077" lon="7.50355">
        <ele>1250.81</ele>
        <time>2019-04-01T11:58:41Z</time>
      </trkpt>
      <trkpt lat="60.37077" lon="7.50355">
        <ele>1250.81</ele>
        <time>2019-04-01T11:59:05Z</time>
      </trkpt>
      <trkpt lat="60.37077" lon="7.50355">
        <ele>1250.81</ele>
        <time>2019-04-01T11:59:24Z</time>
      </trkpt>
      <trkpt lat="60.37078" lon="7.50355">
        <ele>1251.29</ele>
        <time>2019-04-01T11:59:42Z</time>
      </trkpt>
      <trkpt lat="60.37077" lon="7.50355">
        <ele>1251.29</ele>
        <time>2019-04-01T12:00:02Z</time>
      </trkpt>
      <trkpt lat="60.37078" lon="7.50353">
        <ele>1251.29</ele>
        <time>2019-04-01T12:00:23Z</time>
      </trkpt>
      <trkpt lat="60.3708" lon="7.50355">
        <ele>1251.29</ele>
        <time>2019-04-01T12:00:46Z</time>
      </trkpt>
      <trkpt lat="60.37087" lon="7.50359">
        <ele>1253.7</ele>
        <time>2019-04-01T12:00:59Z</time>
      </trkpt>
      <trkpt lat="60.37098" lon="7.50363">
        <ele>1256.58</ele>
        <time>2019-04-01T12:01:14Z</time>
      </trkpt>
      <trkpt lat="60.37107" lon="7.50367">
        <ele>1258.5</ele>
        <time>2019-04-01T12:01:30Z</time>
      </trkpt>
      <trkpt lat="60.37114" lon="7.50372">
        <ele>1260.43</ele>
        <time>2019-04-01T12:01:41Z</time>
      </trkpt>
      <trkpt lat="60.37123" lon="7.50375">
        <ele>1262.35</ele>
        <time>2019-04-01T12:01:57Z</time>
      </trkpt>
      <trkpt lat="60.37125" lon="7.50377">
        <ele>1262.35</ele>
        <time>2019-04-01T12:02:15Z</time>
      </trkpt>
      <trkpt lat="60.37127" lon="7.5038">
        <ele>1262.83</ele>
        <time>2019-04-01T12:02:48Z</time>
      </trkpt>
      <trkpt lat="60.37142" lon="7.50389">
        <ele>1264.75</ele>
        <time>2019-04-01T12:03:05Z</time>
      </trkpt>
      <trkpt lat="60.37159" lon="7.50406">
        <ele>1267.16</ele>
        <time>2019-04-01T12:03:25Z</time>
      </trkpt>
      <trkpt lat="60.37174" lon="7.50422">
        <ele>1269.56</ele>
        <time>2019-04-01T12:03:43Z</time>
      </trkpt>
      <trkpt lat="60.37187" lon="7.50436">
        <ele>1271.48</ele>
        <time>2019-04-01T12:04:01Z</time>
      </trkpt>
      <trkpt lat="60.37187" lon="7.50439">
        <ele>1271.96</ele>
        <time>2019-04-01T12:04:20Z</time>
      </trkpt>
      <trkpt lat="60.37191" lon="7.50442">
        <ele>1272.92</ele>
        <time>2019-04-01T12:04:39Z</time>
      </trkpt>
      <trkpt lat="60.37206" lon="7.50461">
        <ele>1275.81</ele>
        <time>2019-04-01T12:04:57Z</time>
      </trkpt>
      <trkpt lat="60.37219" lon="7.50482">
        <ele>1277.73</ele>
        <time>2019-04-01T12:05:14Z</time>
      </trkpt>
      <trkpt lat="60.3723" lon="7.50501">
        <ele>1280.61</ele>
        <time>2019-04-01T12:05:30Z</time>
      </trkpt>
      <trkpt lat="60.3724" lon="7.50519">
        <ele>1283.5</ele>
        <time>2019-04-01T12:05:46Z</time>
      </trkpt>
      <trkpt lat="60.37252" lon="7.50534">
        <ele>1286.38</ele>
        <time>2019-04-01T12:06:03Z</time>
      </trkpt>
      <trkpt lat="60.37264" lon="7.5055">
        <ele>1288.3</ele>
        <time>2019-04-01T12:06:19Z</time>
      </trkpt>
      <trkpt lat="60.37275" lon="7.50575">
        <ele>1290.23</ele>
        <time>2019-04-01T12:06:36Z</time>
      </trkpt>
      <trkpt lat="60.37288" lon="7.50602">
        <ele>1292.63</ele>
        <time>2019-04-01T12:06:53Z</time>
      </trkpt>
      <trkpt lat="60.37297" lon="7.50628">
        <ele>1294.07</ele>
        <time>2019-04-01T12:07:11Z</time>
      </trkpt>
      <trkpt lat="60.373" lon="7.50637">
        <ele>1295.03</ele>
        <time>2019-04-01T12:07:29Z</time>
      </trkpt>
      <trkpt lat="60.37305" lon="7.50659">
        <ele>1296.48</ele>
        <time>2019-04-01T12:07:44Z</time>
      </trkpt>
      <trkpt lat="60.37307" lon="7.50667">
        <ele>1296.96</ele>
        <time>2019-04-01T12:08:00Z</time>
      </trkpt>
      <trkpt lat="60.37309" lon="7.50683">
        <ele>1297.44</ele>
        <time>2019-04-01T12:08:13Z</time>
      </trkpt>
      <trkpt lat="60.37312" lon="7.50691">
        <ele>1297.92</ele>
        <time>2019-04-01T12:08:24Z</time>
      </trkpt>
      <trkpt lat="60.37313" lon="7.50693">
        <ele>1297.92</ele>
        <time>2019-04-01T12:08:26Z</time>
      </trkpt>
      <trkpt lat="60.37321" lon="7.50716">
        <ele>1297.92</ele>
        <time>2019-04-01T12:08:41Z</time>
      </trkpt>
      <trkpt lat="60.3733" lon="7.50745">
        <ele>1297.92</ele>
        <time>2019-04-01T12:08:55Z</time>
      </trkpt>
      <trkpt lat="60.3734" lon="7.50769">
        <ele>1296.96</ele>
        <time>2019-04-01T12:09:08Z</time>
      </trkpt>
      <trkpt lat="60.37355" lon="7.508">
        <ele>1295.03</ele>
        <time>2019-04-01T12:09:21Z</time>
      </trkpt>
      <trkpt lat="60.37364" lon="7.50819">
        <ele>1295.51</ele>
        <time>2019-04-01T12:09:35Z</time>
      </trkpt>
      <trkpt lat="60.37371" lon="7.50835">
        <ele>1295.51</ele>
        <time>2019-04-01T12:09:53Z</time>
      </trkpt>
      <trkpt lat="60.37376" lon="7.50851">
        <ele>1295.03</ele>
        <time>2019-04-01T12:10:05Z</time>
      </trkpt>
      <trkpt lat="60.37383" lon="7.5087">
        <ele>1296.48</ele>
        <time>2019-04-01T12:10:21Z</time>
      </trkpt>
      <trkpt lat="60.37393" lon="7.50888">
        <ele>1296.96</ele>
        <time>2019-04-01T12:10:36Z</time>
      </trkpt>
      <trkpt lat="60.37397" lon="7.50894">
        <ele>1296.96</ele>
        <time>2019-04-01T12:10:40Z</time>
      </trkpt>
      <trkpt lat="60.37413" lon="7.50913">
        <ele>1297.44</ele>
        <time>2019-04-01T12:10:55Z</time>
      </trkpt>
      <trkpt lat="60.37427" lon="7.50926">
        <ele>1298.4</ele>
        <time>2019-04-01T12:11:10Z</time>
      </trkpt>
      <trkpt lat="60.37437" lon="7.50944">
        <ele>1298.88</ele>
        <time>2019-04-01T12:11:24Z</time>
      </trkpt>
      <trkpt lat="60.37446" lon="7.50959">
        <ele>1298.4</ele>
        <time>2019-04-01T12:11:38Z</time>
      </trkpt>
      <trkpt lat="60.37457" lon="7.50976">
        <ele>1297.44</ele>
        <time>2019-04-01T12:11:51Z</time>
      </trkpt>
      <trkpt lat="60.37473" lon="7.50991">
        <ele>1295.99</ele>
        <time>2019-04-01T12:12:05Z</time>
      </trkpt>
      <trkpt lat="60.37486" lon="7.51006">
        <ele>1295.51</ele>
        <time>2019-04-01T12:12:19Z</time>
      </trkpt>
      <trkpt lat="60.37498" lon="7.51015">
        <ele>1295.99</ele>
        <time>2019-04-01T12:12:32Z</time>
      </trkpt>
      <trkpt lat="60.37513" lon="7.51028">
        <ele>1298.4</ele>
        <time>2019-04-01T12:12:49Z</time>
      </trkpt>
      <trkpt lat="60.37525" lon="7.51037">
        <ele>1300.8</ele>
        <time>2019-04-01T12:13:05Z</time>
      </trkpt>
      <trkpt lat="60.37537" lon="7.51046">
        <ele>1303.2</ele>
        <time>2019-04-01T12:13:21Z</time>
      </trkpt>
      <trkpt lat="60.37548" lon="7.51055">
        <ele>1306.09</ele>
        <time>2019-04-01T12:13:35Z</time>
      </trkpt>
      <trkpt lat="60.37553" lon="7.51076">
        <ele>1308.01</ele>
        <time>2019-04-01T12:13:49Z</time>
      </trkpt>
      <trkpt lat="60.37556" lon="7.51095">
        <ele>1311.38</ele>
        <time>2019-04-01T12:14:01Z</time>
      </trkpt>
      <trkpt lat="60.37559" lon="7.51115">
        <ele>1312.82</ele>
        <time>2019-04-01T12:14:16Z</time>
      </trkpt>
      <trkpt lat="60.3756" lon="7.51126">
        <ele>1313.78</ele>
        <time>2019-04-01T12:14:23Z</time>
      </trkpt>
      <trkpt lat="60.3756" lon="7.51147">
        <ele>1315.7</ele>
        <time>2019-04-01T12:14:42Z</time>
      </trkpt>
      <trkpt lat="60.37561" lon="7.51145">
        <ele>1316.18</ele>
        <time>2019-04-01T12:15:02Z</time>
      </trkpt>
      <trkpt lat="60.37566" lon="7.51136">
        <ele>1316.66</ele>
        <time>2019-04-01T12:15:19Z</time>
      </trkpt>
      <trkpt lat="60.37576" lon="7.51128">
        <ele>1320.03</ele>
        <time>2019-04-01T12:15:35Z</time>
      </trkpt>
      <trkpt lat="60.37584" lon="7.51119">
        <ele>1321.95</ele>
        <time>2019-04-01T12:15:49Z</time>
      </trkpt>
      <trkpt lat="60.37585" lon="7.51124">
        <ele>1322.91</ele>
        <time>2019-04-01T12:16:04Z</time>
      </trkpt>
      <trkpt lat="60.37586" lon="7.51144">
        <ele>1325.31</ele>
        <time>2019-04-01T12:16:20Z</time>
      </trkpt>
      <trkpt lat="60.37587" lon="7.51165">
        <ele>1328.2</ele>
        <time>2019-04-01T12:16:37Z</time>
      </trkpt>
      <trkpt lat="60.37589" lon="7.51187">
        <ele>1330.12</ele>
        <time>2019-04-01T12:16:54Z</time>
      </trkpt>
      <trkpt lat="60.37592" lon="7.51194">
        <ele>1330.6</ele>
        <time>2019-04-01T12:17:07Z</time>
      </trkpt>
      <trkpt lat="60.37593" lon="7.51193">
        <ele>1331.08</ele>
        <time>2019-04-01T12:17:30Z</time>
      </trkpt>
      <trkpt lat="60.37593" lon="7.51192">
        <ele>1331.08</ele>
        <time>2019-04-01T12:17:48Z</time>
      </trkpt>
      <trkpt lat="60.37594" lon="7.51195">
        <ele>1331.08</ele>
        <time>2019-04-01T12:18:02Z</time>
      </trkpt>
      <trkpt lat="60.37593" lon="7.51196">
        <ele>1331.08</ele>
        <time>2019-04-01T12:18:22Z</time>
      </trkpt>
      <trkpt lat="60.37594" lon="7.51195">
        <ele>1328.68</ele>
        <time>2019-04-01T12:18:38Z</time>
      </trkpt>
      <trkpt lat="60.37593" lon="7.51195">
        <ele>1334.45</ele>
        <time>2019-04-01T12:18:40Z</time>
      </trkpt>
      <trkpt lat="60.37593" lon="7.51197">
        <ele>1331.08</ele>
        <time>2019-04-01T12:18:41Z</time>
      </trkpt>
      <trkpt lat="60.37595" lon="7.51202">
        <ele>1331.08</ele>
        <time>2019-04-01T12:18:44Z</time>
      </trkpt>
      <trkpt lat="60.37599" lon="7.5121">
        <ele>1332.52</ele>
        <time>2019-04-01T12:18:50Z</time>
      </trkpt>
      <trkpt lat="60.37603" lon="7.51221">
        <ele>1333.97</ele>
        <time>2019-04-01T12:19:04Z</time>
      </trkpt>
      <trkpt lat="60.37603" lon="7.51222">
        <ele>1333.97</ele>
        <time>2019-04-01T12:19:27Z</time>
      </trkpt>
      <trkpt lat="60.37603" lon="7.5122">
        <ele>1333.97</ele>
        <time>2019-04-01T12:19:41Z</time>
      </trkpt>
      <trkpt lat="60.37601" lon="7.5122">
        <ele>1333.97</ele>
        <time>2019-04-01T12:19:48Z</time>
      </trkpt>
      <trkpt lat="60.37598" lon="7.51218">
        <ele>1333.97</ele>
        <time>2019-04-01T12:19:52Z</time>
      </trkpt>
      <trkpt lat="60.37596" lon="7.5121">
        <ele>1332.52</ele>
        <time>2019-04-01T12:19:55Z</time>
      </trkpt>
      <trkpt lat="60.37588" lon="7.51204">
        <ele>1330.6</ele>
        <time>2019-04-01T12:20:05Z</time>
      </trkpt>
      <trkpt lat="60.37589" lon="7.51204">
        <ele>1330.6</ele>
        <time>2019-04-01T12:20:31Z</time>
      </trkpt>
      <trkpt lat="60.3759" lon="7.51199">
        <ele>1330.6</ele>
        <time>2019-04-01T12:20:36Z</time>
      </trkpt>
      <trkpt lat="60.37593" lon="7.51173">
        <ele>1330.6</ele>
        <time>2019-04-01T12:20:50Z</time>
      </trkpt>
      <trkpt lat="60.37593" lon="7.51175">
        <ele>1330.6</ele>
        <time>2019-04-01T12:21:13Z</time>
      </trkpt>
      <trkpt lat="60.37596" lon="7.51171">
        <ele>1330.6</ele>
        <time>2019-04-01T12:21:32Z</time>
      </trkpt>
      <trkpt lat="60.37599" lon="7.51168">
        <ele>1330.6</ele>
        <time>2019-04-01T12:21:44Z</time>
      </trkpt>
      <trkpt lat="60.376" lon="7.51163">
        <ele>1330.6</ele>
        <time>2019-04-01T12:22:06Z</time>
      </trkpt>
      <trkpt lat="60.376" lon="7.51165">
        <ele>1330.6</ele>
        <time>2019-04-01T12:22:33Z</time>
      </trkpt>
      <trkpt lat="60.37601" lon="7.51166">
        <ele>1330.6</ele>
        <time>2019-04-01T12:22:54Z</time>
      </trkpt>
      <trkpt lat="60.37601" lon="7.51167">
        <ele>1330.6</ele>
        <time>2019-04-01T12:23:14Z</time>
      </trkpt>
      <trkpt lat="60.37601" lon="7.51168">
        <ele>1330.6</ele>
        <time>2019-04-01T12:23:29Z</time>
      </trkpt>
      <trkpt lat="60.376" lon="7.5117">
        <ele>1330.6</ele>
        <time>2019-04-01T12:23:52Z</time>
      </trkpt>
      <trkpt lat="60.376" lon="7.51169">
        <ele>1330.6</ele>
        <time>2019-04-01T12:24:18Z</time>
      </trkpt>
      <trkpt lat="60.37601" lon="7.5117">
        <ele>1330.12</ele>
        <time>2019-04-01T12:24:32Z</time>
      </trkpt>
      <trkpt lat="60.37603" lon="7.51204">
        <ele>1331.56</ele>
        <time>2019-04-01T12:24:44Z</time>
      </trkpt>
      <trkpt lat="60.37604" lon="7.51222">
        <ele>1333.01</ele>
        <time>2019-04-01T12:24:58Z</time>
      </trkpt>
      <trkpt lat="60.37605" lon="7.51223">
        <ele>1333.49</ele>
        <time>2019-04-01T12:25:24Z</time>
      </trkpt>
      <trkpt lat="60.37605" lon="7.51221">
        <ele>1333.49</ele>
        <time>2019-04-01T12:25:50Z</time>
      </trkpt>
      <trkpt lat="60.37604" lon="7.51221">
        <ele>1333.49</ele>
        <time>2019-04-01T12:26:21Z</time>
      </trkpt>
      <trkpt lat="60.37604" lon="7.51222">
        <ele>1333.49</ele>
        <time>2019-04-01T12:26:52Z</time>
      </trkpt>
      <trkpt lat="60.37604" lon="7.51221">
        <ele>1332.04</ele>
        <time>2019-04-01T12:26:57Z</time>
      </trkpt>
      <trkpt lat="60.37603" lon="7.5122">
        <ele>1331.56</ele>
        <time>2019-04-01T12:27:38Z</time>
      </trkpt>
      <trkpt lat="60.37603" lon="7.51222">
        <ele>1331.56</ele>
        <time>2019-04-01T12:28:20Z</time>
      </trkpt>
      <trkpt lat="60.37603" lon="7.5122">
        <ele>1331.56</ele>
        <time>2019-04-01T12:29:06Z</time>
      </trkpt>
      <trkpt lat="60.37602" lon="7.51222">
        <ele>1331.56</ele>
        <time>2019-04-01T12:29:52Z</time>
      </trkpt>
      <trkpt lat="60.37603" lon="7.51223">
        <ele>1331.56</ele>
        <time>2019-04-01T12:30:32Z</time>
      </trkpt>
      <trkpt lat="60.37604" lon="7.5122">
        <ele>1331.56</ele>
        <time>2019-04-01T12:31:16Z</time>
      </trkpt>
      <trkpt lat="60.37604" lon="7.51221">
        <ele>1333.01</ele>
        <time>2019-04-01T12:31:50Z</time>
      </trkpt>
      <trkpt lat="60.37604" lon="7.51221">
        <ele>1333.01</ele>
        <time>2019-04-01T12:32:34Z</time>
      </trkpt>
      <trkpt lat="60.37604" lon="7.5122">
        <ele>1333.49</ele>
        <time>2019-04-01T12:33:19Z</time>
      </trkpt>
      <trkpt lat="60.37604" lon="7.5122">
        <ele>1333.97</ele>
        <time>2019-04-01T12:33:28Z</time>
      </trkpt>
      <trkpt lat="60.37603" lon="7.51222">
        <ele>1337.33</ele>
        <time>2019-04-01T12:33:39Z</time>
      </trkpt>
      <trkpt lat="60.37603" lon="7.51222">
        <ele>1333.01</ele>
        <time>2019-04-01T12:33:40Z</time>
      </trkpt>
      <trkpt lat="60.37604" lon="7.5122">
        <ele>1334.45</ele>
        <time>2019-04-01T12:34:12Z</time>
      </trkpt>
      <trkpt lat="60.37604" lon="7.51222">
        <ele>1334.45</ele>
        <time>2019-04-01T12:34:52Z</time>
      </trkpt>
      <trkpt lat="60.37604" lon="7.51221">
        <ele>1334.45</ele>
        <time>2019-04-01T12:35:36Z</time>
      </trkpt>
      <trkpt lat="60.37604" lon="7.51221">
        <ele>1334.45</ele>
        <time>2019-04-01T12:36:13Z</time>
      </trkpt>
      <trkpt lat="60.37604" lon="7.51221">
        <ele>1334.93</ele>
        <time>2019-04-01T12:36:48Z</time>
      </trkpt>
      <trkpt lat="60.37603" lon="7.51221">
        <ele>1334.93</ele>
        <time>2019-04-01T12:37:17Z</time>
      </trkpt>
      <trkpt lat="60.37603" lon="7.5122">
        <ele>1334.93</ele>
        <time>2019-04-01T12:37:56Z</time>
      </trkpt>
      <trkpt lat="60.37604" lon="7.51219">
        <ele>1335.41</ele>
        <time>2019-04-01T12:38:15Z</time>
      </trkpt>
      <trkpt lat="60.37605" lon="7.51221">
        <ele>1335.41</ele>
        <time>2019-04-01T12:38:37Z</time>
      </trkpt>
      <trkpt lat="60.37604" lon="7.51226">
        <ele>1335.41</ele>
        <time>2019-04-01T12:38:56Z</time>
      </trkpt>
      <trkpt lat="60.37606" lon="7.51228">
        <ele>1335.89</ele>
        <time>2019-04-01T12:39:08Z</time>
      </trkpt>
      <trkpt lat="60.37606" lon="7.51228">
        <ele>1327.24</ele>
        <time>2019-04-01T12:39:14Z</time>
      </trkpt>
      <trkpt lat="60.37608" lon="7.51233">
        <ele>1335.41</ele>
        <time>2019-04-01T12:39:16Z</time>
      </trkpt>
      <trkpt lat="60.37607" lon="7.51229">
        <ele>1335.89</ele>
        <time>2019-04-01T12:39:23Z</time>
      </trkpt>
      <trkpt lat="60.37607" lon="7.51227">
        <ele>1339.73</ele>
        <time>2019-04-01T12:39:24Z</time>
      </trkpt>
      <trkpt lat="60.37607" lon="7.51226">
        <ele>1335.41</ele>
        <time>2019-04-01T12:39:25Z</time>
      </trkpt>
      <trkpt lat="60.37604" lon="7.51224">
        <ele>1335.41</ele>
        <time>2019-04-01T12:39:44Z</time>
      </trkpt>
      <trkpt lat="60.37604" lon="7.51225">
        <ele>1329.16</ele>
        <time>2019-04-01T12:39:52Z</time>
      </trkpt>
      <trkpt lat="60.37604" lon="7.51226">
        <ele>1328.68</ele>
        <time>2019-04-01T12:39:53Z</time>
      </trkpt>
      <trkpt lat="60.37604" lon="7.51226">
        <ele>1335.41</ele>
        <time>2019-04-01T12:39:54Z</time>
      </trkpt>
      <trkpt lat="60.37604" lon="7.51222">
        <ele>1336.85</ele>
        <time>2019-04-01T12:39:56Z</time>
      </trkpt>
      <trkpt lat="60.37605" lon="7.51216">
        <ele>1335.89</ele>
        <time>2019-04-01T12:40:00Z</time>
      </trkpt>
      <trkpt lat="60.37605" lon="7.51216">
        <ele>1335.41</ele>
        <time>2019-04-01T12:40:11Z</time>
      </trkpt>
      <trkpt lat="60.37605" lon="7.51218">
        <ele>1335.41</ele>
        <time>2019-04-01T12:40:22Z</time>
      </trkpt>
      <trkpt lat="60.37604" lon="7.5122">
        <ele>1335.41</ele>
        <time>2019-04-01T12:40:54Z</time>
      </trkpt>
      <trkpt lat="60.37604" lon="7.51221">
        <ele>1336.85</ele>
        <time>2019-04-01T12:40:58Z</time>
      </trkpt>
      <trkpt lat="60.37604" lon="7.51222">
        <ele>1336.85</ele>
        <time>2019-04-01T12:41:04Z</time>
      </trkpt>
      <trkpt lat="60.37603" lon="7.51225">
        <ele>1338.29</ele>
        <time>2019-04-01T12:41:06Z</time>
      </trkpt>
      <trkpt lat="60.37601" lon="7.5123">
        <ele>1335.89</ele>
        <time>2019-04-01T12:41:11Z</time>
      </trkpt>
      <trkpt lat="60.37601" lon="7.51229">
        <ele>1339.73</ele>
        <time>2019-04-01T12:41:13Z</time>
      </trkpt>
      <trkpt lat="60.37601" lon="7.51229">
        <ele>1342.62</ele>
        <time>2019-04-01T12:41:14Z</time>
      </trkpt>
      <trkpt lat="60.37603" lon="7.51231">
        <ele>1336.85</ele>
        <time>2019-04-01T12:41:16Z</time>
      </trkpt>
      <trkpt lat="60.37605" lon="7.51225">
        <ele>1337.33</ele>
        <time>2019-04-01T12:41:26Z</time>
      </trkpt>
      <trkpt lat="60.37602" lon="7.51225">
        <ele>1338.77</ele>
        <time>2019-04-01T12:41:30Z</time>
      </trkpt>
      <trkpt lat="60.37603" lon="7.51222">
        <ele>1338.29</ele>
        <time>2019-04-01T12:41:42Z</time>
      </trkpt>
      <trkpt lat="60.37602" lon="7.5122">
        <ele>1336.37</ele>
        <time>2019-04-01T12:42:18Z</time>
      </trkpt>
      <trkpt lat="60.37602" lon="7.51219">
        <ele>1337.33</ele>
        <time>2019-04-01T12:43:03Z</time>
      </trkpt>
      <trkpt lat="60.37602" lon="7.5122">
        <ele>1337.33</ele>
        <time>2019-04-01T12:43:04Z</time>
      </trkpt>
      <trkpt lat="60.37602" lon="7.51221">
        <ele>1335.89</ele>
        <time>2019-04-01T12:43:13Z</time>
      </trkpt>
      <trkpt lat="60.37602" lon="7.51217">
        <ele>1337.33</ele>
        <time>2019-04-01T12:43:30Z</time>
      </trkpt>
      <trkpt lat="60.37601" lon="7.51219">
        <ele>1335.89</ele>
        <time>2019-04-01T12:43:38Z</time>
      </trkpt>
      <trkpt lat="60.37602" lon="7.5122">
        <ele>1337.81</ele>
        <time>2019-04-01T12:43:46Z</time>
      </trkpt>
      <trkpt lat="60.37603" lon="7.5122">
        <ele>1335.41</ele>
        <time>2019-04-01T12:43:54Z</time>
      </trkpt>
      <trkpt lat="60.37603" lon="7.51218">
        <ele>1335.41</ele>
        <time>2019-04-01T12:44:02Z</time>
      </trkpt>
      <trkpt lat="60.37602" lon="7.51217">
        <ele>1337.33</ele>
        <time>2019-04-01T12:44:11Z</time>
      </trkpt>
      <trkpt lat="60.37601" lon="7.51218">
        <ele>1337.33</ele>
        <time>2019-04-01T12:44:30Z</time>
      </trkpt>
      <trkpt lat="60.37603" lon="7.51218">
        <ele>1337.81</ele>
        <time>2019-04-01T12:44:50Z</time>
      </trkpt>
      <trkpt lat="60.37603" lon="7.51218">
        <ele>1336.37</ele>
        <time>2019-04-01T12:45:12Z</time>
      </trkpt>
      <trkpt lat="60.37603" lon="7.51216">
        <ele>1335.89</ele>
        <time>2019-04-01T12:45:16Z</time>
      </trkpt>
      <trkpt lat="60.37593" lon="7.51183">
        <ele>1334.45</ele>
        <time>2019-04-01T12:45:22Z</time>
      </trkpt>
      <trkpt lat="60.37592" lon="7.51157">
        <ele>1331.56</ele>
        <time>2019-04-01T12:45:25Z</time>
      </trkpt>
      <trkpt lat="60.37598" lon="7.51105">
        <ele>1327.72</ele>
        <time>2019-04-01T12:45:30Z</time>
      </trkpt>
      <trkpt lat="60.37592" lon="7.51081">
        <ele>1324.35</ele>
        <time>2019-04-01T12:45:37Z</time>
      </trkpt>
      <trkpt lat="60.37581" lon="7.51079">
        <ele>1320.51</ele>
        <time>2019-04-01T12:45:40Z</time>
      </trkpt>
      <trkpt lat="60.3758" lon="7.51073">
        <ele>1320.03</ele>
        <time>2019-04-01T12:45:41Z</time>
      </trkpt>
      <trkpt lat="60.37579" lon="7.51066">
        <ele>1319.07</ele>
        <time>2019-04-01T12:45:43Z</time>
      </trkpt>
      <trkpt lat="60.37562" lon="7.51006">
        <ele>1314.74</ele>
        <time>2019-04-01T12:45:51Z</time>
      </trkpt>
      <trkpt lat="60.3755" lon="7.50985">
        <ele>1311.38</ele>
        <time>2019-04-01T12:45:53Z</time>
      </trkpt>
      <trkpt lat="60.37538" lon="7.50967">
        <ele>1308.49</ele>
        <time>2019-04-01T12:45:55Z</time>
      </trkpt>
      <trkpt lat="60.37529" lon="7.50937">
        <ele>1303.69</ele>
        <time>2019-04-01T12:45:58Z</time>
      </trkpt>
      <trkpt lat="60.3753" lon="7.50932">
        <ele>1303.69</ele>
        <time>2019-04-01T12:45:59Z</time>
      </trkpt>
      <trkpt lat="60.37532" lon="7.50931">
        <ele>1303.69</ele>
        <time>2019-04-01T12:46:10Z</time>
      </trkpt>
      <trkpt lat="60.37532" lon="7.50932">
        <ele>1303.69</ele>
        <time>2019-04-01T12:46:37Z</time>
      </trkpt>
      <trkpt lat="60.37531" lon="7.50933">
        <ele>1303.69</ele>
        <time>2019-04-01T12:47:01Z</time>
      </trkpt>
      <trkpt lat="60.3753" lon="7.50934">
        <ele>1303.2</ele>
        <time>2019-04-01T12:47:19Z</time>
      </trkpt>
      <trkpt lat="60.37501" lon="7.50926">
        <ele>1301.76</ele>
        <time>2019-04-01T12:47:33Z</time>
      </trkpt>
      <trkpt lat="60.37471" lon="7.50914">
        <ele>1299.84</ele>
        <time>2019-04-01T12:47:46Z</time>
      </trkpt>
      <trkpt lat="60.37459" lon="7.50914">
        <ele>1299.84</ele>
        <time>2019-04-01T12:47:57Z</time>
      </trkpt>
      <trkpt lat="60.37446" lon="7.50909">
        <ele>1299.84</ele>
        <time>2019-04-01T12:48:09Z</time>
      </trkpt>
      <trkpt lat="60.37432" lon="7.50901">
        <ele>1299.84</ele>
        <time>2019-04-01T12:48:21Z</time>
      </trkpt>
      <trkpt lat="60.37413" lon="7.50893">
        <ele>1300.8</ele>
        <time>2019-04-01T12:48:33Z</time>
      </trkpt>
      <trkpt lat="60.37392" lon="7.5087">
        <ele>1300.8</ele>
        <time>2019-04-01T12:48:45Z</time>
      </trkpt>
      <trkpt lat="60.37381" lon="7.50865">
        <ele>1299.36</ele>
        <time>2019-04-01T12:49:00Z</time>
      </trkpt>
      <trkpt lat="60.37381" lon="7.50866">
        <ele>1299.36</ele>
        <time>2019-04-01T12:49:18Z</time>
      </trkpt>
      <trkpt lat="60.37381" lon="7.50864">
        <ele>1298.88</ele>
        <time>2019-04-01T12:49:35Z</time>
      </trkpt>
      <trkpt lat="60.3738" lon="7.50862">
        <ele>1298.4</ele>
        <time>2019-04-01T12:49:45Z</time>
      </trkpt>
      <trkpt lat="60.3738" lon="7.50861">
        <ele>1293.11</ele>
        <time>2019-04-01T12:49:57Z</time>
      </trkpt>
      <trkpt lat="60.37381" lon="7.50861">
        <ele>1298.4</ele>
        <time>2019-04-01T12:49:58Z</time>
      </trkpt>
      <trkpt lat="60.37381" lon="7.50862">
        <ele>1298.88</ele>
        <time>2019-04-01T12:50:00Z</time>
      </trkpt>
      <trkpt lat="60.37381" lon="7.50861">
        <ele>1298.4</ele>
        <time>2019-04-01T12:50:27Z</time>
      </trkpt>
      <trkpt lat="60.37381" lon="7.50862">
        <ele>1297.92</ele>
        <time>2019-04-01T12:50:47Z</time>
      </trkpt>
      <trkpt lat="60.3738" lon="7.50863">
        <ele>1297.92</ele>
        <time>2019-04-01T12:51:04Z</time>
      </trkpt>
      <trkpt lat="60.37381" lon="7.50865">
        <ele>1299.84</ele>
        <time>2019-04-01T12:51:09Z</time>
      </trkpt>
      <trkpt lat="60.37379" lon="7.50869">
        <ele>1299.84</ele>
        <time>2019-04-01T12:51:23Z</time>
      </trkpt>
      <trkpt lat="60.37378" lon="7.5087">
        <ele>1299.84</ele>
        <time>2019-04-01T12:51:47Z</time>
      </trkpt>
      <trkpt lat="60.37377" lon="7.50866">
        <ele>1299.36</ele>
        <time>2019-04-01T12:52:13Z</time>
      </trkpt>
      <trkpt lat="60.3738" lon="7.5086">
        <ele>1299.36</ele>
        <time>2019-04-01T12:52:21Z</time>
      </trkpt>
      <trkpt lat="60.37389" lon="7.50833">
        <ele>1300.32</ele>
        <time>2019-04-01T12:52:34Z</time>
      </trkpt>
      <trkpt lat="60.37395" lon="7.5082">
        <ele>1299.36</ele>
        <time>2019-04-01T12:52:45Z</time>
      </trkpt>
      <trkpt lat="60.37394" lon="7.50826">
        <ele>1299.36</ele>
        <time>2019-04-01T12:52:57Z</time>
      </trkpt>
      <trkpt lat="60.37394" lon="7.50826">
        <ele>1299.36</ele>
        <time>2019-04-01T12:53:10Z</time>
      </trkpt>
      <trkpt lat="60.37395" lon="7.50826">
        <ele>1299.36</ele>
        <time>2019-04-01T12:53:25Z</time>
      </trkpt>
      <trkpt lat="60.37395" lon="7.50827">
        <ele>1299.36</ele>
        <time>2019-04-01T12:53:57Z</time>
      </trkpt>
      <trkpt lat="60.37395" lon="7.50827">
        <ele>1299.36</ele>
        <time>2019-04-01T12:54:41Z</time>
      </trkpt>
      <trkpt lat="60.37395" lon="7.50827">
        <ele>1299.36</ele>
        <time>2019-04-01T12:55:12Z</time>
      </trkpt>
      <trkpt lat="60.37395" lon="7.50827">
        <ele>1298.88</ele>
        <time>2019-04-01T12:55:54Z</time>
      </trkpt>
      <trkpt lat="60.37395" lon="7.50826">
        <ele>1298.88</ele>
        <time>2019-04-01T12:56:33Z</time>
      </trkpt>
      <trkpt lat="60.37395" lon="7.50826">
        <ele>1298.88</ele>
        <time>2019-04-01T12:57:23Z</time>
      </trkpt>
      <trkpt lat="60.37395" lon="7.50826">
        <ele>1298.88</ele>
        <time>2019-04-01T12:57:58Z</time>
      </trkpt>
      <trkpt lat="60.37396" lon="7.50827">
        <ele>1298.88</ele>
        <time>2019-04-01T12:58:40Z</time>
      </trkpt>
      <trkpt lat="60.37397" lon="7.50826">
        <ele>1300.32</ele>
        <time>2019-04-01T12:59:11Z</time>
      </trkpt>
      <trkpt lat="60.37397" lon="7.50826">
        <ele>1300.32</ele>
        <time>2019-04-01T12:59:44Z</time>
      </trkpt>
      <trkpt lat="60.37399" lon="7.50823">
        <ele>1301.28</ele>
        <time>2019-04-01T12:59:58Z</time>
      </trkpt>
      <trkpt lat="60.37399" lon="7.5082">
        <ele>1299.84</ele>
        <time>2019-04-01T13:00:06Z</time>
      </trkpt>
      <trkpt lat="60.37399" lon="7.50812">
        <ele>1299.84</ele>
        <time>2019-04-01T13:00:15Z</time>
      </trkpt>
      <trkpt lat="60.37396" lon="7.50805">
        <ele>1300.8</ele>
        <time>2019-04-01T13:00:22Z</time>
      </trkpt>
      <trkpt lat="60.37396" lon="7.50804">
        <ele>1301.28</ele>
        <time>2019-04-01T13:00:23Z</time>
      </trkpt>
      <trkpt lat="60.37394" lon="7.50788">
        <ele>1301.28</ele>
        <time>2019-04-01T13:00:27Z</time>
      </trkpt>
      <trkpt lat="60.37389" lon="7.50752">
        <ele>1297.44</ele>
        <time>2019-04-01T13:00:31Z</time>
      </trkpt>
      <trkpt lat="60.37387" lon="7.50739">
        <ele>1296.96</ele>
        <time>2019-04-01T13:00:32Z</time>
      </trkpt>
      <trkpt lat="60.37369" lon="7.50641">
        <ele>1295.99</ele>
        <time>2019-04-01T13:00:39Z</time>
      </trkpt>
      <trkpt lat="60.37359" lon="7.50606">
        <ele>1295.99</ele>
        <time>2019-04-01T13:00:42Z</time>
      </trkpt>
      <trkpt lat="60.37347" lon="7.50566">
        <ele>1297.44</ele>
        <time>2019-04-01T13:00:46Z</time>
      </trkpt>
      <trkpt lat="60.37337" lon="7.50537">
        <ele>1296.48</ele>
        <time>2019-04-01T13:00:49Z</time>
      </trkpt>
      <trkpt lat="60.37329" lon="7.50511">
        <ele>1297.44</ele>
        <time>2019-04-01T13:00:52Z</time>
      </trkpt>
      <trkpt lat="60.3729" lon="7.50372">
        <ele>1296.96</ele>
        <time>2019-04-01T13:01:05Z</time>
      </trkpt>
      <trkpt lat="60.37271" lon="7.50312">
        <ele>1295.51</ele>
        <time>2019-04-01T13:01:10Z</time>
      </trkpt>
      <trkpt lat="60.37258" lon="7.50273">
        <ele>1293.59</ele>
        <time>2019-04-01T13:01:13Z</time>
      </trkpt>
      <trkpt lat="60.3724" lon="7.50224">
        <ele>1291.19</ele>
        <time>2019-04-01T13:01:17Z</time>
      </trkpt>
      <trkpt lat="60.37225" lon="7.50186">
        <ele>1289.75</ele>
        <time>2019-04-01T13:01:20Z</time>
      </trkpt>
      <trkpt lat="60.37206" lon="7.50149">
        <ele>1288.3</ele>
        <time>2019-04-01T13:01:23Z</time>
      </trkpt>
      <trkpt lat="60.37196" lon="7.5013">
        <ele>1287.34</ele>
        <time>2019-04-01T13:01:25Z</time>
      </trkpt>
      <trkpt lat="60.37185" lon="7.50109">
        <ele>1286.38</ele>
        <time>2019-04-01T13:01:27Z</time>
      </trkpt>
      <trkpt lat="60.37179" lon="7.501">
        <ele>1285.9</ele>
        <time>2019-04-01T13:01:28Z</time>
      </trkpt>
      <trkpt lat="60.37147" lon="7.50042">
        <ele>1283.02</ele>
        <time>2019-04-01T13:01:34Z</time>
      </trkpt>
      <trkpt lat="60.37141" lon="7.50032">
        <ele>1283.02</ele>
        <time>2019-04-01T13:01:35Z</time>
      </trkpt>
      <trkpt lat="60.37124" lon="7.5001">
        <ele>1283.02</ele>
        <time>2019-04-01T13:01:38Z</time>
      </trkpt>
      <trkpt lat="60.3712" lon="7.49986">
        <ele>1284.94</ele>
        <time>2019-04-01T13:01:42Z</time>
      </trkpt>
      <trkpt lat="60.37133" lon="7.49995">
        <ele>1287.34</ele>
        <time>2019-04-01T13:01:47Z</time>
      </trkpt>
      <trkpt lat="60.37138" lon="7.49968">
        <ele>1290.71</ele>
        <time>2019-04-01T13:01:52Z</time>
      </trkpt>
      <trkpt lat="60.37155" lon="7.49953">
        <ele>1295.03</ele>
        <time>2019-04-01T13:01:58Z</time>
      </trkpt>
      <trkpt lat="60.37163" lon="7.49956">
        <ele>1296.48</ele>
        <time>2019-04-01T13:02:09Z</time>
      </trkpt>
      <trkpt lat="60.37164" lon="7.49955">
        <ele>1297.44</ele>
        <time>2019-04-01T13:02:34Z</time>
      </trkpt>
      <trkpt lat="60.37166" lon="7.49959">
        <ele>1297.44</ele>
        <time>2019-04-01T13:02:40Z</time>
      </trkpt>
      <trkpt lat="60.3719" lon="7.49996">
        <ele>1299.36</ele>
        <time>2019-04-01T13:02:45Z</time>
      </trkpt>
      <trkpt lat="60.37201" lon="7.50021">
        <ele>1299.36</ele>
        <time>2019-04-01T13:02:47Z</time>
      </trkpt>
      <trkpt lat="60.3725" lon="7.50147">
        <ele>1299.84</ele>
        <time>2019-04-01T13:02:54Z</time>
      </trkpt>
      <trkpt lat="60.37274" lon="7.5022">
        <ele>1301.28</ele>
        <time>2019-04-01T13:02:58Z</time>
      </trkpt>
      <trkpt lat="60.37297" lon="7.50294">
        <ele>1304.65</ele>
        <time>2019-04-01T13:03:02Z</time>
      </trkpt>
      <trkpt lat="60.37306" lon="7.5037">
        <ele>1305.61</ele>
        <time>2019-04-01T13:03:06Z</time>
      </trkpt>
      <trkpt lat="60.37303" lon="7.50442">
        <ele>1304.17</ele>
        <time>2019-04-01T13:03:10Z</time>
      </trkpt>
      <trkpt lat="60.37283" lon="7.50555">
        <ele>1301.28</ele>
        <time>2019-04-01T13:03:18Z</time>
      </trkpt>
      <trkpt lat="60.37278" lon="7.50607">
        <ele>1299.84</ele>
        <time>2019-04-01T13:03:22Z</time>
      </trkpt>
      <trkpt lat="60.37284" lon="7.5063">
        <ele>1298.88</ele>
        <time>2019-04-01T13:03:27Z</time>
      </trkpt>
      <trkpt lat="60.37294" lon="7.50569">
        <ele>1297.92</ele>
        <time>2019-04-01T13:03:32Z</time>
      </trkpt>
      <trkpt lat="60.3731" lon="7.5044">
        <ele>1299.36</ele>
        <time>2019-04-01T13:03:39Z</time>
      </trkpt>
      <trkpt lat="60.3732" lon="7.50293">
        <ele>1303.2</ele>
        <time>2019-04-01T13:03:47Z</time>
      </trkpt>
      <trkpt lat="60.3732" lon="7.50279">
        <ele>1303.2</ele>
        <time>2019-04-01T13:03:48Z</time>
      </trkpt>
      <trkpt lat="60.3732" lon="7.50254">
        <ele>1303.2</ele>
        <time>2019-04-01T13:03:50Z</time>
      </trkpt>
      <trkpt lat="60.37317" lon="7.50223">
        <ele>1301.76</ele>
        <time>2019-04-01T13:03:53Z</time>
      </trkpt>
      <trkpt lat="60.37314" lon="7.50203">
        <ele>1303.2</ele>
        <time>2019-04-01T13:03:56Z</time>
      </trkpt>
      <trkpt lat="60.3731" lon="7.50165">
        <ele>1303.2</ele>
        <time>2019-04-01T13:04:04Z</time>
      </trkpt>
      <trkpt lat="60.37298" lon="7.50115">
        <ele>1304.65</ele>
        <time>2019-04-01T13:04:12Z</time>
      </trkpt>
      <trkpt lat="60.37294" lon="7.50094">
        <ele>1303.2</ele>
        <time>2019-04-01T13:04:16Z</time>
      </trkpt>
      <trkpt lat="60.37284" lon="7.50075">
        <ele>1304.65</ele>
        <time>2019-04-01T13:04:19Z</time>
      </trkpt>
      <trkpt lat="60.3728" lon="7.50069">
        <ele>1304.65</ele>
        <time>2019-04-01T13:04:20Z</time>
      </trkpt>
      <trkpt lat="60.37271" lon="7.50059">
        <ele>1303.2</ele>
        <time>2019-04-01T13:04:22Z</time>
      </trkpt>
      <trkpt lat="60.37266" lon="7.50026">
        <ele>1302.72</ele>
        <time>2019-04-01T13:04:29Z</time>
      </trkpt>
      <trkpt lat="60.37269" lon="7.50025">
        <ele>1302.72</ele>
        <time>2019-04-01T13:04:31Z</time>
      </trkpt>
      <trkpt lat="60.37281" lon="7.50051">
        <ele>1304.17</ele>
        <time>2019-04-01T13:04:37Z</time>
      </trkpt>
      <trkpt lat="60.37303" lon="7.50106">
        <ele>1307.05</ele>
        <time>2019-04-01T13:04:43Z</time>
      </trkpt>
      <trkpt lat="60.3732" lon="7.50153">
        <ele>1305.61</ele>
        <time>2019-04-01T13:04:47Z</time>
      </trkpt>
      <trkpt lat="60.37324" lon="7.50164">
        <ele>1305.61</ele>
        <time>2019-04-01T13:04:48Z</time>
      </trkpt>
      <trkpt lat="60.37329" lon="7.50183">
        <ele>1307.05</ele>
        <time>2019-04-01T13:04:50Z</time>
      </trkpt>
      <trkpt lat="60.37333" lon="7.50219">
        <ele>1308.01</ele>
        <time>2019-04-01T13:04:54Z</time>
      </trkpt>
      <trkpt lat="60.37334" lon="7.50243">
        <ele>1308.01</ele>
        <time>2019-04-01T13:04:56Z</time>
      </trkpt>
      <trkpt lat="60.37348" lon="7.50352">
        <ele>1306.09</ele>
        <time>2019-04-01T13:05:04Z</time>
      </trkpt>
      <trkpt lat="60.37348" lon="7.50498">
        <ele>1301.76</ele>
        <time>2019-04-01T13:05:13Z</time>
      </trkpt>
      <trkpt lat="60.37346" lon="7.5058">
        <ele>1301.28</ele>
        <time>2019-04-01T13:05:18Z</time>
      </trkpt>
      <trkpt lat="60.37344" lon="7.50626">
        <ele>1301.28</ele>
        <time>2019-04-01T13:05:21Z</time>
      </trkpt>
      <trkpt lat="60.37344" lon="7.50711">
        <ele>1303.2</ele>
        <time>2019-04-01T13:05:30Z</time>
      </trkpt>
      <trkpt lat="60.37343" lon="7.50725">
        <ele>1303.2</ele>
        <time>2019-04-01T13:05:45Z</time>
      </trkpt>
      <trkpt lat="60.37345" lon="7.5073">
        <ele>1303.2</ele>
        <time>2019-04-01T13:06:02Z</time>
      </trkpt>
      <trkpt lat="60.37345" lon="7.50735">
        <ele>1303.2</ele>
        <time>2019-04-01T13:06:07Z</time>
      </trkpt>
      <trkpt lat="60.37353" lon="7.50761">
        <ele>1303.2</ele>
        <time>2019-04-01T13:06:12Z</time>
      </trkpt>
      <trkpt lat="60.37362" lon="7.5083">
        <ele>1304.17</ele>
        <time>2019-04-01T13:06:17Z</time>
      </trkpt>
      <trkpt lat="60.37362" lon="7.50885">
        <ele>1304.17</ele>
        <time>2019-04-01T13:06:21Z</time>
      </trkpt>
      <trkpt lat="60.37359" lon="7.50921">
        <ele>1302.24</ele>
        <time>2019-04-01T13:06:25Z</time>
      </trkpt>
      <trkpt lat="60.3736" lon="7.50938">
        <ele>1301.76</ele>
        <time>2019-04-01T13:06:27Z</time>
      </trkpt>
      <trkpt lat="60.37371" lon="7.50994">
        <ele>1299.84</ele>
        <time>2019-04-01T13:06:33Z</time>
      </trkpt>
      <trkpt lat="60.37378" lon="7.51065">
        <ele>1294.55</ele>
        <time>2019-04-01T13:06:38Z</time>
      </trkpt>
      <trkpt lat="60.3738" lon="7.51077">
        <ele>1294.07</ele>
        <time>2019-04-01T13:06:39Z</time>
      </trkpt>
      <trkpt lat="60.37385" lon="7.51112">
        <ele>1287.82</ele>
        <time>2019-04-01T13:06:43Z</time>
      </trkpt>
      <trkpt lat="60.37387" lon="7.51117">
        <ele>1287.34</ele>
        <time>2019-04-01T13:06:44Z</time>
      </trkpt>
      <trkpt lat="60.37395" lon="7.51147">
        <ele>1284.94</ele>
        <time>2019-04-01T13:06:48Z</time>
      </trkpt>
      <trkpt lat="60.37401" lon="7.51163">
        <ele>1284.46</ele>
        <time>2019-04-01T13:06:50Z</time>
      </trkpt>
      <trkpt lat="60.37406" lon="7.51174">
        <ele>1283.98</ele>
        <time>2019-04-01T13:06:51Z</time>
      </trkpt>
      <trkpt lat="60.37418" lon="7.51218">
        <ele>1282.06</ele>
        <time>2019-04-01T13:06:54Z</time>
      </trkpt>
      <trkpt lat="60.37421" lon="7.51261">
        <ele>1277.73</ele>
        <time>2019-04-01T13:06:56Z</time>
      </trkpt>
      <trkpt lat="60.37418" lon="7.51307">
        <ele>1275.33</ele>
        <time>2019-04-01T13:06:58Z</time>
      </trkpt>
      <trkpt lat="60.3741" lon="7.51369">
        <ele>1270.52</ele>
        <time>2019-04-01T13:07:01Z</time>
      </trkpt>
      <trkpt lat="60.37398" lon="7.5143">
        <ele>1266.67</ele>
        <time>2019-04-01T13:07:04Z</time>
      </trkpt>
      <trkpt lat="60.3739" lon="7.51468">
        <ele>1263.79</ele>
        <time>2019-04-01T13:07:06Z</time>
      </trkpt>
      <trkpt lat="60.37385" lon="7.51508">
        <ele>1261.39</ele>
        <time>2019-04-01T13:07:08Z</time>
      </trkpt>
      <trkpt lat="60.37367" lon="7.51616">
        <ele>1262.83</ele>
        <time>2019-04-01T13:07:15Z</time>
      </trkpt>
      <trkpt lat="60.37361" lon="7.51639">
        <ele>1263.79</ele>
        <time>2019-04-01T13:07:17Z</time>
      </trkpt>
      <trkpt lat="60.37351" lon="7.51674">
        <ele>1265.23</ele>
        <time>2019-04-01T13:07:20Z</time>
      </trkpt>
      <trkpt lat="60.37327" lon="7.51741">
        <ele>1261.39</ele>
        <time>2019-04-01T13:07:25Z</time>
      </trkpt>
      <trkpt lat="60.37317" lon="7.51772">
        <ele>1258.02</ele>
        <time>2019-04-01T13:07:27Z</time>
      </trkpt>
      <trkpt lat="60.37306" lon="7.51805">
        <ele>1255.62</ele>
        <time>2019-04-01T13:07:29Z</time>
      </trkpt>
      <trkpt lat="60.37301" lon="7.5182">
        <ele>1251.77</ele>
        <time>2019-04-01T13:07:30Z</time>
      </trkpt>
      <trkpt lat="60.37295" lon="7.51835">
        <ele>1251.77</ele>
        <time>2019-04-01T13:07:31Z</time>
      </trkpt>
      <trkpt lat="60.37279" lon="7.51878">
        <ele>1248.89</ele>
        <time>2019-04-01T13:07:34Z</time>
      </trkpt>
      <trkpt lat="60.37263" lon="7.51916">
        <ele>1246.97</ele>
        <time>2019-04-01T13:07:37Z</time>
      </trkpt>
      <trkpt lat="60.37247" lon="7.51955">
        <ele>1243.6</ele>
        <time>2019-04-01T13:07:40Z</time>
      </trkpt>
      <trkpt lat="60.3723" lon="7.51993">
        <ele>1240.24</ele>
        <time>2019-04-01T13:07:43Z</time>
      </trkpt>
      <trkpt lat="60.37224" lon="7.52004">
        <ele>1238.32</ele>
        <time>2019-04-01T13:07:44Z</time>
      </trkpt>
      <trkpt lat="60.37205" lon="7.52026">
        <ele>1233.99</ele>
        <time>2019-04-01T13:07:47Z</time>
      </trkpt>
      <trkpt lat="60.37201" lon="7.5203">
        <ele>1233.03</ele>
        <time>2019-04-01T13:07:48Z</time>
      </trkpt>
      <trkpt lat="60.37197" lon="7.52041">
        <ele>1229.66</ele>
        <time>2019-04-01T13:07:52Z</time>
      </trkpt>
      <trkpt lat="60.37197" lon="7.52041">
        <ele>1229.66</ele>
        <time>2019-04-01T13:07:53Z</time>
      </trkpt>
      <trkpt lat="60.37207" lon="7.52029">
        <ele>1230.62</ele>
        <time>2019-04-01T13:07:57Z</time>
      </trkpt>
      <trkpt lat="60.37215" lon="7.52006">
        <ele>1232.07</ele>
        <time>2019-04-01T13:08:00Z</time>
      </trkpt>
      <trkpt lat="60.37221" lon="7.51987">
        <ele>1232.07</ele>
        <time>2019-04-01T13:08:02Z</time>
      </trkpt>
      <trkpt lat="60.37225" lon="7.51943">
        <ele>1233.99</ele>
        <time>2019-04-01T13:08:06Z</time>
      </trkpt>
      <trkpt lat="60.37224" lon="7.51908">
        <ele>1234.47</ele>
        <time>2019-04-01T13:08:09Z</time>
      </trkpt>
      <trkpt lat="60.3722" lon="7.51832">
        <ele>1235.91</ele>
        <time>2019-04-01T13:08:15Z</time>
      </trkpt>
      <trkpt lat="60.37218" lon="7.5181">
        <ele>1236.87</ele>
        <time>2019-04-01T13:08:17Z</time>
      </trkpt>
      <trkpt lat="60.37217" lon="7.51801">
        <ele>1237.35</ele>
        <time>2019-04-01T13:08:18Z</time>
      </trkpt>
      <trkpt lat="60.37213" lon="7.51769">
        <ele>1239.76</ele>
        <time>2019-04-01T13:08:22Z</time>
      </trkpt>
      <trkpt lat="60.37211" lon="7.5175">
        <ele>1241.2</ele>
        <time>2019-04-01T13:08:25Z</time>
      </trkpt>
      <trkpt lat="60.37211" lon="7.51738">
        <ele>1242.16</ele>
        <time>2019-04-01T13:08:27Z</time>
      </trkpt>
      <trkpt lat="60.37206" lon="7.5169">
        <ele>1245.04</ele>
        <time>2019-04-01T13:08:33Z</time>
      </trkpt>
      <trkpt lat="60.37193" lon="7.51642">
        <ele>1246.01</ele>
        <time>2019-04-01T13:08:39Z</time>
      </trkpt>
      <trkpt lat="60.37183" lon="7.51621">
        <ele>1244.08</ele>
        <time>2019-04-01T13:08:42Z</time>
      </trkpt>
      <trkpt lat="60.3718" lon="7.51615">
        <ele>1244.08</ele>
        <time>2019-04-01T13:08:43Z</time>
      </trkpt>
      <trkpt lat="60.37174" lon="7.51602">
        <ele>1246.01</ele>
        <time>2019-04-01T13:08:45Z</time>
      </trkpt>
      <trkpt lat="60.37169" lon="7.51584">
        <ele>1246.01</ele>
        <time>2019-04-01T13:08:47Z</time>
      </trkpt>
      <trkpt lat="60.37153" lon="7.51537">
        <ele>1245.53</ele>
        <time>2019-04-01T13:08:52Z</time>
      </trkpt>
      <trkpt lat="60.37143" lon="7.51497">
        <ele>1241.68</ele>
        <time>2019-04-01T13:08:55Z</time>
      </trkpt>
      <trkpt lat="60.37111" lon="7.51404">
        <ele>1237.35</ele>
        <time>2019-04-01T13:09:02Z</time>
      </trkpt>
      <trkpt lat="60.37106" lon="7.5139">
        <ele>1237.35</ele>
        <time>2019-04-01T13:09:03Z</time>
      </trkpt>
      <trkpt lat="60.37092" lon="7.5135">
        <ele>1234.95</ele>
        <time>2019-04-01T13:09:06Z</time>
      </trkpt>
      <trkpt lat="60.37083" lon="7.51323">
        <ele>1233.03</ele>
        <time>2019-04-01T13:09:08Z</time>
      </trkpt>
      <trkpt lat="60.37071" lon="7.51285">
        <ele>1234.47</ele>
        <time>2019-04-01T13:09:11Z</time>
      </trkpt>
      <trkpt lat="60.37064" lon="7.5126">
        <ele>1234.47</ele>
        <time>2019-04-01T13:09:13Z</time>
      </trkpt>
      <trkpt lat="60.37054" lon="7.51232">
        <ele>1234.95</ele>
        <time>2019-04-01T13:09:16Z</time>
      </trkpt>
      <trkpt lat="60.37052" lon="7.51166">
        <ele>1235.43</ele>
        <time>2019-04-01T13:09:24Z</time>
      </trkpt>
      <trkpt lat="60.37043" lon="7.51122">
        <ele>1237.35</ele>
        <time>2019-04-01T13:09:33Z</time>
      </trkpt>
      <trkpt lat="60.37045" lon="7.51105">
        <ele>1237.83</ele>
        <time>2019-04-01T13:09:36Z</time>
      </trkpt>
      <trkpt lat="60.37043" lon="7.5106">
        <ele>1239.28</ele>
        <time>2019-04-01T13:09:41Z</time>
      </trkpt>
      <trkpt lat="60.37041" lon="7.5101">
        <ele>1240.72</ele>
        <time>2019-04-01T13:09:48Z</time>
      </trkpt>
      <trkpt lat="60.3704" lon="7.50956">
        <ele>1242.16</ele>
        <time>2019-04-01T13:09:56Z</time>
      </trkpt>
      <trkpt lat="60.3704" lon="7.50949">
        <ele>1242.16</ele>
        <time>2019-04-01T13:09:57Z</time>
      </trkpt>
      <trkpt lat="60.37038" lon="7.50922">
        <ele>1242.64</ele>
        <time>2019-04-01T13:10:01Z</time>
      </trkpt>
      <trkpt lat="60.37036" lon="7.50896">
        <ele>1244.08</ele>
        <time>2019-04-01T13:10:04Z</time>
      </trkpt>
      <trkpt lat="60.37034" lon="7.50869">
        <ele>1244.56</ele>
        <time>2019-04-01T13:10:07Z</time>
      </trkpt>
      <trkpt lat="60.37032" lon="7.50808">
        <ele>1246.01</ele>
        <time>2019-04-01T13:10:15Z</time>
      </trkpt>
      <trkpt lat="60.37034" lon="7.50748">
        <ele>1246.97</ele>
        <time>2019-04-01T13:10:22Z</time>
      </trkpt>
      <trkpt lat="60.37033" lon="7.50732">
        <ele>1246.97</ele>
        <time>2019-04-01T13:10:24Z</time>
      </trkpt>
      <trkpt lat="60.37047" lon="7.50687">
        <ele>1247.93</ele>
        <time>2019-04-01T13:10:30Z</time>
      </trkpt>
      <trkpt lat="60.37051" lon="7.50664">
        <ele>1247.93</ele>
        <time>2019-04-01T13:10:33Z</time>
      </trkpt>
      <trkpt lat="60.37058" lon="7.5063">
        <ele>1247.93</ele>
        <time>2019-04-01T13:10:37Z</time>
      </trkpt>
      <trkpt lat="60.37062" lon="7.50609">
        <ele>1247.93</ele>
        <time>2019-04-01T13:10:39Z</time>
      </trkpt>
      <trkpt lat="60.37072" lon="7.50549">
        <ele>1248.89</ele>
        <time>2019-04-01T13:10:49Z</time>
      </trkpt>
      <trkpt lat="60.37076" lon="7.50538">
        <ele>1250.81</ele>
        <time>2019-04-01T13:10:52Z</time>
      </trkpt>
      <trkpt lat="60.37084" lon="7.50519">
        <ele>1252.74</ele>
        <time>2019-04-01T13:10:58Z</time>
      </trkpt>
      <trkpt lat="60.37086" lon="7.50498">
        <ele>1254.18</ele>
        <time>2019-04-01T13:11:06Z</time>
      </trkpt>
      <trkpt lat="60.37091" lon="7.50464">
        <ele>1256.58</ele>
        <time>2019-04-01T13:11:16Z</time>
      </trkpt>
      <trkpt lat="60.37099" lon="7.50453">
        <ele>1258.98</ele>
        <time>2019-04-01T13:11:23Z</time>
      </trkpt>
      <trkpt lat="60.37106" lon="7.50439">
        <ele>1260.91</ele>
        <time>2019-04-01T13:11:31Z</time>
      </trkpt>
      <trkpt lat="60.37111" lon="7.50423">
        <ele>1262.83</ele>
        <time>2019-04-01T13:11:40Z</time>
      </trkpt>
      <trkpt lat="60.37117" lon="7.50401">
        <ele>1265.71</ele>
        <time>2019-04-01T13:11:47Z</time>
      </trkpt>
      <trkpt lat="60.37124" lon="7.50388">
        <ele>1267.64</ele>
        <time>2019-04-01T13:11:51Z</time>
      </trkpt>
      <trkpt lat="60.37134" lon="7.50355">
        <ele>1271</ele>
        <time>2019-04-01T13:11:59Z</time>
      </trkpt>
      <trkpt lat="60.37135" lon="7.50335">
        <ele>1272.92</ele>
        <time>2019-04-01T13:12:02Z</time>
      </trkpt>
      <trkpt lat="60.37136" lon="7.50328">
        <ele>1273.4</ele>
        <time>2019-04-01T13:12:03Z</time>
      </trkpt>
      <trkpt lat="60.37138" lon="7.50308">
        <ele>1274.36</ele>
        <time>2019-04-01T13:12:06Z</time>
      </trkpt>
      <trkpt lat="60.37137" lon="7.50274">
        <ele>1275.33</ele>
        <time>2019-04-01T13:12:10Z</time>
      </trkpt>
      <trkpt lat="60.37137" lon="7.50266">
        <ele>1275.33</ele>
        <time>2019-04-01T13:12:11Z</time>
      </trkpt>
      <trkpt lat="60.37137" lon="7.50238">
        <ele>1276.77</ele>
        <time>2019-04-01T13:12:14Z</time>
      </trkpt>
      <trkpt lat="60.37139" lon="7.50203">
        <ele>1278.21</ele>
        <time>2019-04-01T13:12:18Z</time>
      </trkpt>
      <trkpt lat="60.37141" lon="7.50164">
        <ele>1280.13</ele>
        <time>2019-04-01T13:12:22Z</time>
      </trkpt>
      <trkpt lat="60.37153" lon="7.50107">
        <ele>1285.42</ele>
        <time>2019-04-01T13:12:29Z</time>
      </trkpt>
      <trkpt lat="60.37162" lon="7.50074">
        <ele>1288.78</ele>
        <time>2019-04-01T13:12:35Z</time>
      </trkpt>
      <trkpt lat="60.37164" lon="7.50072">
        <ele>1288.78</ele>
        <time>2019-04-01T13:12:36Z</time>
      </trkpt>
      <trkpt lat="60.37166" lon="7.5007">
        <ele>1288.78</ele>
        <time>2019-04-01T13:12:37Z</time>
      </trkpt>
      <trkpt lat="60.37173" lon="7.50046">
        <ele>1293.11</ele>
        <time>2019-04-01T13:12:41Z</time>
      </trkpt>
      <trkpt lat="60.37177" lon="7.50014">
        <ele>1295.99</ele>
        <time>2019-04-01T13:12:46Z</time>
      </trkpt>
      <trkpt lat="60.37181" lon="7.50002">
        <ele>1297.44</ele>
        <time>2019-04-01T13:12:49Z</time>
      </trkpt>
      <trkpt lat="60.37194" lon="7.49979">
        <ele>1300.8</ele>
        <time>2019-04-01T13:12:54Z</time>
      </trkpt>
      <trkpt lat="60.37195" lon="7.49961">
        <ele>1302.72</ele>
        <time>2019-04-01T13:12:57Z</time>
      </trkpt>
      <trkpt lat="60.37206" lon="7.49914">
        <ele>1305.61</ele>
        <time>2019-04-01T13:13:03Z</time>
      </trkpt>
      <trkpt lat="60.37201" lon="7.4985">
        <ele>1307.53</ele>
        <time>2019-04-01T13:13:08Z</time>
      </trkpt>
      <trkpt lat="60.37195" lon="7.49807">
        <ele>1305.61</ele>
        <time>2019-04-01T13:13:11Z</time>
      </trkpt>
      <trkpt lat="60.37188" lon="7.49748">
        <ele>1305.61</ele>
        <time>2019-04-01T13:13:15Z</time>
      </trkpt>
      <trkpt lat="60.37185" lon="7.49716">
        <ele>1303.69</ele>
        <time>2019-04-01T13:13:17Z</time>
      </trkpt>
      <trkpt lat="60.37187" lon="7.49642">
        <ele>1299.84</ele>
        <time>2019-04-01T13:13:21Z</time>
      </trkpt>
      <trkpt lat="60.37189" lon="7.49621">
        <ele>1299.84</ele>
        <time>2019-04-01T13:13:22Z</time>
      </trkpt>
      <trkpt lat="60.37192" lon="7.49579">
        <ele>1301.28</ele>
        <time>2019-04-01T13:13:24Z</time>
      </trkpt>
      <trkpt lat="60.37197" lon="7.49522">
        <ele>1297.92</ele>
        <time>2019-04-01T13:13:27Z</time>
      </trkpt>
      <trkpt lat="60.37198" lon="7.49505">
        <ele>1296.48</ele>
        <time>2019-04-01T13:13:28Z</time>
      </trkpt>
      <trkpt lat="60.37206" lon="7.4947">
        <ele>1299.84</ele>
        <time>2019-04-01T13:13:32Z</time>
      </trkpt>
      <trkpt lat="60.37207" lon="7.49478">
        <ele>1300.32</ele>
        <time>2019-04-01T13:13:34Z</time>
      </trkpt>
      <trkpt lat="60.37206" lon="7.4953">
        <ele>1301.76</ele>
        <time>2019-04-01T13:13:41Z</time>
      </trkpt>
      <trkpt lat="60.37206" lon="7.4958">
        <ele>1304.65</ele>
        <time>2019-04-01T13:13:45Z</time>
      </trkpt>
      <trkpt lat="60.37192" lon="7.49697">
        <ele>1306.57</ele>
        <time>2019-04-01T13:13:53Z</time>
      </trkpt>
      <trkpt lat="60.37183" lon="7.49775">
        <ele>1307.53</ele>
        <time>2019-04-01T13:13:58Z</time>
      </trkpt>
      <trkpt lat="60.37196" lon="7.49951">
        <ele>1308.01</ele>
        <time>2019-04-01T13:14:07Z</time>
      </trkpt>
      <trkpt lat="60.37209" lon="7.50021">
        <ele>1304.65</ele>
        <time>2019-04-01T13:14:10Z</time>
      </trkpt>
      <trkpt lat="60.37218" lon="7.50068">
        <ele>1303.69</ele>
        <time>2019-04-01T13:14:12Z</time>
      </trkpt>
      <trkpt lat="60.37239" lon="7.50162">
        <ele>1300.32</ele>
        <time>2019-04-01T13:14:16Z</time>
      </trkpt>
      <trkpt lat="60.37248" lon="7.50206">
        <ele>1299.36</ele>
        <time>2019-04-01T13:14:18Z</time>
      </trkpt>
      <trkpt lat="60.37266" lon="7.50285">
        <ele>1300.32</ele>
        <time>2019-04-01T13:14:22Z</time>
      </trkpt>
      <trkpt lat="60.37292" lon="7.50388">
        <ele>1302.72</ele>
        <time>2019-04-01T13:14:28Z</time>
      </trkpt>
      <trkpt lat="60.37302" lon="7.50441">
        <ele>1303.69</ele>
        <time>2019-04-01T13:14:31Z</time>
      </trkpt>
      <trkpt lat="60.37315" lon="7.50517">
        <ele>1303.69</ele>
        <time>2019-04-01T13:14:35Z</time>
      </trkpt>
      <trkpt lat="60.37325" lon="7.50553">
        <ele>1303.69</ele>
        <time>2019-04-01T13:14:37Z</time>
      </trkpt>
      <trkpt lat="60.37334" lon="7.50588">
        <ele>1302.24</ele>
        <time>2019-04-01T13:14:39Z</time>
      </trkpt>
      <trkpt lat="60.37352" lon="7.50644">
        <ele>1302.24</ele>
        <time>2019-04-01T13:14:43Z</time>
      </trkpt>
      <trkpt lat="60.37366" lon="7.50723">
        <ele>1303.69</ele>
        <time>2019-04-01T13:14:48Z</time>
      </trkpt>
      <trkpt lat="60.37376" lon="7.50767">
        <ele>1303.69</ele>
        <time>2019-04-01T13:14:51Z</time>
      </trkpt>
      <trkpt lat="60.37372" lon="7.50859">
        <ele>1304.17</ele>
        <time>2019-04-01T13:14:59Z</time>
      </trkpt>
      <trkpt lat="60.37371" lon="7.50882">
        <ele>1304.17</ele>
        <time>2019-04-01T13:15:08Z</time>
      </trkpt>
      <trkpt lat="60.37373" lon="7.50878">
        <ele>1304.17</ele>
        <time>2019-04-01T13:15:11Z</time>
      </trkpt>
      <trkpt lat="60.37382" lon="7.5089">
        <ele>1304.17</ele>
        <time>2019-04-01T13:15:19Z</time>
      </trkpt>
      <trkpt lat="60.37383" lon="7.5089">
        <ele>1304.17</ele>
        <time>2019-04-01T13:15:20Z</time>
      </trkpt>
      <trkpt lat="60.37394" lon="7.50879">
        <ele>1304.17</ele>
        <time>2019-04-01T13:15:24Z</time>
      </trkpt>
      <trkpt lat="60.37403" lon="7.50871">
        <ele>1303.2</ele>
        <time>2019-04-01T13:15:26Z</time>
      </trkpt>
      <trkpt lat="60.37416" lon="7.50844">
        <ele>1303.2</ele>
        <time>2019-04-01T13:15:30Z</time>
      </trkpt>
      <trkpt lat="60.37446" lon="7.50777">
        <ele>1302.24</ele>
        <time>2019-04-01T13:15:38Z</time>
      </trkpt>
      <trkpt lat="60.37463" lon="7.50697">
        <ele>1302.24</ele>
        <time>2019-04-01T13:15:44Z</time>
      </trkpt>
      <trkpt lat="60.37455" lon="7.50598">
        <ele>1303.69</ele>
        <time>2019-04-01T13:15:50Z</time>
      </trkpt>
      <trkpt lat="60.37441" lon="7.50513">
        <ele>1301.28</ele>
        <time>2019-04-01T13:15:55Z</time>
      </trkpt>
      <trkpt lat="60.37431" lon="7.50466">
        <ele>1302.72</ele>
        <time>2019-04-01T13:15:58Z</time>
      </trkpt>
      <trkpt lat="60.37424" lon="7.50438">
        <ele>1302.72</ele>
        <time>2019-04-01T13:16:00Z</time>
      </trkpt>
      <trkpt lat="60.37414" lon="7.504">
        <ele>1302.72</ele>
        <time>2019-04-01T13:16:03Z</time>
      </trkpt>
      <trkpt lat="60.374" lon="7.50361">
        <ele>1302.72</ele>
        <time>2019-04-01T13:16:07Z</time>
      </trkpt>
      <trkpt lat="60.37387" lon="7.5034">
        <ele>1303.2</ele>
        <time>2019-04-01T13:16:11Z</time>
      </trkpt>
      <trkpt lat="60.37395" lon="7.50334">
        <ele>1303.69</ele>
        <time>2019-04-01T13:16:17Z</time>
      </trkpt>
      <trkpt lat="60.37414" lon="7.5037">
        <ele>1303.69</ele>
        <time>2019-04-01T13:16:22Z</time>
      </trkpt>
      <trkpt lat="60.37429" lon="7.50414">
        <ele>1304.17</ele>
        <time>2019-04-01T13:16:26Z</time>
      </trkpt>
      <trkpt lat="60.37438" lon="7.50434">
        <ele>1304.17</ele>
        <time>2019-04-01T13:16:28Z</time>
      </trkpt>
      <trkpt lat="60.37454" lon="7.50479">
        <ele>1304.65</ele>
        <time>2019-04-01T13:16:32Z</time>
      </trkpt>
      <trkpt lat="60.37486" lon="7.50501">
        <ele>1303.69</ele>
        <time>2019-04-01T13:16:38Z</time>
      </trkpt>
      <trkpt lat="60.37494" lon="7.50501">
        <ele>1305.61</ele>
        <time>2019-04-01T13:16:41Z</time>
      </trkpt>
      <trkpt lat="60.37503" lon="7.50512">
        <ele>1306.57</ele>
        <time>2019-04-01T13:16:43Z</time>
      </trkpt>
      <trkpt lat="60.37529" lon="7.50568">
        <ele>1309.93</ele>
        <time>2019-04-01T13:16:50Z</time>
      </trkpt>
      <trkpt lat="60.37534" lon="7.50577">
        <ele>1309.93</ele>
        <time>2019-04-01T13:16:51Z</time>
      </trkpt>
      <trkpt lat="60.37542" lon="7.50592">
        <ele>1309.93</ele>
        <time>2019-04-01T13:16:53Z</time>
      </trkpt>
      <trkpt lat="60.37552" lon="7.50621">
        <ele>1312.34</ele>
        <time>2019-04-01T13:16:56Z</time>
      </trkpt>
      <trkpt lat="60.3757" lon="7.5065">
        <ele>1314.74</ele>
        <time>2019-04-01T13:17:00Z</time>
      </trkpt>
      <trkpt lat="60.3758" lon="7.50681">
        <ele>1316.66</ele>
        <time>2019-04-01T13:17:03Z</time>
      </trkpt>
      <trkpt lat="60.37603" lon="7.50704">
        <ele>1318.59</ele>
        <time>2019-04-01T13:17:09Z</time>
      </trkpt>
      <trkpt lat="60.37606" lon="7.50696">
        <ele>1319.07</ele>
        <time>2019-04-01T13:17:10Z</time>
      </trkpt>
      <trkpt lat="60.37622" lon="7.50654">
        <ele>1322.43</ele>
        <time>2019-04-01T13:17:15Z</time>
      </trkpt>
      <trkpt lat="60.37638" lon="7.5061">
        <ele>1324.83</ele>
        <time>2019-04-01T13:17:19Z</time>
      </trkpt>
      <trkpt lat="60.37651" lon="7.50449">
        <ele>1324.83</ele>
        <time>2019-04-01T13:17:29Z</time>
      </trkpt>
      <trkpt lat="60.3765" lon="7.50428">
        <ele>1324.83</ele>
        <time>2019-04-01T13:17:30Z</time>
      </trkpt>
      <trkpt lat="60.37641" lon="7.503">
        <ele>1326.76</ele>
        <time>2019-04-01T13:17:37Z</time>
      </trkpt>
      <trkpt lat="60.37637" lon="7.50271">
        <ele>1327.72</ele>
        <time>2019-04-01T13:17:39Z</time>
      </trkpt>
      <trkpt lat="60.37635" lon="7.50259">
        <ele>1329.16</ele>
        <time>2019-04-01T13:17:40Z</time>
      </trkpt>
      <trkpt lat="60.37625" lon="7.50218">
        <ele>1327.24</ele>
        <time>2019-04-01T13:17:44Z</time>
      </trkpt>
      <trkpt lat="60.37625" lon="7.50204">
        <ele>1330.12</ele>
        <time>2019-04-01T13:17:49Z</time>
      </trkpt>
      <trkpt lat="60.37625" lon="7.50203">
        <ele>1328.68</ele>
        <time>2019-04-01T13:17:56Z</time>
      </trkpt>
      <trkpt lat="60.37625" lon="7.50201">
        <ele>1329.64</ele>
        <time>2019-04-01T13:18:08Z</time>
      </trkpt>
      <trkpt lat="60.37624" lon="7.50198">
        <ele>1329.64</ele>
        <time>2019-04-01T13:18:14Z</time>
      </trkpt>
      <trkpt lat="60.37617" lon="7.50151">
        <ele>1326.76</ele>
        <time>2019-04-01T13:18:21Z</time>
      </trkpt>
      <trkpt lat="60.37613" lon="7.50063">
        <ele>1322.91</ele>
        <time>2019-04-01T13:18:26Z</time>
      </trkpt>
      <trkpt lat="60.37608" lon="7.50004">
        <ele>1320.51</ele>
        <time>2019-04-01T13:18:29Z</time>
      </trkpt>
      <trkpt lat="60.37605" lon="7.49944">
        <ele>1316.18</ele>
        <time>2019-04-01T13:18:32Z</time>
      </trkpt>
      <trkpt lat="60.376" lon="7.49869">
        <ele>1314.74</ele>
        <time>2019-04-01T13:18:36Z</time>
      </trkpt>
      <trkpt lat="60.37598" lon="7.4984">
        <ele>1314.26</ele>
        <time>2019-04-01T13:18:38Z</time>
      </trkpt>
      <trkpt lat="60.37605" lon="7.49812">
        <ele>1316.18</ele>
        <time>2019-04-01T13:18:41Z</time>
      </trkpt>
      <trkpt lat="60.37614" lon="7.49792">
        <ele>1316.66</ele>
        <time>2019-04-01T13:18:44Z</time>
      </trkpt>
      <trkpt lat="60.37622" lon="7.4977">
        <ele>1314.26</ele>
        <time>2019-04-01T13:18:46Z</time>
      </trkpt>
      <trkpt lat="60.37631" lon="7.49721">
        <ele>1312.34</ele>
        <time>2019-04-01T13:18:49Z</time>
      </trkpt>
      <trkpt lat="60.37647" lon="7.49575">
        <ele>1310.9</ele>
        <time>2019-04-01T13:18:57Z</time>
      </trkpt>
      <trkpt lat="60.3766" lon="7.49502">
        <ele>1315.7</ele>
        <time>2019-04-01T13:19:02Z</time>
      </trkpt>
      <trkpt lat="60.37663" lon="7.4948">
        <ele>1316.66</ele>
        <time>2019-04-01T13:19:04Z</time>
      </trkpt>
      <trkpt lat="60.3767" lon="7.49458">
        <ele>1319.07</ele>
        <time>2019-04-01T13:19:08Z</time>
      </trkpt>
      <trkpt lat="60.37676" lon="7.49447">
        <ele>1319.55</ele>
        <time>2019-04-01T13:19:20Z</time>
      </trkpt>
      <trkpt lat="60.37676" lon="7.49451">
        <ele>1319.55</ele>
        <time>2019-04-01T13:19:25Z</time>
      </trkpt>
      <trkpt lat="60.37677" lon="7.49497">
        <ele>1320.51</ele>
        <time>2019-04-01T13:19:30Z</time>
      </trkpt>
      <trkpt lat="60.37685" lon="7.49597">
        <ele>1319.07</ele>
        <time>2019-04-01T13:19:36Z</time>
      </trkpt>
      <trkpt lat="60.37685" lon="7.49798">
        <ele>1320.99</ele>
        <time>2019-04-01T13:19:46Z</time>
      </trkpt>
      <trkpt lat="60.3769" lon="7.49891">
        <ele>1323.87</ele>
        <time>2019-04-01T13:19:51Z</time>
      </trkpt>
      <trkpt lat="60.37694" lon="7.49948">
        <ele>1326.28</ele>
        <time>2019-04-01T13:19:54Z</time>
      </trkpt>
      <trkpt lat="60.37697" lon="7.50004">
        <ele>1329.64</ele>
        <time>2019-04-01T13:19:57Z</time>
      </trkpt>
      <trkpt lat="60.37702" lon="7.50073">
        <ele>1333.49</ele>
        <time>2019-04-01T13:20:01Z</time>
      </trkpt>
      <trkpt lat="60.37703" lon="7.5009">
        <ele>1333.49</ele>
        <time>2019-04-01T13:20:02Z</time>
      </trkpt>
      <trkpt lat="60.37711" lon="7.50207">
        <ele>1336.85</ele>
        <time>2019-04-01T13:20:09Z</time>
      </trkpt>
      <trkpt lat="60.37718" lon="7.50352">
        <ele>1335.89</ele>
        <time>2019-04-01T13:20:16Z</time>
      </trkpt>
      <trkpt lat="60.37716" lon="7.50388">
        <ele>1335.41</ele>
        <time>2019-04-01T13:20:18Z</time>
      </trkpt>
      <trkpt lat="60.3771" lon="7.50417">
        <ele>1333.97</ele>
        <time>2019-04-01T13:20:21Z</time>
      </trkpt>
      <trkpt lat="60.37709" lon="7.50434">
        <ele>1333.49</ele>
        <time>2019-04-01T13:20:30Z</time>
      </trkpt>
      <trkpt lat="60.37709" lon="7.50434">
        <ele>1333.49</ele>
        <time>2019-04-01T13:20:51Z</time>
      </trkpt>
      <trkpt lat="60.37709" lon="7.50434">
        <ele>1333.49</ele>
        <time>2019-04-01T13:21:16Z</time>
      </trkpt>
      <trkpt lat="60.37709" lon="7.50436">
        <ele>1333.49</ele>
        <time>2019-04-01T13:21:22Z</time>
      </trkpt>
      <trkpt lat="60.3772" lon="7.50472">
        <ele>1333.49</ele>
        <time>2019-04-01T13:21:28Z</time>
      </trkpt>
      <trkpt lat="60.37729" lon="7.50518">
        <ele>1334.45</ele>
        <time>2019-04-01T13:21:32Z</time>
      </trkpt>
      <trkpt lat="60.37733" lon="7.50544">
        <ele>1334.45</ele>
        <time>2019-04-01T13:21:34Z</time>
      </trkpt>
      <trkpt lat="60.37744" lon="7.50647">
        <ele>1333.01</ele>
        <time>2019-04-01T13:21:41Z</time>
      </trkpt>
      <trkpt lat="60.37744" lon="7.50716">
        <ele>1328.68</ele>
        <time>2019-04-01T13:21:45Z</time>
      </trkpt>
      <trkpt lat="60.37746" lon="7.50757">
        <ele>1328.2</ele>
        <time>2019-04-01T13:21:47Z</time>
      </trkpt>
      <trkpt lat="60.37748" lon="7.50779">
        <ele>1326.76</ele>
        <time>2019-04-01T13:21:48Z</time>
      </trkpt>
      <trkpt lat="60.37749" lon="7.50848">
        <ele>1323.87</ele>
        <time>2019-04-01T13:21:51Z</time>
      </trkpt>
      <trkpt lat="60.37745" lon="7.50965">
        <ele>1322.43</ele>
        <time>2019-04-01T13:21:58Z</time>
      </trkpt>
      <trkpt lat="60.37745" lon="7.5102">
        <ele>1322.43</ele>
        <time>2019-04-01T13:22:03Z</time>
      </trkpt>
      <trkpt lat="60.3775" lon="7.50983">
        <ele>1322.43</ele>
        <time>2019-04-01T13:22:08Z</time>
      </trkpt>
      <trkpt lat="60.37753" lon="7.50961">
        <ele>1323.87</ele>
        <time>2019-04-01T13:22:10Z</time>
      </trkpt>
      <trkpt lat="60.37756" lon="7.50947">
        <ele>1323.87</ele>
        <time>2019-04-01T13:22:11Z</time>
      </trkpt>
      <trkpt lat="60.37775" lon="7.50893">
        <ele>1327.24</ele>
        <time>2019-04-01T13:22:17Z</time>
      </trkpt>
      <trkpt lat="60.37778" lon="7.50882">
        <ele>1328.2</ele>
        <time>2019-04-01T13:22:18Z</time>
      </trkpt>
      <trkpt lat="60.37792" lon="7.50797">
        <ele>1325.31</ele>
        <time>2019-04-01T13:22:24Z</time>
      </trkpt>
      <trkpt lat="60.37792" lon="7.50726">
        <ele>1320.03</ele>
        <time>2019-04-01T13:22:27Z</time>
      </trkpt>
      <trkpt lat="60.37792" lon="7.50704">
        <ele>1322.43</ele>
        <time>2019-04-01T13:22:28Z</time>
      </trkpt>
      <trkpt lat="60.37796" lon="7.50659">
        <ele>1325.8</ele>
        <time>2019-04-01T13:22:31Z</time>
      </trkpt>
      <trkpt lat="60.378" lon="7.50645">
        <ele>1327.24</ele>
        <time>2019-04-01T13:22:33Z</time>
      </trkpt>
      <trkpt lat="60.37802" lon="7.50633">
        <ele>1329.16</ele>
        <time>2019-04-01T13:22:42Z</time>
      </trkpt>
      <trkpt lat="60.37802" lon="7.50632">
        <ele>1329.64</ele>
        <time>2019-04-01T13:23:02Z</time>
      </trkpt>
      <trkpt lat="60.37802" lon="7.50632">
        <ele>1329.16</ele>
        <time>2019-04-01T13:23:23Z</time>
      </trkpt>
      <trkpt lat="60.37802" lon="7.5063">
        <ele>1329.16</ele>
        <time>2019-04-01T13:23:38Z</time>
      </trkpt>
      <trkpt lat="60.37804" lon="7.50618">
        <ele>1329.16</ele>
        <time>2019-04-01T13:23:42Z</time>
      </trkpt>
      <trkpt lat="60.37802" lon="7.50584">
        <ele>1330.6</ele>
        <time>2019-04-01T13:23:46Z</time>
      </trkpt>
      <trkpt lat="60.37794" lon="7.5053">
        <ele>1333.01</ele>
        <time>2019-04-01T13:23:51Z</time>
      </trkpt>
      <trkpt lat="60.37788" lon="7.50508">
        <ele>1333.97</ele>
        <time>2019-04-01T13:23:53Z</time>
      </trkpt>
      <trkpt lat="60.37783" lon="7.50489">
        <ele>1334.45</ele>
        <time>2019-04-01T13:23:55Z</time>
      </trkpt>
      <trkpt lat="60.37768" lon="7.50449">
        <ele>1335.41</ele>
        <time>2019-04-01T13:24:00Z</time>
      </trkpt>
      <trkpt lat="60.37766" lon="7.50441">
        <ele>1335.41</ele>
        <time>2019-04-01T13:24:01Z</time>
      </trkpt>
      <trkpt lat="60.37752" lon="7.5041">
        <ele>1333.49</ele>
        <time>2019-04-01T13:24:05Z</time>
      </trkpt>
      <trkpt lat="60.37724" lon="7.50316">
        <ele>1332.04</ele>
        <time>2019-04-01T13:24:13Z</time>
      </trkpt>
      <trkpt lat="60.37716" lon="7.50246">
        <ele>1331.08</ele>
        <time>2019-04-01T13:24:18Z</time>
      </trkpt>
      <trkpt lat="60.37712" lon="7.5021">
        <ele>1331.08</ele>
        <time>2019-04-01T13:24:21Z</time>
      </trkpt>
      <trkpt lat="60.3771" lon="7.50157">
        <ele>1332.04</ele>
        <time>2019-04-01T13:24:26Z</time>
      </trkpt>
      <trkpt lat="60.37703" lon="7.50105">
        <ele>1331.08</ele>
        <time>2019-04-01T13:24:33Z</time>
      </trkpt>
      <trkpt lat="60.37701" lon="7.50095">
        <ele>1332.52</ele>
        <time>2019-04-01T13:24:38Z</time>
      </trkpt>
      <trkpt lat="60.37701" lon="7.50094">
        <ele>1332.52</ele>
        <time>2019-04-01T13:24:39Z</time>
      </trkpt>
      <trkpt lat="60.37701" lon="7.50051">
        <ele>1329.16</ele>
        <time>2019-04-01T13:24:47Z</time>
      </trkpt>
      <trkpt lat="60.37699" lon="7.50032">
        <ele>1327.72</ele>
        <time>2019-04-01T13:24:49Z</time>
      </trkpt>
      <trkpt lat="60.37692" lon="7.4998">
        <ele>1324.83</ele>
        <time>2019-04-01T13:24:54Z</time>
      </trkpt>
      <trkpt lat="60.37692" lon="7.49949">
        <ele>1322.91</ele>
        <time>2019-04-01T13:24:56Z</time>
      </trkpt>
      <trkpt lat="60.37693" lon="7.49931">
        <ele>1322.43</ele>
        <time>2019-04-01T13:24:57Z</time>
      </trkpt>
      <trkpt lat="60.37701" lon="7.49836">
        <ele>1318.59</ele>
        <time>2019-04-01T13:25:02Z</time>
      </trkpt>
      <trkpt lat="60.37707" lon="7.49776">
        <ele>1318.59</ele>
        <time>2019-04-01T13:25:05Z</time>
      </trkpt>
      <trkpt lat="60.37711" lon="7.49737">
        <ele>1314.26</ele>
        <time>2019-04-01T13:25:07Z</time>
      </trkpt>
      <trkpt lat="60.37711" lon="7.49699">
        <ele>1312.82</ele>
        <time>2019-04-01T13:25:09Z</time>
      </trkpt>
      <trkpt lat="60.37705" lon="7.49602">
        <ele>1312.34</ele>
        <time>2019-04-01T13:25:15Z</time>
      </trkpt>
      <trkpt lat="60.37695" lon="7.4948">
        <ele>1315.22</ele>
        <time>2019-04-01T13:25:24Z</time>
      </trkpt>
      <trkpt lat="60.37689" lon="7.49447">
        <ele>1317.14</ele>
        <time>2019-04-01T13:25:27Z</time>
      </trkpt>
      <trkpt lat="60.37679" lon="7.49378">
        <ele>1316.18</ele>
        <time>2019-04-01T13:25:33Z</time>
      </trkpt>
      <trkpt lat="60.37668" lon="7.49336">
        <ele>1318.1</ele>
        <time>2019-04-01T13:25:41Z</time>
      </trkpt>
      <trkpt lat="60.37668" lon="7.49332">
        <ele>1318.59</ele>
        <time>2019-04-01T13:25:51Z</time>
      </trkpt>
      <trkpt lat="60.37669" lon="7.49329">
        <ele>1319.55</ele>
        <time>2019-04-01T13:25:53Z</time>
      </trkpt>
      <trkpt lat="60.37671" lon="7.49326">
        <ele>1319.07</ele>
        <time>2019-04-01T13:26:08Z</time>
      </trkpt>
      <trkpt lat="60.37672" lon="7.49325">
        <ele>1319.07</ele>
        <time>2019-04-01T13:26:18Z</time>
      </trkpt>
      <trkpt lat="60.37671" lon="7.49362">
        <ele>1320.99</ele>
        <time>2019-04-01T13:26:23Z</time>
      </trkpt>
      <trkpt lat="60.37671" lon="7.49432">
        <ele>1320.03</ele>
        <time>2019-04-01T13:26:28Z</time>
      </trkpt>
      <trkpt lat="60.377" lon="7.49516">
        <ele>1320.03</ele>
        <time>2019-04-01T13:26:33Z</time>
      </trkpt>
      <trkpt lat="60.37711" lon="7.49558">
        <ele>1320.99</ele>
        <time>2019-04-01T13:26:35Z</time>
      </trkpt>
      <trkpt lat="60.3772" lon="7.49642">
        <ele>1319.55</ele>
        <time>2019-04-01T13:26:39Z</time>
      </trkpt>
      <trkpt lat="60.3772" lon="7.49709">
        <ele>1319.55</ele>
        <time>2019-04-01T13:26:42Z</time>
      </trkpt>
      <trkpt lat="60.37725" lon="7.49769">
        <ele>1319.55</ele>
        <time>2019-04-01T13:26:45Z</time>
      </trkpt>
      <trkpt lat="60.37732" lon="7.49828">
        <ele>1322.43</ele>
        <time>2019-04-01T13:26:48Z</time>
      </trkpt>
      <trkpt lat="60.37745" lon="7.49898">
        <ele>1324.35</ele>
        <time>2019-04-01T13:26:52Z</time>
      </trkpt>
      <trkpt lat="60.37752" lon="7.49928">
        <ele>1325.31</ele>
        <time>2019-04-01T13:26:54Z</time>
      </trkpt>
      <trkpt lat="60.37764" lon="7.49975">
        <ele>1326.76</ele>
        <time>2019-04-01T13:26:57Z</time>
      </trkpt>
      <trkpt lat="60.37776" lon="7.50019">
        <ele>1329.16</ele>
        <time>2019-04-01T13:27:00Z</time>
      </trkpt>
      <trkpt lat="60.37789" lon="7.50079">
        <ele>1334.45</ele>
        <time>2019-04-01T13:27:04Z</time>
      </trkpt>
      <trkpt lat="60.37799" lon="7.50123">
        <ele>1335.89</ele>
        <time>2019-04-01T13:27:07Z</time>
      </trkpt>
      <trkpt lat="60.37811" lon="7.50168">
        <ele>1338.29</ele>
        <time>2019-04-01T13:27:10Z</time>
      </trkpt>
      <trkpt lat="60.37831" lon="7.50242">
        <ele>1340.22</ele>
        <time>2019-04-01T13:27:15Z</time>
      </trkpt>
      <trkpt lat="60.37839" lon="7.50269">
        <ele>1340.22</ele>
        <time>2019-04-01T13:27:17Z</time>
      </trkpt>
      <trkpt lat="60.37843" lon="7.50324">
        <ele>1340.7</ele>
        <time>2019-04-01T13:27:22Z</time>
      </trkpt>
      <trkpt lat="60.37831" lon="7.50415">
        <ele>1340.7</ele>
        <time>2019-04-01T13:27:31Z</time>
      </trkpt>
      <trkpt lat="60.37829" lon="7.50472">
        <ele>1339.25</ele>
        <time>2019-04-01T13:27:35Z</time>
      </trkpt>
      <trkpt lat="60.37826" lon="7.5052">
        <ele>1336.85</ele>
        <time>2019-04-01T13:27:38Z</time>
      </trkpt>
      <trkpt lat="60.37825" lon="7.50574">
        <ele>1334.93</ele>
        <time>2019-04-01T13:27:41Z</time>
      </trkpt>
      <trkpt lat="60.37819" lon="7.50646">
        <ele>1330.12</ele>
        <time>2019-04-01T13:27:45Z</time>
      </trkpt>
      <trkpt lat="60.37817" lon="7.50687">
        <ele>1329.16</ele>
        <time>2019-04-01T13:27:47Z</time>
      </trkpt>
      <trkpt lat="60.37805" lon="7.50802">
        <ele>1330.12</ele>
        <time>2019-04-01T13:27:54Z</time>
      </trkpt>
      <trkpt lat="60.37799" lon="7.50855">
        <ele>1333.97</ele>
        <time>2019-04-01T13:27:59Z</time>
      </trkpt>
      <trkpt lat="60.37804" lon="7.50848">
        <ele>1332.04</ele>
        <time>2019-04-01T13:28:03Z</time>
      </trkpt>
      <trkpt lat="60.37805" lon="7.50841">
        <ele>1330.12</ele>
        <time>2019-04-01T13:28:04Z</time>
      </trkpt>
      <trkpt lat="60.378" lon="7.50803">
        <ele>1327.24</ele>
        <time>2019-04-01T13:28:08Z</time>
      </trkpt>
      <trkpt lat="60.37796" lon="7.50784">
        <ele>1324.83</ele>
        <time>2019-04-01T13:28:09Z</time>
      </trkpt>
      <trkpt lat="60.3779" lon="7.50739">
        <ele>1320.99</ele>
        <time>2019-04-01T13:28:11Z</time>
      </trkpt>
      <trkpt lat="60.37787" lon="7.50699">
        <ele>1320.03</ele>
        <time>2019-04-01T13:28:13Z</time>
      </trkpt>
      <trkpt lat="60.37796" lon="7.50674">
        <ele>1325.8</ele>
        <time>2019-04-01T13:28:16Z</time>
      </trkpt>
      <trkpt lat="60.37799" lon="7.50673">
        <ele>1325.8</ele>
        <time>2019-04-01T13:28:17Z</time>
      </trkpt>
      <trkpt lat="60.37809" lon="7.50681">
        <ele>1325.8</ele>
        <time>2019-04-01T13:28:20Z</time>
      </trkpt>
      <trkpt lat="60.37813" lon="7.50686">
        <ele>1324.35</ele>
        <time>2019-04-01T13:28:22Z</time>
      </trkpt>
      <trkpt lat="60.37819" lon="7.50665">
        <ele>1323.87</ele>
        <time>2019-04-01T13:28:26Z</time>
      </trkpt>
      <trkpt lat="60.37822" lon="7.50648">
        <ele>1324.83</ele>
        <time>2019-04-01T13:28:30Z</time>
      </trkpt>
      <trkpt lat="60.37823" lon="7.50644">
        <ele>1325.31</ele>
        <time>2019-04-01T13:28:48Z</time>
      </trkpt>
      <trkpt lat="60.37824" lon="7.50636">
        <ele>1325.31</ele>
        <time>2019-04-01T13:28:55Z</time>
      </trkpt>
      <trkpt lat="60.37821" lon="7.50603">
        <ele>1327.72</ele>
        <time>2019-04-01T13:28:59Z</time>
      </trkpt>
      <trkpt lat="60.3782" lon="7.50585">
        <ele>1328.68</ele>
        <time>2019-04-01T13:29:01Z</time>
      </trkpt>
      <trkpt lat="60.37817" lon="7.50564">
        <ele>1329.64</ele>
        <time>2019-04-01T13:29:03Z</time>
      </trkpt>
      <trkpt lat="60.37813" lon="7.50531">
        <ele>1332.04</ele>
        <time>2019-04-01T13:29:06Z</time>
      </trkpt>
      <trkpt lat="60.3781" lon="7.50508">
        <ele>1333.49</ele>
        <time>2019-04-01T13:29:08Z</time>
      </trkpt>
      <trkpt lat="60.37802" lon="7.50448">
        <ele>1336.85</ele>
        <time>2019-04-01T13:29:13Z</time>
      </trkpt>
      <trkpt lat="60.3778" lon="7.50278">
        <ele>1338.77</ele>
        <time>2019-04-01T13:29:25Z</time>
      </trkpt>
      <trkpt lat="60.37775" lon="7.50245">
        <ele>1335.41</ele>
        <time>2019-04-01T13:29:27Z</time>
      </trkpt>
      <trkpt lat="60.37772" lon="7.50226">
        <ele>1331.56</ele>
        <time>2019-04-01T13:29:28Z</time>
      </trkpt>
      <trkpt lat="60.37771" lon="7.50206">
        <ele>1328.68</ele>
        <time>2019-04-01T13:29:29Z</time>
      </trkpt>
      <trkpt lat="60.3777" lon="7.50186">
        <ele>1330.12</ele>
        <time>2019-04-01T13:29:30Z</time>
      </trkpt>
      <trkpt lat="60.3777" lon="7.5015">
        <ele>1330.12</ele>
        <time>2019-04-01T13:29:32Z</time>
      </trkpt>
      <trkpt lat="60.37759" lon="7.50085">
        <ele>1326.76</ele>
        <time>2019-04-01T13:29:36Z</time>
      </trkpt>
      <trkpt lat="60.37741" lon="7.50016">
        <ele>1326.28</ele>
        <time>2019-04-01T13:29:41Z</time>
      </trkpt>
      <trkpt lat="60.37737" lon="7.50003">
        <ele>1326.28</ele>
        <time>2019-04-01T13:29:42Z</time>
      </trkpt>
      <trkpt lat="60.3773" lon="7.49964">
        <ele>1326.28</ele>
        <time>2019-04-01T13:29:45Z</time>
      </trkpt>
      <trkpt lat="60.37727" lon="7.49938">
        <ele>1324.83</ele>
        <time>2019-04-01T13:29:47Z</time>
      </trkpt>
      <trkpt lat="60.37723" lon="7.49907">
        <ele>1323.39</ele>
        <time>2019-04-01T13:29:49Z</time>
      </trkpt>
      <trkpt lat="60.37714" lon="7.49839">
        <ele>1318.59</ele>
        <time>2019-04-01T13:29:53Z</time>
      </trkpt>
      <trkpt lat="60.3771" lon="7.49791">
        <ele>1315.7</ele>
        <time>2019-04-01T13:29:56Z</time>
      </trkpt>
      <trkpt lat="60.37708" lon="7.49776">
        <ele>1317.14</ele>
        <time>2019-04-01T13:29:57Z</time>
      </trkpt>
      <trkpt lat="60.37707" lon="7.49717">
        <ele>1314.74</ele>
        <time>2019-04-01T13:30:01Z</time>
      </trkpt>
      <trkpt lat="60.37707" lon="7.49702">
        <ele>1313.3</ele>
        <time>2019-04-01T13:30:02Z</time>
      </trkpt>
      <trkpt lat="60.37716" lon="7.49685">
        <ele>1314.74</ele>
        <time>2019-04-01T13:30:07Z</time>
      </trkpt>
      <trkpt lat="60.37715" lon="7.49688">
        <ele>1315.7</ele>
        <time>2019-04-01T13:30:26Z</time>
      </trkpt>
      <trkpt lat="60.37732" lon="7.4968">
        <ele>1315.22</ele>
        <time>2019-04-01T13:30:34Z</time>
      </trkpt>
      <trkpt lat="60.37754" lon="7.49692">
        <ele>1314.26</ele>
        <time>2019-04-01T13:30:38Z</time>
      </trkpt>
      <trkpt lat="60.37788" lon="7.49741">
        <ele>1312.82</ele>
        <time>2019-04-01T13:30:46Z</time>
      </trkpt>
      <trkpt lat="60.37805" lon="7.49754">
        <ele>1312.82</ele>
        <time>2019-04-01T13:30:49Z</time>
      </trkpt>
      <trkpt lat="60.37816" lon="7.49769">
        <ele>1312.82</ele>
        <time>2019-04-01T13:30:51Z</time>
      </trkpt>
      <trkpt lat="60.3784" lon="7.49792">
        <ele>1312.34</ele>
        <time>2019-04-01T13:30:56Z</time>
      </trkpt>
      <trkpt lat="60.37878" lon="7.4983">
        <ele>1314.74</ele>
        <time>2019-04-01T13:31:04Z</time>
      </trkpt>
      <trkpt lat="60.37882" lon="7.49837">
        <ele>1315.22</ele>
        <time>2019-04-01T13:31:05Z</time>
      </trkpt>
      <trkpt lat="60.3789" lon="7.49849">
        <ele>1316.18</ele>
        <time>2019-04-01T13:31:07Z</time>
      </trkpt>
      <trkpt lat="60.37909" lon="7.49886">
        <ele>1319.55</ele>
        <time>2019-04-01T13:31:13Z</time>
      </trkpt>
      <trkpt lat="60.37915" lon="7.49902">
        <ele>1320.51</ele>
        <time>2019-04-01T13:31:15Z</time>
      </trkpt>
      <trkpt lat="60.37925" lon="7.49914">
        <ele>1322.43</ele>
        <time>2019-04-01T13:31:17Z</time>
      </trkpt>
      <trkpt lat="60.37939" lon="7.49938">
        <ele>1325.8</ele>
        <time>2019-04-01T13:31:21Z</time>
      </trkpt>
      <trkpt lat="60.37943" lon="7.49943">
        <ele>1326.76</ele>
        <time>2019-04-01T13:31:22Z</time>
      </trkpt>
      <trkpt lat="60.37959" lon="7.49966">
        <ele>1328.68</ele>
        <time>2019-04-01T13:31:27Z</time>
      </trkpt>
      <trkpt lat="60.37976" lon="7.4998">
        <ele>1330.6</ele>
        <time>2019-04-01T13:31:36Z</time>
      </trkpt>
      <trkpt lat="60.37975" lon="7.49978">
        <ele>1330.6</ele>
        <time>2019-04-01T13:31:56Z</time>
      </trkpt>
      <trkpt lat="60.37978" lon="7.49974">
        <ele>1330.6</ele>
        <time>2019-04-01T13:32:16Z</time>
      </trkpt>
      <trkpt lat="60.3798" lon="7.49975">
        <ele>1329.16</ele>
        <time>2019-04-01T13:32:19Z</time>
      </trkpt>
      <trkpt lat="60.37981" lon="7.49974">
        <ele>1329.16</ele>
        <time>2019-04-01T13:32:33Z</time>
      </trkpt>
      <trkpt lat="60.37987" lon="7.49973">
        <ele>1329.16</ele>
        <time>2019-04-01T13:32:48Z</time>
      </trkpt>
      <trkpt lat="60.37987" lon="7.49984">
        <ele>1329.16</ele>
        <time>2019-04-01T13:32:53Z</time>
      </trkpt>
      <trkpt lat="60.37989" lon="7.49991">
        <ele>1330.6</ele>
        <time>2019-04-01T13:32:56Z</time>
      </trkpt>
      <trkpt lat="60.37991" lon="7.50004">
        <ele>1331.56</ele>
        <time>2019-04-01T13:33:08Z</time>
      </trkpt>
      <trkpt lat="60.37991" lon="7.50004">
        <ele>1331.56</ele>
        <time>2019-04-01T13:33:11Z</time>
      </trkpt>
      <trkpt lat="60.37989" lon="7.49978">
        <ele>1329.64</ele>
        <time>2019-04-01T13:33:15Z</time>
      </trkpt>
      <trkpt lat="60.37984" lon="7.49919">
        <ele>1322.43</ele>
        <time>2019-04-01T13:33:19Z</time>
      </trkpt>
      <trkpt lat="60.37982" lon="7.49881">
        <ele>1319.07</ele>
        <time>2019-04-01T13:33:21Z</time>
      </trkpt>
      <trkpt lat="60.37979" lon="7.49842">
        <ele>1314.74</ele>
        <time>2019-04-01T13:33:23Z</time>
      </trkpt>
      <trkpt lat="60.37975" lon="7.49802">
        <ele>1311.86</ele>
        <time>2019-04-01T13:33:25Z</time>
      </trkpt>
      <trkpt lat="60.37966" lon="7.49723">
        <ele>1309.45</ele>
        <time>2019-04-01T13:33:29Z</time>
      </trkpt>
      <trkpt lat="60.37964" lon="7.49706">
        <ele>1308.49</ele>
        <time>2019-04-01T13:33:30Z</time>
      </trkpt>
      <trkpt lat="60.37957" lon="7.49677">
        <ele>1307.05</ele>
        <time>2019-04-01T13:33:32Z</time>
      </trkpt>
      <trkpt lat="60.37943" lon="7.49653">
        <ele>1306.57</ele>
        <time>2019-04-01T13:33:37Z</time>
      </trkpt>
      <trkpt lat="60.37942" lon="7.49649">
        <ele>1308.01</ele>
        <time>2019-04-01T13:33:40Z</time>
      </trkpt>
      <trkpt lat="60.37942" lon="7.49647">
        <ele>1308.49</ele>
        <time>2019-04-01T13:33:42Z</time>
      </trkpt>
      <trkpt lat="60.3795" lon="7.49645">
        <ele>1308.97</ele>
        <time>2019-04-01T13:33:54Z</time>
      </trkpt>
      <trkpt lat="60.37966" lon="7.49716">
        <ele>1311.86</ele>
        <time>2019-04-01T13:34:00Z</time>
      </trkpt>
      <trkpt lat="60.37967" lon="7.49763">
        <ele>1313.78</ele>
        <time>2019-04-01T13:34:03Z</time>
      </trkpt>
      <trkpt lat="60.37974" lon="7.4983">
        <ele>1317.62</ele>
        <time>2019-04-01T13:34:07Z</time>
      </trkpt>
      <trkpt lat="60.37977" lon="7.49865">
        <ele>1321.47</ele>
        <time>2019-04-01T13:34:09Z</time>
      </trkpt>
      <trkpt lat="60.3798" lon="7.49919">
        <ele>1325.8</ele>
        <time>2019-04-01T13:34:12Z</time>
      </trkpt>
      <trkpt lat="60.37982" lon="7.49954">
        <ele>1329.16</ele>
        <time>2019-04-01T13:34:14Z</time>
      </trkpt>
      <trkpt lat="60.37982" lon="7.50007">
        <ele>1333.01</ele>
        <time>2019-04-01T13:34:17Z</time>
      </trkpt>
      <trkpt lat="60.37981" lon="7.50023">
        <ele>1333.97</ele>
        <time>2019-04-01T13:34:18Z</time>
      </trkpt>
      <trkpt lat="60.37985" lon="7.50072">
        <ele>1335.89</ele>
        <time>2019-04-01T13:34:21Z</time>
      </trkpt>
      <trkpt lat="60.3799" lon="7.50101">
        <ele>1337.33</ele>
        <time>2019-04-01T13:34:23Z</time>
      </trkpt>
      <trkpt lat="60.37991" lon="7.50143">
        <ele>1337.33</ele>
        <time>2019-04-01T13:34:31Z</time>
      </trkpt>
      <trkpt lat="60.37991" lon="7.50148">
        <ele>1336.85</ele>
        <time>2019-04-01T13:34:46Z</time>
      </trkpt>
      <trkpt lat="60.37992" lon="7.50159">
        <ele>1337.33</ele>
        <time>2019-04-01T13:34:59Z</time>
      </trkpt>
      <trkpt lat="60.37994" lon="7.50203">
        <ele>1335.41</ele>
        <time>2019-04-01T13:35:06Z</time>
      </trkpt>
      <trkpt lat="60.37994" lon="7.50178">
        <ele>1334.45</ele>
        <time>2019-04-01T13:35:09Z</time>
      </trkpt>
      <trkpt lat="60.37991" lon="7.50149">
        <ele>1335.89</ele>
        <time>2019-04-01T13:35:12Z</time>
      </trkpt>
      <trkpt lat="60.3799" lon="7.5014">
        <ele>1335.89</ele>
        <time>2019-04-01T13:35:13Z</time>
      </trkpt>
      <trkpt lat="60.37986" lon="7.50121">
        <ele>1335.89</ele>
        <time>2019-04-01T13:35:15Z</time>
      </trkpt>
      <trkpt lat="60.37981" lon="7.50101">
        <ele>1335.89</ele>
        <time>2019-04-01T13:35:17Z</time>
      </trkpt>
      <trkpt lat="60.37975" lon="7.50071">
        <ele>1333.49</ele>
        <time>2019-04-01T13:35:20Z</time>
      </trkpt>
      <trkpt lat="60.37981" lon="7.50043">
        <ele>1334.45</ele>
        <time>2019-04-01T13:35:24Z</time>
      </trkpt>
      <trkpt lat="60.37982" lon="7.50022">
        <ele>1333.01</ele>
        <time>2019-04-01T13:35:26Z</time>
      </trkpt>
      <trkpt lat="60.37982" lon="7.49972">
        <ele>1325.31</ele>
        <time>2019-04-01T13:35:29Z</time>
      </trkpt>
      <trkpt lat="60.37982" lon="7.49931">
        <ele>1323.87</ele>
        <time>2019-04-01T13:35:31Z</time>
      </trkpt>
      <trkpt lat="60.37981" lon="7.49884">
        <ele>1319.07</ele>
        <time>2019-04-01T13:35:33Z</time>
      </trkpt>
      <trkpt lat="60.3798" lon="7.49834">
        <ele>1314.26</ele>
        <time>2019-04-01T13:35:35Z</time>
      </trkpt>
      <trkpt lat="60.37982" lon="7.49755">
        <ele>1308.97</ele>
        <time>2019-04-01T13:35:38Z</time>
      </trkpt>
      <trkpt lat="60.37983" lon="7.49683">
        <ele>1306.09</ele>
        <time>2019-04-01T13:35:41Z</time>
      </trkpt>
      <trkpt lat="60.37983" lon="7.49667">
        <ele>1305.13</ele>
        <time>2019-04-01T13:35:42Z</time>
      </trkpt>
      <trkpt lat="60.37992" lon="7.49655">
        <ele>1308.49</ele>
        <time>2019-04-01T13:35:45Z</time>
      </trkpt>
      <trkpt lat="60.37993" lon="7.49679">
        <ele>1312.82</ele>
        <time>2019-04-01T13:35:48Z</time>
      </trkpt>
      <trkpt lat="60.37992" lon="7.49692">
        <ele>1312.82</ele>
        <time>2019-04-01T13:35:49Z</time>
      </trkpt>
      <trkpt lat="60.37977" lon="7.49783">
        <ele>1316.66</ele>
        <time>2019-04-01T13:35:55Z</time>
      </trkpt>
      <trkpt lat="60.37964" lon="7.49856">
        <ele>1321.47</ele>
        <time>2019-04-01T13:36:00Z</time>
      </trkpt>
      <trkpt lat="60.37958" lon="7.49914">
        <ele>1324.83</ele>
        <time>2019-04-01T13:36:04Z</time>
      </trkpt>
      <trkpt lat="60.37964" lon="7.49944">
        <ele>1326.28</ele>
        <time>2019-04-01T13:36:07Z</time>
      </trkpt>
      <trkpt lat="60.37967" lon="7.49948">
        <ele>1326.76</ele>
        <time>2019-04-01T13:36:08Z</time>
      </trkpt>
      <trkpt lat="60.37975" lon="7.49957">
        <ele>1327.72</ele>
        <time>2019-04-01T13:36:10Z</time>
      </trkpt>
      <trkpt lat="60.37983" lon="7.49995">
        <ele>1331.08</ele>
        <time>2019-04-01T13:36:16Z</time>
      </trkpt>
      <trkpt lat="60.37984" lon="7.50006">
        <ele>1331.56</ele>
        <time>2019-04-01T13:36:26Z</time>
      </trkpt>
      <trkpt lat="60.37984" lon="7.5001">
        <ele>1332.52</ele>
        <time>2019-04-01T13:36:41Z</time>
      </trkpt>
      <trkpt lat="60.37984" lon="7.50013">
        <ele>1332.52</ele>
        <time>2019-04-01T13:36:57Z</time>
      </trkpt>
      <trkpt lat="60.37984" lon="7.50025">
        <ele>1333.01</ele>
        <time>2019-04-01T13:37:11Z</time>
      </trkpt>
      <trkpt lat="60.37981" lon="7.50036">
        <ele>1334.45</ele>
        <time>2019-04-01T13:37:26Z</time>
      </trkpt>
      <trkpt lat="60.37988" lon="7.50014">
        <ele>1332.04</ele>
        <time>2019-04-01T13:37:30Z</time>
      </trkpt>
      <trkpt lat="60.3799" lon="7.49992">
        <ele>1328.2</ele>
        <time>2019-04-01T13:37:32Z</time>
      </trkpt>
      <trkpt lat="60.38" lon="7.49979">
        <ele>1328.68</ele>
        <time>2019-04-01T13:37:35Z</time>
      </trkpt>
      <trkpt lat="60.38006" lon="7.49989">
        <ele>1329.16</ele>
        <time>2019-04-01T13:37:37Z</time>
      </trkpt>
      <trkpt lat="60.38015" lon="7.50019">
        <ele>1330.6</ele>
        <time>2019-04-01T13:37:40Z</time>
      </trkpt>
      <trkpt lat="60.38023" lon="7.50095">
        <ele>1333.01</ele>
        <time>2019-04-01T13:37:46Z</time>
      </trkpt>
      <trkpt lat="60.38019" lon="7.50136">
        <ele>1334.45</ele>
        <time>2019-04-01T13:37:49Z</time>
      </trkpt>
      <trkpt lat="60.38016" lon="7.5015">
        <ele>1334.45</ele>
        <time>2019-04-01T13:37:50Z</time>
      </trkpt>
      <trkpt lat="60.38" lon="7.50209">
        <ele>1335.89</ele>
        <time>2019-04-01T13:37:56Z</time>
      </trkpt>
      <trkpt lat="60.37992" lon="7.50233">
        <ele>1335.89</ele>
        <time>2019-04-01T13:37:59Z</time>
      </trkpt>
      <trkpt lat="60.37986" lon="7.50251">
        <ele>1333.97</ele>
        <time>2019-04-01T13:38:06Z</time>
      </trkpt>
      <trkpt lat="60.38006" lon="7.50153">
        <ele>1333.97</ele>
        <time>2019-04-01T13:38:16Z</time>
      </trkpt>
      <trkpt lat="60.38005" lon="7.50118">
        <ele>1333.97</ele>
        <time>2019-04-01T13:38:19Z</time>
      </trkpt>
      <trkpt lat="60.38001" lon="7.50101">
        <ele>1334.93</ele>
        <time>2019-04-01T13:38:21Z</time>
      </trkpt>
      <trkpt lat="60.37982" lon="7.50058">
        <ele>1333.01</ele>
        <time>2019-04-01T13:38:30Z</time>
      </trkpt>
      <trkpt lat="60.37948" lon="7.49995">
        <ele>1330.6</ele>
        <time>2019-04-01T13:38:42Z</time>
      </trkpt>
      <trkpt lat="60.37939" lon="7.49978">
        <ele>1326.76</ele>
        <time>2019-04-01T13:38:44Z</time>
      </trkpt>
      <trkpt lat="60.37935" lon="7.49969">
        <ele>1326.76</ele>
        <time>2019-04-01T13:38:45Z</time>
      </trkpt>
      <trkpt lat="60.37921" lon="7.49934">
        <ele>1322.43</ele>
        <time>2019-04-01T13:38:48Z</time>
      </trkpt>
      <trkpt lat="60.3791" lon="7.49906">
        <ele>1317.62</ele>
        <time>2019-04-01T13:38:50Z</time>
      </trkpt>
      <trkpt lat="60.37899" lon="7.49879">
        <ele>1314.26</ele>
        <time>2019-04-01T13:38:52Z</time>
      </trkpt>
      <trkpt lat="60.37894" lon="7.49866">
        <ele>1313.78</ele>
        <time>2019-04-01T13:38:53Z</time>
      </trkpt>
      <trkpt lat="60.37879" lon="7.49829">
        <ele>1311.86</ele>
        <time>2019-04-01T13:38:56Z</time>
      </trkpt>
      <trkpt lat="60.37854" lon="7.4975">
        <ele>1308.49</ele>
        <time>2019-04-01T13:39:02Z</time>
      </trkpt>
      <trkpt lat="60.37815" lon="7.49589">
        <ele>1307.53</ele>
        <time>2019-04-01T13:39:13Z</time>
      </trkpt>
      <trkpt lat="60.37804" lon="7.49537">
        <ele>1308.97</ele>
        <time>2019-04-01T13:39:17Z</time>
      </trkpt>
      <trkpt lat="60.37792" lon="7.49468">
        <ele>1311.38</ele>
        <time>2019-04-01T13:39:22Z</time>
      </trkpt>
      <trkpt lat="60.37781" lon="7.49418">
        <ele>1312.82</ele>
        <time>2019-04-01T13:39:26Z</time>
      </trkpt>
      <trkpt lat="60.37775" lon="7.49395">
        <ele>1313.78</ele>
        <time>2019-04-01T13:39:28Z</time>
      </trkpt>
      <trkpt lat="60.37748" lon="7.49314">
        <ele>1311.86</ele>
        <time>2019-04-01T13:39:36Z</time>
      </trkpt>
      <trkpt lat="60.3774" lon="7.49287">
        <ele>1313.3</ele>
        <time>2019-04-01T13:39:41Z</time>
      </trkpt>
      <trkpt lat="60.37739" lon="7.49308">
        <ele>1315.22</ele>
        <time>2019-04-01T13:39:44Z</time>
      </trkpt>
      <trkpt lat="60.37728" lon="7.4934">
        <ele>1316.66</ele>
        <time>2019-04-01T13:39:48Z</time>
      </trkpt>
      <trkpt lat="60.37725" lon="7.49349">
        <ele>1317.62</ele>
        <time>2019-04-01T13:39:49Z</time>
      </trkpt>
      <trkpt lat="60.37714" lon="7.49382">
        <ele>1318.59</ele>
        <time>2019-04-01T13:39:53Z</time>
      </trkpt>
      <trkpt lat="60.37706" lon="7.49399">
        <ele>1320.03</ele>
        <time>2019-04-01T13:39:55Z</time>
      </trkpt>
      <trkpt lat="60.37703" lon="7.49406">
        <ele>1320.51</ele>
        <time>2019-04-01T13:39:56Z</time>
      </trkpt>
      <trkpt lat="60.37652" lon="7.49541">
        <ele>1317.62</ele>
        <time>2019-04-01T13:40:09Z</time>
      </trkpt>
      <trkpt lat="60.37633" lon="7.49605">
        <ele>1315.22</ele>
        <time>2019-04-01T13:40:13Z</time>
      </trkpt>
      <trkpt lat="60.37629" lon="7.4962">
        <ele>1314.26</ele>
        <time>2019-04-01T13:40:14Z</time>
      </trkpt>
      <trkpt lat="60.37611" lon="7.49701">
        <ele>1311.86</ele>
        <time>2019-04-01T13:40:19Z</time>
      </trkpt>
      <trkpt lat="60.37599" lon="7.49755">
        <ele>1314.26</ele>
        <time>2019-04-01T13:40:23Z</time>
      </trkpt>
      <trkpt lat="60.37586" lon="7.49821">
        <ele>1317.62</ele>
        <time>2019-04-01T13:40:28Z</time>
      </trkpt>
      <trkpt lat="60.37572" lon="7.49918">
        <ele>1319.55</ele>
        <time>2019-04-01T13:40:35Z</time>
      </trkpt>
      <trkpt lat="60.37539" lon="7.50084">
        <ele>1318.59</ele>
        <time>2019-04-01T13:40:47Z</time>
      </trkpt>
      <trkpt lat="60.37534" lon="7.50111">
        <ele>1318.59</ele>
        <time>2019-04-01T13:40:49Z</time>
      </trkpt>
      <trkpt lat="60.37528" lon="7.50137">
        <ele>1320.03</ele>
        <time>2019-04-01T13:40:51Z</time>
      </trkpt>
      <trkpt lat="60.37515" lon="7.50204">
        <ele>1318.59</ele>
        <time>2019-04-01T13:40:56Z</time>
      </trkpt>
      <trkpt lat="60.37484" lon="7.50359">
        <ele>1316.18</ele>
        <time>2019-04-01T13:41:06Z</time>
      </trkpt>
      <trkpt lat="60.37475" lon="7.50413">
        <ele>1311.86</ele>
        <time>2019-04-01T13:41:09Z</time>
      </trkpt>
      <trkpt lat="60.37472" lon="7.50433">
        <ele>1312.34</ele>
        <time>2019-04-01T13:41:10Z</time>
      </trkpt>
      <trkpt lat="60.37469" lon="7.50477">
        <ele>1308.97</ele>
        <time>2019-04-01T13:41:12Z</time>
      </trkpt>
      <trkpt lat="60.37467" lon="7.505">
        <ele>1308.97</ele>
        <time>2019-04-01T13:41:13Z</time>
      </trkpt>
      <trkpt lat="60.37462" lon="7.50564">
        <ele>1306.09</ele>
        <time>2019-04-01T13:41:16Z</time>
      </trkpt>
      <trkpt lat="60.37435" lon="7.50784">
        <ele>1304.65</ele>
        <time>2019-04-01T13:41:28Z</time>
      </trkpt>
      <trkpt lat="60.37427" lon="7.50838">
        <ele>1304.65</ele>
        <time>2019-04-01T13:41:31Z</time>
      </trkpt>
      <trkpt lat="60.3742" lon="7.50951">
        <ele>1304.17</ele>
        <time>2019-04-01T13:41:39Z</time>
      </trkpt>
      <trkpt lat="60.37422" lon="7.50975">
        <ele>1303.69</ele>
        <time>2019-04-01T13:41:42Z</time>
      </trkpt>
      <trkpt lat="60.37429" lon="7.5103">
        <ele>1303.2</ele>
        <time>2019-04-01T13:41:47Z</time>
      </trkpt>
      <trkpt lat="60.37432" lon="7.51085">
        <ele>1299.84</ele>
        <time>2019-04-01T13:41:51Z</time>
      </trkpt>
      <trkpt lat="60.37435" lon="7.51111">
        <ele>1296.48</ele>
        <time>2019-04-01T13:41:53Z</time>
      </trkpt>
      <trkpt lat="60.37438" lon="7.51157">
        <ele>1293.11</ele>
        <time>2019-04-01T13:41:56Z</time>
      </trkpt>
      <trkpt lat="60.37438" lon="7.51189">
        <ele>1290.71</ele>
        <time>2019-04-01T13:41:58Z</time>
      </trkpt>
      <trkpt lat="60.37437" lon="7.51249">
        <ele>1283.5</ele>
        <time>2019-04-01T13:42:01Z</time>
      </trkpt>
      <trkpt lat="60.37427" lon="7.51292">
        <ele>1278.69</ele>
        <time>2019-04-01T13:42:03Z</time>
      </trkpt>
      <trkpt lat="60.37413" lon="7.5133">
        <ele>1273.4</ele>
        <time>2019-04-01T13:42:05Z</time>
      </trkpt>
      <trkpt lat="60.37389" lon="7.51371">
        <ele>1266.19</ele>
        <time>2019-04-01T13:42:08Z</time>
      </trkpt>
      <trkpt lat="60.37382" lon="7.51384">
        <ele>1264.27</ele>
        <time>2019-04-01T13:42:09Z</time>
      </trkpt>
      <trkpt lat="60.37363" lon="7.51428">
        <ele>1258.98</ele>
        <time>2019-04-01T13:42:12Z</time>
      </trkpt>
      <trkpt lat="60.37345" lon="7.5147">
        <ele>1260.91</ele>
        <time>2019-04-01T13:42:16Z</time>
      </trkpt>
      <trkpt lat="60.37336" lon="7.51483">
        <ele>1261.87</ele>
        <time>2019-04-01T13:42:18Z</time>
      </trkpt>
      <trkpt lat="60.3731" lon="7.51504">
        <ele>1258.98</ele>
        <time>2019-04-01T13:42:23Z</time>
      </trkpt>
      <trkpt lat="60.37295" lon="7.51528">
        <ele>1255.14</ele>
        <time>2019-04-01T13:42:26Z</time>
      </trkpt>
      <trkpt lat="60.37291" lon="7.51562">
        <ele>1253.7</ele>
        <time>2019-04-01T13:42:32Z</time>
      </trkpt>
      <trkpt lat="60.3728" lon="7.51569">
        <ele>1252.74</ele>
        <time>2019-04-01T13:42:41Z</time>
      </trkpt>
      <trkpt lat="60.37278" lon="7.51569">
        <ele>1252.25</ele>
        <time>2019-04-01T13:42:59Z</time>
      </trkpt>
      <trkpt lat="60.37278" lon="7.51569">
        <ele>1252.25</ele>
        <time>2019-04-01T13:43:02Z</time>
      </trkpt>
      <trkpt lat="60.37274" lon="7.51576">
        <ele>1253.7</ele>
        <time>2019-04-01T13:43:06Z</time>
      </trkpt>
      <trkpt lat="60.37278" lon="7.51573">
        <ele>1252.25</ele>
        <time>2019-04-01T13:43:09Z</time>
      </trkpt>
      <trkpt lat="60.37276" lon="7.51558">
        <ele>1251.77</ele>
        <time>2019-04-01T13:43:11Z</time>
      </trkpt>
      <trkpt lat="60.37273" lon="7.51543">
        <ele>1250.81</ele>
        <time>2019-04-01T13:43:13Z</time>
      </trkpt>
      <trkpt lat="60.37255" lon="7.51487">
        <ele>1249.85</ele>
        <time>2019-04-01T13:43:22Z</time>
      </trkpt>
      <trkpt lat="60.37243" lon="7.51455">
        <ele>1249.37</ele>
        <time>2019-04-01T13:43:27Z</time>
      </trkpt>
      <trkpt lat="60.37221" lon="7.51388">
        <ele>1247.93</ele>
        <time>2019-04-01T13:43:37Z</time>
      </trkpt>
      <trkpt lat="60.37214" lon="7.51357">
        <ele>1247.93</ele>
        <time>2019-04-01T13:43:41Z</time>
      </trkpt>
      <trkpt lat="60.37209" lon="7.51342">
        <ele>1247.45</ele>
        <time>2019-04-01T13:43:43Z</time>
      </trkpt>
      <trkpt lat="60.37203" lon="7.51328">
        <ele>1246.01</ele>
        <time>2019-04-01T13:43:45Z</time>
      </trkpt>
      <trkpt lat="60.372" lon="7.5132">
        <ele>1246.01</ele>
        <time>2019-04-01T13:43:46Z</time>
      </trkpt>
      <trkpt lat="60.37186" lon="7.51289">
        <ele>1241.68</ele>
        <time>2019-04-01T13:43:50Z</time>
      </trkpt>
      <trkpt lat="60.37179" lon="7.51274">
        <ele>1240.72</ele>
        <time>2019-04-01T13:43:52Z</time>
      </trkpt>
      <trkpt lat="60.37169" lon="7.5125">
        <ele>1239.28</ele>
        <time>2019-04-01T13:43:55Z</time>
      </trkpt>
      <trkpt lat="60.37171" lon="7.51245">
        <ele>1240.72</ele>
        <time>2019-04-01T13:43:58Z</time>
      </trkpt>
      <trkpt lat="60.37169" lon="7.5126">
        <ele>1241.2</ele>
        <time>2019-04-01T13:44:00Z</time>
      </trkpt>
      <trkpt lat="60.37158" lon="7.51314">
        <ele>1241.2</ele>
        <time>2019-04-01T13:44:05Z</time>
      </trkpt>
      <trkpt lat="60.37144" lon="7.51356">
        <ele>1241.2</ele>
        <time>2019-04-01T13:44:14Z</time>
      </trkpt>
      <trkpt lat="60.37144" lon="7.51356">
        <ele>1241.2</ele>
        <time>2019-04-01T13:44:40Z</time>
      </trkpt>
      <trkpt lat="60.37142" lon="7.5136">
        <ele>1241.2</ele>
        <time>2019-04-01T13:44:42Z</time>
      </trkpt>
      <trkpt lat="60.37093" lon="7.51433">
        <ele>1238.32</ele>
        <time>2019-04-01T13:44:52Z</time>
      </trkpt>
      <trkpt lat="60.37087" lon="7.51441">
        <ele>1238.32</ele>
        <time>2019-04-01T13:44:53Z</time>
      </trkpt>
      <trkpt lat="60.37045" lon="7.51512">
        <ele>1234.47</ele>
        <time>2019-04-01T13:45:01Z</time>
      </trkpt>
      <trkpt lat="60.36973" lon="7.51683">
        <ele>1231.59</ele>
        <time>2019-04-01T13:45:17Z</time>
      </trkpt>
      <trkpt lat="60.36935" lon="7.51778">
        <ele>1231.59</ele>
        <time>2019-04-01T13:45:27Z</time>
      </trkpt>
      <trkpt lat="60.36927" lon="7.51804">
        <ele>1231.59</ele>
        <time>2019-04-01T13:45:30Z</time>
      </trkpt>
      <trkpt lat="60.36908" lon="7.51887">
        <ele>1231.59</ele>
        <time>2019-04-01T13:45:42Z</time>
      </trkpt>
      <trkpt lat="60.36905" lon="7.51897">
        <ele>1231.59</ele>
        <time>2019-04-01T13:45:48Z</time>
      </trkpt>
      <trkpt lat="60.36904" lon="7.5191">
        <ele>1233.03</ele>
        <time>2019-04-01T13:46:00Z</time>
      </trkpt>
      <trkpt lat="60.36903" lon="7.5191">
        <ele>1231.59</ele>
        <time>2019-04-01T13:46:13Z</time>
      </trkpt>
      <trkpt lat="60.36903" lon="7.51911">
        <ele>1232.55</ele>
        <time>2019-04-01T13:46:18Z</time>
      </trkpt>
      <trkpt lat="60.369" lon="7.51921">
        <ele>1232.55</ele>
        <time>2019-04-01T13:46:22Z</time>
      </trkpt>
      <trkpt lat="60.36899" lon="7.51926">
        <ele>1231.11</ele>
        <time>2019-04-01T13:46:28Z</time>
      </trkpt>
      <trkpt lat="60.36899" lon="7.5193">
        <ele>1231.11</ele>
        <time>2019-04-01T13:46:50Z</time>
      </trkpt>
      <trkpt lat="60.36901" lon="7.51912">
        <ele>1230.62</ele>
        <time>2019-04-01T13:46:53Z</time>
      </trkpt>
      <trkpt lat="60.36892" lon="7.51867">
        <ele>1230.62</ele>
        <time>2019-04-01T13:46:58Z</time>
      </trkpt>
      <trkpt lat="60.36892" lon="7.51859">
        <ele>1230.62</ele>
        <time>2019-04-01T13:46:59Z</time>
      </trkpt>
      <trkpt lat="60.36892" lon="7.51856">
        <ele>1232.07</ele>
        <time>2019-04-01T13:47:00Z</time>
      </trkpt>
      <trkpt lat="60.36892" lon="7.51853">
        <ele>1233.03</ele>
        <time>2019-04-01T13:47:02Z</time>
      </trkpt>
      <trkpt lat="60.36892" lon="7.51851">
        <ele>1232.07</ele>
        <time>2019-04-01T13:47:04Z</time>
      </trkpt>
      <trkpt lat="60.3689" lon="7.51848">
        <ele>1233.99</ele>
        <time>2019-04-01T13:47:14Z</time>
      </trkpt>
      <trkpt lat="60.36889" lon="7.51844">
        <ele>1233.99</ele>
        <time>2019-04-01T13:47:15Z</time>
      </trkpt>
      <trkpt lat="60.36882" lon="7.51815">
        <ele>1230.14</ele>
        <time>2019-04-01T13:47:20Z</time>
      </trkpt>
      <trkpt lat="60.36881" lon="7.51809">
        <ele>1230.14</ele>
        <time>2019-04-01T13:47:21Z</time>
      </trkpt>
      <trkpt lat="60.36881" lon="7.51804">
        <ele>1230.14</ele>
        <time>2019-04-01T13:47:22Z</time>
      </trkpt>
      <trkpt lat="60.36882" lon="7.51801">
        <ele>1232.55</ele>
        <time>2019-04-01T13:47:24Z</time>
      </trkpt>
      <trkpt lat="60.36881" lon="7.5181">
        <ele>1233.03</ele>
        <time>2019-04-01T13:47:36Z</time>
      </trkpt>
      <trkpt lat="60.36881" lon="7.51805">
        <ele>1233.03</ele>
        <time>2019-04-01T13:47:55Z</time>
      </trkpt>
      <trkpt lat="60.36881" lon="7.51805">
        <ele>1233.03</ele>
        <time>2019-04-01T13:48:10Z</time>
      </trkpt>
      <trkpt lat="60.36881" lon="7.51805">
        <ele>1231.11</ele>
        <time>2019-04-01T13:48:25Z</time>
      </trkpt>
      <trkpt lat="60.36877" lon="7.51812">
        <ele>1227.26</ele>
        <time>2019-04-01T13:48:35Z</time>
      </trkpt>
      <trkpt lat="60.36872" lon="7.51821">
        <ele>1228.22</ele>
        <time>2019-04-01T13:48:42Z</time>
      </trkpt>
      <trkpt lat="60.36869" lon="7.51827">
        <ele>1229.18</ele>
        <time>2019-04-01T13:48:54Z</time>
      </trkpt>
      <trkpt lat="60.36865" lon="7.5183">
        <ele>1228.22</ele>
        <time>2019-04-01T13:49:06Z</time>
      </trkpt>
      <trkpt lat="60.36864" lon="7.51835">
        <ele>1228.22</ele>
        <time>2019-04-01T13:49:18Z</time>
      </trkpt>
      <trkpt lat="60.36863" lon="7.51831">
        <ele>1227.26</ele>
        <time>2019-04-01T13:49:40Z</time>
      </trkpt>
      <trkpt lat="60.36863" lon="7.5183">
        <ele>1227.26</ele>
        <time>2019-04-01T13:49:41Z</time>
      </trkpt>
      <trkpt lat="60.3686" lon="7.51834">
        <ele>1228.22</ele>
        <time>2019-04-01T13:49:45Z</time>
      </trkpt>
      <trkpt lat="60.36854" lon="7.51845">
        <ele>1227.26</ele>
        <time>2019-04-01T13:49:49Z</time>
      </trkpt>
      <trkpt lat="60.36852" lon="7.51862">
        <ele>1224.86</ele>
        <time>2019-04-01T13:49:59Z</time>
      </trkpt>
      <trkpt lat="60.3685" lon="7.5186">
        <ele>1223.9</ele>
        <time>2019-04-01T13:50:14Z</time>
      </trkpt>
      <trkpt lat="60.36849" lon="7.51859">
        <ele>1223.9</ele>
        <time>2019-04-01T13:50:34Z</time>
      </trkpt>
      <trkpt lat="60.36851" lon="7.5186">
        <ele>1223.9</ele>
        <time>2019-04-01T13:50:50Z</time>
      </trkpt>
      <trkpt lat="60.36849" lon="7.51859">
        <ele>1223.9</ele>
        <time>2019-04-01T13:51:10Z</time>
      </trkpt>
      <trkpt lat="60.3685" lon="7.51861">
        <ele>1223.9</ele>
        <time>2019-04-01T13:51:13Z</time>
      </trkpt>
      <trkpt lat="60.36854" lon="7.51875">
        <ele>1223.9</ele>
        <time>2019-04-01T13:51:18Z</time>
      </trkpt>
      <trkpt lat="60.36859" lon="7.51891">
        <ele>1225.34</ele>
        <time>2019-04-01T13:51:20Z</time>
      </trkpt>
      <trkpt lat="60.36861" lon="7.519">
        <ele>1225.34</ele>
        <time>2019-04-01T13:51:21Z</time>
      </trkpt>
      <trkpt lat="60.36863" lon="7.51908">
        <ele>1225.34</ele>
        <time>2019-04-01T13:51:22Z</time>
      </trkpt>
      <trkpt lat="60.36864" lon="7.51915">
        <ele>1225.34</ele>
        <time>2019-04-01T13:51:23Z</time>
      </trkpt>
      <trkpt lat="60.36866" lon="7.5192">
        <ele>1225.34</ele>
        <time>2019-04-01T13:51:24Z</time>
      </trkpt>
      <trkpt lat="60.36868" lon="7.51923">
        <ele>1225.34</ele>
        <time>2019-04-01T13:51:25Z</time>
      </trkpt>
      <trkpt lat="60.36869" lon="7.51925">
        <ele>1225.34</ele>
        <time>2019-04-01T13:51:26Z</time>
      </trkpt>
      <trkpt lat="60.36871" lon="7.51931">
        <ele>1225.82</ele>
        <time>2019-04-01T13:51:38Z</time>
      </trkpt>
      <trkpt lat="60.36871" lon="7.51929">
        <ele>1226.3</ele>
        <time>2019-04-01T13:51:58Z</time>
      </trkpt>
      <trkpt lat="60.36871" lon="7.51926">
        <ele>1226.78</ele>
        <time>2019-04-01T13:52:17Z</time>
      </trkpt>
      <trkpt lat="60.36871" lon="7.51928">
        <ele>1226.78</ele>
        <time>2019-04-01T13:52:32Z</time>
      </trkpt>
      <trkpt lat="60.36871" lon="7.51929">
        <ele>1226.78</ele>
        <time>2019-04-01T13:52:53Z</time>
      </trkpt>
      <trkpt lat="60.36871" lon="7.5193">
        <ele>1226.78</ele>
        <time>2019-04-01T13:53:14Z</time>
      </trkpt>
      <trkpt lat="60.36871" lon="7.51932">
        <ele>1226.78</ele>
        <time>2019-04-01T13:53:16Z</time>
      </trkpt>
      <trkpt lat="60.36871" lon="7.51935">
        <ele>1226.78</ele>
        <time>2019-04-01T13:53:17Z</time>
      </trkpt>
      <trkpt lat="60.36874" lon="7.51965">
        <ele>1225.34</ele>
        <time>2019-04-01T13:53:24Z</time>
      </trkpt>
      <trkpt lat="60.36874" lon="7.5197">
        <ele>1225.34</ele>
        <time>2019-04-01T13:53:42Z</time>
      </trkpt>
      <trkpt lat="60.36873" lon="7.51972">
        <ele>1225.34</ele>
        <time>2019-04-01T13:53:44Z</time>
      </trkpt>
      <trkpt lat="60.3685" lon="7.52002">
        <ele>1223.42</ele>
        <time>2019-04-01T13:53:57Z</time>
      </trkpt>
      <trkpt lat="60.36848" lon="7.52006">
        <ele>1222.45</ele>
        <time>2019-04-01T13:53:59Z</time>
      </trkpt>
      <trkpt lat="60.36841" lon="7.51972">
        <ele>1220.53</ele>
        <time>2019-04-01T13:54:03Z</time>
      </trkpt>
      <trkpt lat="60.36813" lon="7.51842">
        <ele>1222.93</ele>
        <time>2019-04-01T13:54:14Z</time>
      </trkpt>
      <trkpt lat="60.3678" lon="7.51666">
        <ele>1223.9</ele>
        <time>2019-04-01T13:54:27Z</time>
      </trkpt>
      <trkpt lat="60.36737" lon="7.51473">
        <ele>1222.93</ele>
        <time>2019-04-01T13:54:41Z</time>
      </trkpt>
      <trkpt lat="60.36729" lon="7.51424">
        <ele>1221.01</ele>
        <time>2019-04-01T13:54:44Z</time>
      </trkpt>
      <trkpt lat="60.3672" lon="7.51343">
        <ele>1224.38</ele>
        <time>2019-04-01T13:54:49Z</time>
      </trkpt>
      <trkpt lat="60.36706" lon="7.51281">
        <ele>1222.93</ele>
        <time>2019-04-01T13:54:54Z</time>
      </trkpt>
      <trkpt lat="60.36683" lon="7.51222">
        <ele>1219.09</ele>
        <time>2019-04-01T13:54:59Z</time>
      </trkpt>
      <trkpt lat="60.36659" lon="7.51152">
        <ele>1218.13</ele>
        <time>2019-04-01T13:55:05Z</time>
      </trkpt>
      <trkpt lat="60.36662" lon="7.51184">
        <ele>1220.53</ele>
        <time>2019-04-01T13:55:11Z</time>
      </trkpt>
      <trkpt lat="60.3666" lon="7.51196">
        <ele>1221.01</ele>
        <time>2019-04-01T13:55:12Z</time>
      </trkpt>
      <trkpt lat="60.36644" lon="7.51281">
        <ele>1218.61</ele>
        <time>2019-04-01T13:55:18Z</time>
      </trkpt>
      <trkpt lat="60.36638" lon="7.51326">
        <ele>1217.17</ele>
        <time>2019-04-01T13:55:21Z</time>
      </trkpt>
      <trkpt lat="60.36627" lon="7.51445">
        <ele>1217.17</ele>
        <time>2019-04-01T13:55:29Z</time>
      </trkpt>
      <trkpt lat="60.3662" lon="7.51513">
        <ele>1218.13</ele>
        <time>2019-04-01T13:55:34Z</time>
      </trkpt>
      <trkpt lat="60.36611" lon="7.51562">
        <ele>1219.09</ele>
        <time>2019-04-01T13:55:38Z</time>
      </trkpt>
      <trkpt lat="60.36605" lon="7.51626">
        <ele>1220.53</ele>
        <time>2019-04-01T13:55:43Z</time>
      </trkpt>
      <trkpt lat="60.36599" lon="7.51676">
        <ele>1222.45</ele>
        <time>2019-04-01T13:55:47Z</time>
      </trkpt>
      <trkpt lat="60.36595" lon="7.51701">
        <ele>1223.42</ele>
        <time>2019-04-01T13:55:49Z</time>
      </trkpt>
      <trkpt lat="60.36569" lon="7.51798">
        <ele>1221.97</ele>
        <time>2019-04-01T13:55:56Z</time>
      </trkpt>
      <trkpt lat="60.36556" lon="7.51849">
        <ele>1218.61</ele>
        <time>2019-04-01T13:55:59Z</time>
      </trkpt>
      <trkpt lat="60.36542" lon="7.51896">
        <ele>1215.72</ele>
        <time>2019-04-01T13:56:02Z</time>
      </trkpt>
      <trkpt lat="60.36529" lon="7.51954">
        <ele>1215.24</ele>
        <time>2019-04-01T13:56:06Z</time>
      </trkpt>
      <trkpt lat="60.36524" lon="7.51981">
        <ele>1215.24</ele>
        <time>2019-04-01T13:56:08Z</time>
      </trkpt>
      <trkpt lat="60.36517" lon="7.52049">
        <ele>1214.76</ele>
        <time>2019-04-01T13:56:13Z</time>
      </trkpt>
      <trkpt lat="60.36513" lon="7.52118">
        <ele>1214.76</ele>
        <time>2019-04-01T13:56:18Z</time>
      </trkpt>
      <trkpt lat="60.36505" lon="7.52217">
        <ele>1214.76</ele>
        <time>2019-04-01T13:56:25Z</time>
      </trkpt>
      <trkpt lat="60.36501" lon="7.5226">
        <ele>1216.21</ele>
        <time>2019-04-01T13:56:28Z</time>
      </trkpt>
      <trkpt lat="60.36491" lon="7.52335">
        <ele>1216.21</ele>
        <time>2019-04-01T13:56:34Z</time>
      </trkpt>
      <trkpt lat="60.36477" lon="7.52409">
        <ele>1217.65</ele>
        <time>2019-04-01T13:56:40Z</time>
      </trkpt>
      <trkpt lat="60.36454" lon="7.52534">
        <ele>1217.65</ele>
        <time>2019-04-01T13:56:49Z</time>
      </trkpt>
      <trkpt lat="60.36445" lon="7.52595">
        <ele>1215.72</ele>
        <time>2019-04-01T13:56:53Z</time>
      </trkpt>
      <trkpt lat="60.36429" lon="7.52686">
        <ele>1213.32</ele>
        <time>2019-04-01T13:56:59Z</time>
      </trkpt>
      <trkpt lat="60.36425" lon="7.52715">
        <ele>1212.36</ele>
        <time>2019-04-01T13:57:01Z</time>
      </trkpt>
      <trkpt lat="60.36425" lon="7.52728">
        <ele>1212.36</ele>
        <time>2019-04-01T13:57:02Z</time>
      </trkpt>
      <trkpt lat="60.36424" lon="7.5274">
        <ele>1212.36</ele>
        <time>2019-04-01T13:57:03Z</time>
      </trkpt>
      <trkpt lat="60.36422" lon="7.52752">
        <ele>1212.36</ele>
        <time>2019-04-01T13:57:04Z</time>
      </trkpt>
      <trkpt lat="60.36418" lon="7.52785">
        <ele>1213.32</ele>
        <time>2019-04-01T13:57:07Z</time>
      </trkpt>
      <trkpt lat="60.3642" lon="7.5285">
        <ele>1215.24</ele>
        <time>2019-04-01T13:57:15Z</time>
      </trkpt>
      <trkpt lat="60.36421" lon="7.52857">
        <ele>1215.72</ele>
        <time>2019-04-01T13:57:16Z</time>
      </trkpt>
      <trkpt lat="60.36422" lon="7.52871">
        <ele>1216.69</ele>
        <time>2019-04-01T13:57:18Z</time>
      </trkpt>
      <trkpt lat="60.36424" lon="7.52883">
        <ele>1217.17</ele>
        <time>2019-04-01T13:57:20Z</time>
      </trkpt>
      <trkpt lat="60.3643" lon="7.52937">
        <ele>1219.09</ele>
        <time>2019-04-01T13:57:29Z</time>
      </trkpt>
      <trkpt lat="60.36432" lon="7.52943">
        <ele>1219.09</ele>
        <time>2019-04-01T13:57:30Z</time>
      </trkpt>
      <trkpt lat="60.36438" lon="7.52976">
        <ele>1221.01</ele>
        <time>2019-04-01T13:57:36Z</time>
      </trkpt>
      <trkpt lat="60.36443" lon="7.53017">
        <ele>1222.45</ele>
        <time>2019-04-01T13:57:44Z</time>
      </trkpt>
      <trkpt lat="60.36448" lon="7.53051">
        <ele>1225.34</ele>
        <time>2019-04-01T13:57:48Z</time>
      </trkpt>
      <trkpt lat="60.36446" lon="7.53108">
        <ele>1228.22</ele>
        <time>2019-04-01T13:57:57Z</time>
      </trkpt>
      <trkpt lat="60.36447" lon="7.53121">
        <ele>1229.18</ele>
        <time>2019-04-01T13:57:59Z</time>
      </trkpt>
      <trkpt lat="60.3645" lon="7.53136">
        <ele>1230.62</ele>
        <time>2019-04-01T13:58:03Z</time>
      </trkpt>
      <trkpt lat="60.3645" lon="7.53144">
        <ele>1231.59</ele>
        <time>2019-04-01T13:58:04Z</time>
      </trkpt>
      <trkpt lat="60.36437" lon="7.53214">
        <ele>1233.99</ele>
        <time>2019-04-01T13:58:15Z</time>
      </trkpt>
      <trkpt lat="60.36434" lon="7.53228">
        <ele>1235.43</ele>
        <time>2019-04-01T13:58:17Z</time>
      </trkpt>
      <trkpt lat="60.36431" lon="7.53235">
        <ele>1235.43</ele>
        <time>2019-04-01T13:58:18Z</time>
      </trkpt>
      <trkpt lat="60.36426" lon="7.53271">
        <ele>1235.43</ele>
        <time>2019-04-01T13:58:23Z</time>
      </trkpt>
      <trkpt lat="60.36425" lon="7.5328">
        <ele>1235.43</ele>
        <time>2019-04-01T13:58:24Z</time>
      </trkpt>
      <trkpt lat="60.36421" lon="7.53297">
        <ele>1235.43</ele>
        <time>2019-04-01T13:58:26Z</time>
      </trkpt>
      <trkpt lat="60.36418" lon="7.53316">
        <ele>1235.43</ele>
        <time>2019-04-01T13:58:28Z</time>
      </trkpt>
      <trkpt lat="60.36402" lon="7.53381">
        <ele>1233.99</ele>
        <time>2019-04-01T13:58:34Z</time>
      </trkpt>
      <trkpt lat="60.3639" lon="7.53416">
        <ele>1235.43</ele>
        <time>2019-04-01T13:58:38Z</time>
      </trkpt>
      <trkpt lat="60.36388" lon="7.53457">
        <ele>1237.35</ele>
        <time>2019-04-01T13:58:46Z</time>
      </trkpt>
      <trkpt lat="60.36382" lon="7.5349">
        <ele>1239.28</ele>
        <time>2019-04-01T13:58:54Z</time>
      </trkpt>
      <trkpt lat="60.36379" lon="7.53506">
        <ele>1240.72</ele>
        <time>2019-04-01T13:59:02Z</time>
      </trkpt>
      <trkpt lat="60.36379" lon="7.53506">
        <ele>1240.72</ele>
        <time>2019-04-01T13:59:03Z</time>
      </trkpt>
      <trkpt lat="60.3637" lon="7.5354">
        <ele>1241.2</ele>
        <time>2019-04-01T13:59:12Z</time>
      </trkpt>
      <trkpt lat="60.36365" lon="7.53558">
        <ele>1241.2</ele>
        <time>2019-04-01T13:59:15Z</time>
      </trkpt>
      <trkpt lat="60.36359" lon="7.5359">
        <ele>1239.76</ele>
        <time>2019-04-01T13:59:20Z</time>
      </trkpt>
      <trkpt lat="60.36357" lon="7.53604">
        <ele>1239.76</ele>
        <time>2019-04-01T13:59:22Z</time>
      </trkpt>
      <trkpt lat="60.36359" lon="7.5365">
        <ele>1240.24</ele>
        <time>2019-04-01T13:59:29Z</time>
      </trkpt>
      <trkpt lat="60.36357" lon="7.53692">
        <ele>1241.2</ele>
        <time>2019-04-01T13:59:34Z</time>
      </trkpt>
      <trkpt lat="60.36352" lon="7.53728">
        <ele>1241.68</ele>
        <time>2019-04-01T13:59:41Z</time>
      </trkpt>
      <trkpt lat="60.36357" lon="7.53742">
        <ele>1243.12</ele>
        <time>2019-04-01T13:59:48Z</time>
      </trkpt>
      <trkpt lat="60.36361" lon="7.53743">
        <ele>1246.01</ele>
        <time>2019-04-01T13:59:56Z</time>
      </trkpt>
      <trkpt lat="60.36362" lon="7.53753">
        <ele>1247.45</ele>
        <time>2019-04-01T14:00:03Z</time>
      </trkpt>
      <trkpt lat="60.36364" lon="7.53755">
        <ele>1248.41</ele>
        <time>2019-04-01T14:00:05Z</time>
      </trkpt>
      <trkpt lat="60.36365" lon="7.53755">
        <ele>1249.37</ele>
        <time>2019-04-01T14:00:08Z</time>
      </trkpt>
      <trkpt lat="60.36369" lon="7.53766">
        <ele>1251.29</ele>
        <time>2019-04-01T14:00:12Z</time>
      </trkpt>
      <trkpt lat="60.3637" lon="7.53771">
        <ele>1252.74</ele>
        <time>2019-04-01T14:00:15Z</time>
      </trkpt>
      <trkpt lat="60.3637" lon="7.53775">
        <ele>1253.22</ele>
        <time>2019-04-01T14:00:19Z</time>
      </trkpt>
      <trkpt lat="60.36374" lon="7.5378">
        <ele>1255.14</ele>
        <time>2019-04-01T14:00:22Z</time>
      </trkpt>
      <trkpt lat="60.36375" lon="7.5379">
        <ele>1256.58</ele>
        <time>2019-04-01T14:00:26Z</time>
      </trkpt>
      <trkpt lat="60.36376" lon="7.53791">
        <ele>1256.58</ele>
        <time>2019-04-01T14:00:27Z</time>
      </trkpt>
      <trkpt lat="60.3638" lon="7.53806">
        <ele>1258.5</ele>
        <time>2019-04-01T14:00:32Z</time>
      </trkpt>
      <trkpt lat="60.3638" lon="7.53808">
        <ele>1259.94</ele>
        <time>2019-04-01T14:00:34Z</time>
      </trkpt>
      <trkpt lat="60.36377" lon="7.53837">
        <ele>1260.91</ele>
        <time>2019-04-01T14:00:43Z</time>
      </trkpt>
      <trkpt lat="60.36378" lon="7.53842">
        <ele>1261.87</ele>
        <time>2019-04-01T14:00:46Z</time>
      </trkpt>
      <trkpt lat="60.36379" lon="7.53845">
        <ele>1262.35</ele>
        <time>2019-04-01T14:00:50Z</time>
      </trkpt>
      <trkpt lat="60.36381" lon="7.53861">
        <ele>1263.79</ele>
        <time>2019-04-01T14:00:54Z</time>
      </trkpt>
      <trkpt lat="60.36371" lon="7.53908">
        <ele>1266.67</ele>
        <time>2019-04-01T14:01:04Z</time>
      </trkpt>
      <trkpt lat="60.3637" lon="7.53909">
        <ele>1266.19</ele>
        <time>2019-04-01T14:01:19Z</time>
      </trkpt>
      <trkpt lat="60.36369" lon="7.53916">
        <ele>1266.19</ele>
        <time>2019-04-01T14:01:21Z</time>
      </trkpt>
      <trkpt lat="60.36367" lon="7.5393">
        <ele>1267.16</ele>
        <time>2019-04-01T14:01:27Z</time>
      </trkpt>
      <trkpt lat="60.36367" lon="7.53949">
        <ele>1269.56</ele>
        <time>2019-04-01T14:01:31Z</time>
      </trkpt>
      <trkpt lat="60.36347" lon="7.53984">
        <ele>1270.04</ele>
        <time>2019-04-01T14:01:39Z</time>
      </trkpt>
      <trkpt lat="60.36346" lon="7.53987">
        <ele>1270.04</ele>
        <time>2019-04-01T14:01:52Z</time>
      </trkpt>
      <trkpt lat="60.36347" lon="7.53985">
        <ele>1270.04</ele>
        <time>2019-04-01T14:01:54Z</time>
      </trkpt>
      <trkpt lat="60.36351" lon="7.53953">
        <ele>1266.67</ele>
        <time>2019-04-01T14:01:58Z</time>
      </trkpt>
      <trkpt lat="60.36361" lon="7.53927">
        <ele>1266.67</ele>
        <time>2019-04-01T14:02:01Z</time>
      </trkpt>
      <trkpt lat="60.36395" lon="7.53877">
        <ele>1266.67</ele>
        <time>2019-04-01T14:02:08Z</time>
      </trkpt>
      <trkpt lat="60.36414" lon="7.53841">
        <ele>1263.79</ele>
        <time>2019-04-01T14:02:12Z</time>
      </trkpt>
      <trkpt lat="60.36417" lon="7.53841">
        <ele>1266.19</ele>
        <time>2019-04-01T14:02:15Z</time>
      </trkpt>
      <trkpt lat="60.36416" lon="7.5384">
        <ele>1266.19</ele>
        <time>2019-04-01T14:02:19Z</time>
      </trkpt>
      <trkpt lat="60.36431" lon="7.53831">
        <ele>1266.67</ele>
        <time>2019-04-01T14:02:26Z</time>
      </trkpt>
      <trkpt lat="60.36434" lon="7.53834">
        <ele>1267.64</ele>
        <time>2019-04-01T14:02:38Z</time>
      </trkpt>
      <trkpt lat="60.36434" lon="7.53834">
        <ele>1267.64</ele>
        <time>2019-04-01T14:02:43Z</time>
      </trkpt>
      <trkpt lat="60.36435" lon="7.53849">
        <ele>1269.08</ele>
        <time>2019-04-01T14:02:47Z</time>
      </trkpt>
      <trkpt lat="60.36443" lon="7.53878">
        <ele>1272.44</ele>
        <time>2019-04-01T14:02:53Z</time>
      </trkpt>
      <trkpt lat="60.36445" lon="7.53918">
        <ele>1276.29</ele>
        <time>2019-04-01T14:02:58Z</time>
      </trkpt>
      <trkpt lat="60.36444" lon="7.53952">
        <ele>1278.21</ele>
        <time>2019-04-01T14:03:02Z</time>
      </trkpt>
      <trkpt lat="60.36442" lon="7.53999">
        <ele>1281.09</ele>
        <time>2019-04-01T14:03:12Z</time>
      </trkpt>
      <trkpt lat="60.36442" lon="7.54">
        <ele>1281.57</ele>
        <time>2019-04-01T14:03:28Z</time>
      </trkpt>
      <trkpt lat="60.36442" lon="7.53999">
        <ele>1281.57</ele>
        <time>2019-04-01T14:03:29Z</time>
      </trkpt>
      <trkpt lat="60.36443" lon="7.53963">
        <ele>1278.21</ele>
        <time>2019-04-01T14:03:34Z</time>
      </trkpt>
      <trkpt lat="60.36442" lon="7.53934">
        <ele>1273.88</ele>
        <time>2019-04-01T14:03:36Z</time>
      </trkpt>
      <trkpt lat="60.36442" lon="7.53921">
        <ele>1273.88</ele>
        <time>2019-04-01T14:03:37Z</time>
      </trkpt>
      <trkpt lat="60.36444" lon="7.53876">
        <ele>1269.56</ele>
        <time>2019-04-01T14:03:40Z</time>
      </trkpt>
      <trkpt lat="60.36449" lon="7.53828">
        <ele>1267.16</ele>
        <time>2019-04-01T14:03:43Z</time>
      </trkpt>
      <trkpt lat="60.36454" lon="7.53777">
        <ele>1264.27</ele>
        <time>2019-04-01T14:03:46Z</time>
      </trkpt>
      <trkpt lat="60.36466" lon="7.53711">
        <ele>1259.94</ele>
        <time>2019-04-01T14:03:50Z</time>
      </trkpt>
      <trkpt lat="60.36469" lon="7.53697">
        <ele>1259.94</ele>
        <time>2019-04-01T14:03:51Z</time>
      </trkpt>
      <trkpt lat="60.36472" lon="7.53675">
        <ele>1258.98</ele>
        <time>2019-04-01T14:03:53Z</time>
      </trkpt>
      <trkpt lat="60.36473" lon="7.53656">
        <ele>1256.58</ele>
        <time>2019-04-01T14:03:55Z</time>
      </trkpt>
      <trkpt lat="60.36476" lon="7.53636">
        <ele>1256.58</ele>
        <time>2019-04-01T14:03:57Z</time>
      </trkpt>
      <trkpt lat="60.36482" lon="7.5358">
        <ele>1246.49</ele>
        <time>2019-04-01T14:04:01Z</time>
      </trkpt>
      <trkpt lat="60.36486" lon="7.53562">
        <ele>1244.08</ele>
        <time>2019-04-01T14:04:02Z</time>
      </trkpt>
      <trkpt lat="60.36493" lon="7.53522">
        <ele>1243.6</ele>
        <time>2019-04-01T14:04:04Z</time>
      </trkpt>
      <trkpt lat="60.36522" lon="7.53363">
        <ele>1242.64</ele>
        <time>2019-04-01T14:04:13Z</time>
      </trkpt>
      <trkpt lat="60.36524" lon="7.53348">
        <ele>1242.64</ele>
        <time>2019-04-01T14:04:14Z</time>
      </trkpt>
      <trkpt lat="60.36529" lon="7.53305">
        <ele>1244.08</ele>
        <time>2019-04-01T14:04:17Z</time>
      </trkpt>
      <trkpt lat="60.36549" lon="7.53186">
        <ele>1245.04</ele>
        <time>2019-04-01T14:04:25Z</time>
      </trkpt>
      <trkpt lat="60.36562" lon="7.5313">
        <ele>1245.04</ele>
        <time>2019-04-01T14:04:29Z</time>
      </trkpt>
      <trkpt lat="60.36599" lon="7.53032">
        <ele>1246.49</ele>
        <time>2019-04-01T14:04:40Z</time>
      </trkpt>
      <trkpt lat="60.36606" lon="7.53011">
        <ele>1246.49</ele>
        <time>2019-04-01T14:04:42Z</time>
      </trkpt>
      <trkpt lat="60.36612" lon="7.52986">
        <ele>1244.56</ele>
        <time>2019-04-01T14:04:44Z</time>
      </trkpt>
      <trkpt lat="60.36616" lon="7.52976">
        <ele>1244.56</ele>
        <time>2019-04-01T14:04:47Z</time>
      </trkpt>
      <trkpt lat="60.36616" lon="7.52983">
        <ele>1246.01</ele>
        <time>2019-04-01T14:04:51Z</time>
      </trkpt>
      <trkpt lat="60.36615" lon="7.52988">
        <ele>1245.53</ele>
        <time>2019-04-01T14:05:19Z</time>
      </trkpt>
      <trkpt lat="60.36615" lon="7.52986">
        <ele>1245.53</ele>
        <time>2019-04-01T14:05:39Z</time>
      </trkpt>
      <trkpt lat="60.36616" lon="7.52983">
        <ele>1245.53</ele>
        <time>2019-04-01T14:05:57Z</time>
      </trkpt>
      <trkpt lat="60.36616" lon="7.52982">
        <ele>1245.53</ele>
        <time>2019-04-01T14:06:01Z</time>
      </trkpt>
      <trkpt lat="60.36612" lon="7.5296">
        <ele>1241.68</ele>
        <time>2019-04-01T14:06:04Z</time>
      </trkpt>
      <trkpt lat="60.36608" lon="7.5295">
        <ele>1240.24</ele>
        <time>2019-04-01T14:06:05Z</time>
      </trkpt>
      <trkpt lat="60.36592" lon="7.52918">
        <ele>1233.99</ele>
        <time>2019-04-01T14:06:08Z</time>
      </trkpt>
      <trkpt lat="60.36581" lon="7.52889">
        <ele>1226.3</ele>
        <time>2019-04-01T14:06:10Z</time>
      </trkpt>
      <trkpt lat="60.36573" lon="7.52871">
        <ele>1222.93</ele>
        <time>2019-04-01T14:06:11Z</time>
      </trkpt>
      <trkpt lat="60.36562" lon="7.5284">
        <ele>1220.05</ele>
        <time>2019-04-01T14:06:13Z</time>
      </trkpt>
      <trkpt lat="60.36556" lon="7.52824">
        <ele>1219.57</ele>
        <time>2019-04-01T14:06:14Z</time>
      </trkpt>
      <trkpt lat="60.36547" lon="7.52795">
        <ele>1218.61</ele>
        <time>2019-04-01T14:06:16Z</time>
      </trkpt>
      <trkpt lat="60.36519" lon="7.527">
        <ele>1214.76</ele>
        <time>2019-04-01T14:06:23Z</time>
      </trkpt>
      <trkpt lat="60.36514" lon="7.52686">
        <ele>1214.28</ele>
        <time>2019-04-01T14:06:24Z</time>
      </trkpt>
      <trkpt lat="60.36508" lon="7.52662">
        <ele>1214.28</ele>
        <time>2019-04-01T14:06:26Z</time>
      </trkpt>
      <trkpt lat="60.36499" lon="7.5262">
        <ele>1214.28</ele>
        <time>2019-04-01T14:06:30Z</time>
      </trkpt>
      <trkpt lat="60.36494" lon="7.52593">
        <ele>1215.24</ele>
        <time>2019-04-01T14:06:33Z</time>
      </trkpt>
      <trkpt lat="60.36493" lon="7.52583">
        <ele>1214.76</ele>
        <time>2019-04-01T14:06:34Z</time>
      </trkpt>
      <trkpt lat="60.36488" lon="7.52545">
        <ele>1215.24</ele>
        <time>2019-04-01T14:06:40Z</time>
      </trkpt>
      <trkpt lat="60.36482" lon="7.52483">
        <ele>1215.72</ele>
        <time>2019-04-01T14:06:48Z</time>
      </trkpt>
      <trkpt lat="60.36477" lon="7.52439">
        <ele>1215.72</ele>
        <time>2019-04-01T14:06:53Z</time>
      </trkpt>
      <trkpt lat="60.36473" lon="7.52421">
        <ele>1215.72</ele>
        <time>2019-04-01T14:06:55Z</time>
      </trkpt>
      <trkpt lat="60.3646" lon="7.52333">
        <ele>1215.72</ele>
        <time>2019-04-01T14:07:04Z</time>
      </trkpt>
      <trkpt lat="60.36454" lon="7.52298">
        <ele>1213.32</ele>
        <time>2019-04-01T14:07:07Z</time>
      </trkpt>
      <trkpt lat="60.36452" lon="7.5228">
        <ele>1213.32</ele>
        <time>2019-04-01T14:07:09Z</time>
      </trkpt>
      <trkpt lat="60.36451" lon="7.52229">
        <ele>1214.76</ele>
        <time>2019-04-01T14:07:15Z</time>
      </trkpt>
      <trkpt lat="60.36454" lon="7.52189">
        <ele>1216.21</ele>
        <time>2019-04-01T14:07:23Z</time>
      </trkpt>
      <trkpt lat="60.36458" lon="7.52174">
        <ele>1216.69</ele>
        <time>2019-04-01T14:07:28Z</time>
      </trkpt>
      <trkpt lat="60.36458" lon="7.52125">
        <ele>1217.17</ele>
        <time>2019-04-01T14:07:35Z</time>
      </trkpt>
      <trkpt lat="60.3645" lon="7.52077">
        <ele>1217.65</ele>
        <time>2019-04-01T14:07:40Z</time>
      </trkpt>
      <trkpt lat="60.36435" lon="7.52032">
        <ele>1218.13</ele>
        <time>2019-04-01T14:07:46Z</time>
      </trkpt>
      <trkpt lat="60.36402" lon="7.51922">
        <ele>1215.24</ele>
        <time>2019-04-01T14:07:58Z</time>
      </trkpt>
      <trkpt lat="60.36387" lon="7.51875">
        <ele>1212.84</ele>
        <time>2019-04-01T14:08:02Z</time>
      </trkpt>
      <trkpt lat="60.36358" lon="7.51772">
        <ele>1213.8</ele>
        <time>2019-04-01T14:08:12Z</time>
      </trkpt>
      <trkpt lat="60.36354" lon="7.51754">
        <ele>1213.8</ele>
        <time>2019-04-01T14:08:14Z</time>
      </trkpt>
      <trkpt lat="60.36351" lon="7.51736">
        <ele>1213.8</ele>
        <time>2019-04-01T14:08:16Z</time>
      </trkpt>
      <trkpt lat="60.36348" lon="7.51716">
        <ele>1212.84</ele>
        <time>2019-04-01T14:08:18Z</time>
      </trkpt>
      <trkpt lat="60.36343" lon="7.51652">
        <ele>1212.84</ele>
        <time>2019-04-01T14:08:27Z</time>
      </trkpt>
      <trkpt lat="60.36343" lon="7.51647">
        <ele>1212.84</ele>
        <time>2019-04-01T14:08:28Z</time>
      </trkpt>
      <trkpt lat="60.36342" lon="7.51626">
        <ele>1212.84</ele>
        <time>2019-04-01T14:08:40Z</time>
      </trkpt>
      <trkpt lat="60.36342" lon="7.51625">
        <ele>1212.84</ele>
        <time>2019-04-01T14:08:41Z</time>
      </trkpt>
      <trkpt lat="60.36343" lon="7.51604">
        <ele>1212.84</ele>
        <time>2019-04-01T14:08:54Z</time>
      </trkpt>
      <trkpt lat="60.36338" lon="7.51574">
        <ele>1212.84</ele>
        <time>2019-04-01T14:09:04Z</time>
      </trkpt>
      <trkpt lat="60.36338" lon="7.51566">
        <ele>1212.84</ele>
        <time>2019-04-01T14:09:13Z</time>
      </trkpt>
      <trkpt lat="60.36339" lon="7.5156">
        <ele>1212.84</ele>
        <time>2019-04-01T14:09:16Z</time>
      </trkpt>
      <trkpt lat="60.36339" lon="7.51537">
        <ele>1212.84</ele>
        <time>2019-04-01T14:09:21Z</time>
      </trkpt>
      <trkpt lat="60.36343" lon="7.5152">
        <ele>1212.84</ele>
        <time>2019-04-01T14:09:24Z</time>
      </trkpt>
      <trkpt lat="60.36346" lon="7.51485">
        <ele>1212.84</ele>
        <time>2019-04-01T14:09:28Z</time>
      </trkpt>
      <trkpt lat="60.36341" lon="7.51438">
        <ele>1212.84</ele>
        <time>2019-04-01T14:09:33Z</time>
      </trkpt>
      <trkpt lat="60.36336" lon="7.51402">
        <ele>1212.84</ele>
        <time>2019-04-01T14:09:37Z</time>
      </trkpt>
      <trkpt lat="60.36332" lon="7.51369">
        <ele>1212.84</ele>
        <time>2019-04-01T14:09:42Z</time>
      </trkpt>
      <trkpt lat="60.3633" lon="7.51306">
        <ele>1212.84</ele>
        <time>2019-04-01T14:09:51Z</time>
      </trkpt>
      <trkpt lat="60.36324" lon="7.51272">
        <ele>1212.84</ele>
        <time>2019-04-01T14:09:55Z</time>
      </trkpt>
      <trkpt lat="60.36317" lon="7.51225">
        <ele>1212.84</ele>
        <time>2019-04-01T14:10:05Z</time>
      </trkpt>
      <trkpt lat="60.36314" lon="7.51197">
        <ele>1212.84</ele>
        <time>2019-04-01T14:10:09Z</time>
      </trkpt>
      <trkpt lat="60.3631" lon="7.5118">
        <ele>1212.84</ele>
        <time>2019-04-01T14:10:11Z</time>
      </trkpt>
      <trkpt lat="60.363" lon="7.51129">
        <ele>1212.84</ele>
        <time>2019-04-01T14:10:18Z</time>
      </trkpt>
      <trkpt lat="60.36297" lon="7.51113">
        <ele>1212.84</ele>
        <time>2019-04-01T14:10:23Z</time>
      </trkpt>
      <trkpt lat="60.36298" lon="7.51116">
        <ele>1212.84</ele>
        <time>2019-04-01T14:10:25Z</time>
      </trkpt>
      <trkpt lat="60.36295" lon="7.51152">
        <ele>1212.84</ele>
        <time>2019-04-01T14:10:35Z</time>
      </trkpt>
      <trkpt lat="60.36295" lon="7.51151">
        <ele>1212.84</ele>
        <time>2019-04-01T14:10:36Z</time>
      </trkpt>
      <trkpt lat="60.36291" lon="7.51122">
        <ele>1212.84</ele>
        <time>2019-04-01T14:10:43Z</time>
      </trkpt>
      <trkpt lat="60.3629" lon="7.51108">
        <ele>1212.84</ele>
        <time>2019-04-01T14:10:46Z</time>
      </trkpt>
      <trkpt lat="60.36283" lon="7.5107">
        <ele>1212.84</ele>
        <time>2019-04-01T14:10:51Z</time>
      </trkpt>
      <trkpt lat="60.36279" lon="7.51054">
        <ele>1212.84</ele>
        <time>2019-04-01T14:10:53Z</time>
      </trkpt>
      <trkpt lat="60.36269" lon="7.51014">
        <ele>1212.84</ele>
        <time>2019-04-01T14:10:58Z</time>
      </trkpt>
      <trkpt lat="60.36244" lon="7.50935">
        <ele>1212.84</ele>
        <time>2019-04-01T14:11:10Z</time>
      </trkpt>
      <trkpt lat="60.36231" lon="7.50883">
        <ele>1212.84</ele>
        <time>2019-04-01T14:11:20Z</time>
      </trkpt>
      <trkpt lat="60.36217" lon="7.50835">
        <ele>1212.84</ele>
        <time>2019-04-01T14:11:29Z</time>
      </trkpt>
      <trkpt lat="60.36212" lon="7.50817">
        <ele>1212.84</ele>
        <time>2019-04-01T14:11:36Z</time>
      </trkpt>
      <trkpt lat="60.36214" lon="7.50821">
        <ele>1212.84</ele>
        <time>2019-04-01T14:11:41Z</time>
      </trkpt>
      <trkpt lat="60.36213" lon="7.50871">
        <ele>1212.84</ele>
        <time>2019-04-01T14:11:50Z</time>
      </trkpt>
      <trkpt lat="60.36212" lon="7.50885">
        <ele>1213.32</ele>
        <time>2019-04-01T14:11:56Z</time>
      </trkpt>
      <trkpt lat="60.36214" lon="7.50903">
        <ele>1212.84</ele>
        <time>2019-04-01T14:12:00Z</time>
      </trkpt>
      <trkpt lat="60.3621" lon="7.50924">
        <ele>1212.84</ele>
        <time>2019-04-01T14:12:09Z</time>
      </trkpt>
      <trkpt lat="60.3621" lon="7.50904">
        <ele>1212.84</ele>
        <time>2019-04-01T14:12:14Z</time>
      </trkpt>
      <trkpt lat="60.36201" lon="7.50862">
        <ele>1213.32</ele>
        <time>2019-04-01T14:12:23Z</time>
      </trkpt>
      <trkpt lat="60.36196" lon="7.5084">
        <ele>1213.32</ele>
        <time>2019-04-01T14:12:32Z</time>
      </trkpt>
      <trkpt lat="60.36195" lon="7.5084">
        <ele>1213.32</ele>
        <time>2019-04-01T14:12:35Z</time>
      </trkpt>
      <trkpt lat="60.36195" lon="7.50828">
        <ele>1213.32</ele>
        <time>2019-04-01T14:12:45Z</time>
      </trkpt>
      <trkpt lat="60.36196" lon="7.50813">
        <ele>1213.32</ele>
        <time>2019-04-01T14:12:50Z</time>
      </trkpt>
      <trkpt lat="60.36197" lon="7.50807">
        <ele>1213.32</ele>
        <time>2019-04-01T14:12:55Z</time>
      </trkpt>
      <trkpt lat="60.36199" lon="7.50786">
        <ele>1214.28</ele>
        <time>2019-04-01T14:13:08Z</time>
      </trkpt>
      <trkpt lat="60.36198" lon="7.50784">
        <ele>1214.28</ele>
        <time>2019-04-01T14:13:16Z</time>
      </trkpt>
      <trkpt lat="60.362" lon="7.50775">
        <ele>1214.28</ele>
        <time>2019-04-01T14:13:26Z</time>
      </trkpt>
      <trkpt lat="60.36201" lon="7.50769">
        <ele>1214.28</ele>
        <time>2019-04-01T14:13:31Z</time>
      </trkpt>
      <trkpt lat="60.36204" lon="7.50763">
        <ele>1214.28</ele>
        <time>2019-04-01T14:13:37Z</time>
      </trkpt>
      <trkpt lat="60.36205" lon="7.50761">
        <ele>1214.28</ele>
        <time>2019-04-01T14:13:42Z</time>
      </trkpt>
      <trkpt lat="60.36208" lon="7.50751">
        <ele>1214.28</ele>
        <time>2019-04-01T14:13:48Z</time>
      </trkpt>
      <trkpt lat="60.36209" lon="7.50739">
        <ele>1214.28</ele>
        <time>2019-04-01T14:13:54Z</time>
      </trkpt>
      <trkpt lat="60.36213" lon="7.50722">
        <ele>1214.76</ele>
        <time>2019-04-01T14:14:08Z</time>
      </trkpt>
      <trkpt lat="60.36213" lon="7.50724">
        <ele>1214.76</ele>
        <time>2019-04-01T14:14:16Z</time>
      </trkpt>
      <trkpt lat="60.36217" lon="7.50715">
        <ele>1214.76</ele>
        <time>2019-04-01T14:14:28Z</time>
      </trkpt>
      <trkpt lat="60.36217" lon="7.50709">
        <ele>1214.76</ele>
        <time>2019-04-01T14:14:38Z</time>
      </trkpt>
      <trkpt lat="60.36219" lon="7.50707">
        <ele>1214.76</ele>
        <time>2019-04-01T14:14:50Z</time>
      </trkpt>
      <trkpt lat="60.3622" lon="7.50704">
        <ele>1214.76</ele>
        <time>2019-04-01T14:14:56Z</time>
      </trkpt>
      <trkpt lat="60.36224" lon="7.50703">
        <ele>1214.76</ele>
        <time>2019-04-01T14:15:08Z</time>
      </trkpt>
      <trkpt lat="60.36226" lon="7.50699">
        <ele>1214.76</ele>
        <time>2019-04-01T14:15:12Z</time>
      </trkpt>
      <trkpt lat="60.3623" lon="7.50691">
        <ele>1214.76</ele>
        <time>2019-04-01T14:15:26Z</time>
      </trkpt>
      <trkpt lat="60.3623" lon="7.50691">
        <ele>1214.76</ele>
        <time>2019-04-01T14:15:27Z</time>
      </trkpt>
      <trkpt lat="60.36233" lon="7.50689">
        <ele>1214.76</ele>
        <time>2019-04-01T14:15:32Z</time>
      </trkpt>
      <trkpt lat="60.36235" lon="7.50688">
        <ele>1214.76</ele>
        <time>2019-04-01T14:15:37Z</time>
      </trkpt>
      <trkpt lat="60.36241" lon="7.50685">
        <ele>1214.76</ele>
        <time>2019-04-01T14:15:47Z</time>
      </trkpt>
      <trkpt lat="60.36245" lon="7.50682">
        <ele>1214.76</ele>
        <time>2019-04-01T14:15:53Z</time>
      </trkpt>
      <trkpt lat="60.36249" lon="7.5068">
        <ele>1214.76</ele>
        <time>2019-04-01T14:16:05Z</time>
      </trkpt>
      <trkpt lat="60.3625" lon="7.50679">
        <ele>1214.76</ele>
        <time>2019-04-01T14:16:07Z</time>
      </trkpt>
      <trkpt lat="60.3625" lon="7.50677">
        <ele>1214.76</ele>
        <time>2019-04-01T14:16:11Z</time>
      </trkpt>
      <trkpt lat="60.36256" lon="7.50672">
        <ele>1214.76</ele>
        <time>2019-04-01T14:16:22Z</time>
      </trkpt>
      <trkpt lat="60.36259" lon="7.50668">
        <ele>1214.76</ele>
        <time>2019-04-01T14:16:27Z</time>
      </trkpt>
      <trkpt lat="60.36261" lon="7.50663">
        <ele>1214.76</ele>
        <time>2019-04-01T14:16:32Z</time>
      </trkpt>
      <trkpt lat="60.36265" lon="7.5066">
        <ele>1214.76</ele>
        <time>2019-04-01T14:16:37Z</time>
      </trkpt>
      <trkpt lat="60.36266" lon="7.5065">
        <ele>1214.76</ele>
        <time>2019-04-01T14:16:42Z</time>
      </trkpt>
      <trkpt lat="60.36269" lon="7.50644">
        <ele>1214.76</ele>
        <time>2019-04-01T14:16:47Z</time>
      </trkpt>
      <trkpt lat="60.3627" lon="7.50642">
        <ele>1214.76</ele>
        <time>2019-04-01T14:16:53Z</time>
      </trkpt>
      <trkpt lat="60.36276" lon="7.50635">
        <ele>1214.76</ele>
        <time>2019-04-01T14:17:05Z</time>
      </trkpt>
      <trkpt lat="60.36278" lon="7.50631">
        <ele>1215.24</ele>
        <time>2019-04-01T14:17:09Z</time>
      </trkpt>
      <trkpt lat="60.36282" lon="7.50621">
        <ele>1215.24</ele>
        <time>2019-04-01T14:17:14Z</time>
      </trkpt>
      <trkpt lat="60.36283" lon="7.50608">
        <ele>1215.24</ele>
        <time>2019-04-01T14:17:19Z</time>
      </trkpt>
      <trkpt lat="60.36286" lon="7.50594">
        <ele>1215.24</ele>
        <time>2019-04-01T14:17:25Z</time>
      </trkpt>
      <trkpt lat="60.36288" lon="7.5059">
        <ele>1215.24</ele>
        <time>2019-04-01T14:17:35Z</time>
      </trkpt>
      <trkpt lat="60.36293" lon="7.50587">
        <ele>1215.24</ele>
        <time>2019-04-01T14:17:45Z</time>
      </trkpt>
      <trkpt lat="60.36293" lon="7.50586">
        <ele>1215.24</ele>
        <time>2019-04-01T14:17:48Z</time>
      </trkpt>
      <trkpt lat="60.36298" lon="7.50584">
        <ele>1215.24</ele>
        <time>2019-04-01T14:18:00Z</time>
      </trkpt>
      <trkpt lat="60.36302" lon="7.50579">
        <ele>1215.24</ele>
        <time>2019-04-01T14:18:11Z</time>
      </trkpt>
      <trkpt lat="60.36307" lon="7.50575">
        <ele>1215.24</ele>
        <time>2019-04-01T14:18:18Z</time>
      </trkpt>
      <trkpt lat="60.36312" lon="7.50571">
        <ele>1215.24</ele>
        <time>2019-04-01T14:18:25Z</time>
      </trkpt>
      <trkpt lat="60.36315" lon="7.50564">
        <ele>1215.24</ele>
        <time>2019-04-01T14:18:39Z</time>
      </trkpt>
      <trkpt lat="60.36316" lon="7.50565">
        <ele>1215.24</ele>
        <time>2019-04-01T14:18:51Z</time>
      </trkpt>
      <trkpt lat="60.36318" lon="7.50563">
        <ele>1215.24</ele>
        <time>2019-04-01T14:18:58Z</time>
      </trkpt>
      <trkpt lat="60.36322" lon="7.50564">
        <ele>1215.24</ele>
        <time>2019-04-01T14:19:04Z</time>
      </trkpt>
      <trkpt lat="60.36328" lon="7.50564">
        <ele>1215.24</ele>
        <time>2019-04-01T14:19:16Z</time>
      </trkpt>
      <trkpt lat="60.36327" lon="7.50566">
        <ele>1215.24</ele>
        <time>2019-04-01T14:19:29Z</time>
      </trkpt>
      <trkpt lat="60.36323" lon="7.50573">
        <ele>1215.24</ele>
        <time>2019-04-01T14:19:41Z</time>
      </trkpt>
      <trkpt lat="60.36324" lon="7.50577">
        <ele>1215.24</ele>
        <time>2019-04-01T14:19:52Z</time>
      </trkpt>
      <trkpt lat="60.36323" lon="7.50586">
        <ele>1215.24</ele>
        <time>2019-04-01T14:20:04Z</time>
      </trkpt>
      <trkpt lat="60.36324" lon="7.50595">
        <ele>1215.24</ele>
        <time>2019-04-01T14:20:17Z</time>
      </trkpt>
      <trkpt lat="60.36326" lon="7.50594">
        <ele>1215.24</ele>
        <time>2019-04-01T14:20:32Z</time>
      </trkpt>
      <trkpt lat="60.36329" lon="7.50594">
        <ele>1215.24</ele>
        <time>2019-04-01T14:20:45Z</time>
      </trkpt>
      <trkpt lat="60.36331" lon="7.50596">
        <ele>1215.24</ele>
        <time>2019-04-01T14:20:56Z</time>
      </trkpt>
      <trkpt lat="60.36334" lon="7.50595">
        <ele>1215.24</ele>
        <time>2019-04-01T14:21:08Z</time>
      </trkpt>
      <trkpt lat="60.36335" lon="7.50594">
        <ele>1215.24</ele>
        <time>2019-04-01T14:21:24Z</time>
      </trkpt>
      <trkpt lat="60.36336" lon="7.50595">
        <ele>1215.24</ele>
        <time>2019-04-01T14:21:27Z</time>
      </trkpt>
      <trkpt lat="60.36341" lon="7.50594">
        <ele>1215.24</ele>
        <time>2019-04-01T14:21:37Z</time>
      </trkpt>
      <trkpt lat="60.36341" lon="7.50594">
        <ele>1215.24</ele>
        <time>2019-04-01T14:21:51Z</time>
      </trkpt>
      <trkpt lat="60.36343" lon="7.50593">
        <ele>1215.24</ele>
        <time>2019-04-01T14:21:58Z</time>
      </trkpt>
      <trkpt lat="60.36346" lon="7.50592">
        <ele>1215.24</ele>
        <time>2019-04-01T14:22:12Z</time>
      </trkpt>
      <trkpt lat="60.36346" lon="7.50591">
        <ele>1215.24</ele>
        <time>2019-04-01T14:22:23Z</time>
      </trkpt>
      <trkpt lat="60.36346" lon="7.5059">
        <ele>1215.24</ele>
        <time>2019-04-01T14:22:33Z</time>
      </trkpt>
      <trkpt lat="60.36347" lon="7.5059">
        <ele>1215.24</ele>
        <time>2019-04-01T14:22:49Z</time>
      </trkpt>
      <trkpt lat="60.36351" lon="7.50589">
        <ele>1215.24</ele>
        <time>2019-04-01T14:22:53Z</time>
      </trkpt>
      <trkpt lat="60.36354" lon="7.50587">
        <ele>1215.24</ele>
        <time>2019-04-01T14:22:58Z</time>
      </trkpt>
      <trkpt lat="60.36357" lon="7.50585">
        <ele>1215.72</ele>
        <time>2019-04-01T14:23:08Z</time>
      </trkpt>
      <trkpt lat="60.36361" lon="7.50584">
        <ele>1216.21</ele>
        <time>2019-04-01T14:23:19Z</time>
      </trkpt>
      <trkpt lat="60.36363" lon="7.50582">
        <ele>1216.21</ele>
        <time>2019-04-01T14:23:28Z</time>
      </trkpt>
      <trkpt lat="60.36368" lon="7.5058">
        <ele>1216.21</ele>
        <time>2019-04-01T14:23:41Z</time>
      </trkpt>
      <trkpt lat="60.36369" lon="7.50577">
        <ele>1216.69</ele>
        <time>2019-04-01T14:23:53Z</time>
      </trkpt>
      <trkpt lat="60.36369" lon="7.50577">
        <ele>1216.69</ele>
        <time>2019-04-01T14:24:05Z</time>
      </trkpt>
      <trkpt lat="60.36371" lon="7.50575">
        <ele>1216.69</ele>
        <time>2019-04-01T14:24:19Z</time>
      </trkpt>
      <trkpt lat="60.36373" lon="7.50574">
        <ele>1216.69</ele>
        <time>2019-04-01T14:24:24Z</time>
      </trkpt>
      <trkpt lat="60.36375" lon="7.50573">
        <ele>1216.69</ele>
        <time>2019-04-01T14:24:30Z</time>
      </trkpt>
      <trkpt lat="60.36378" lon="7.50569">
        <ele>1216.69</ele>
        <time>2019-04-01T14:24:40Z</time>
      </trkpt>
      <trkpt lat="60.36383" lon="7.50565">
        <ele>1217.17</ele>
        <time>2019-04-01T14:24:44Z</time>
      </trkpt>
      <trkpt lat="60.36384" lon="7.50557">
        <ele>1217.17</ele>
        <time>2019-04-01T14:24:49Z</time>
      </trkpt>
      <trkpt lat="60.36387" lon="7.50555">
        <ele>1217.17</ele>
        <time>2019-04-01T14:24:51Z</time>
      </trkpt>
      <trkpt lat="60.36389" lon="7.50553">
        <ele>1217.17</ele>
        <time>2019-04-01T14:24:52Z</time>
      </trkpt>
      <trkpt lat="60.36392" lon="7.50551">
        <ele>1217.65</ele>
        <time>2019-04-01T14:24:56Z</time>
      </trkpt>
      <trkpt lat="60.36393" lon="7.50549">
        <ele>1217.65</ele>
        <time>2019-04-01T14:24:57Z</time>
      </trkpt>
      <trkpt lat="60.36395" lon="7.50547">
        <ele>1217.65</ele>
        <time>2019-04-01T14:25:01Z</time>
      </trkpt>
      <trkpt lat="60.36397" lon="7.50546">
        <ele>1217.65</ele>
        <time>2019-04-01T14:25:02Z</time>
      </trkpt>
      <trkpt lat="60.36399" lon="7.50544">
        <ele>1217.65</ele>
        <time>2019-04-01T14:25:03Z</time>
      </trkpt>
      <trkpt lat="60.36401" lon="7.50541">
        <ele>1218.13</ele>
        <time>2019-04-01T14:25:07Z</time>
      </trkpt>
      <trkpt lat="60.36402" lon="7.50538">
        <ele>1218.13</ele>
        <time>2019-04-01T14:25:08Z</time>
      </trkpt>
      <trkpt lat="60.36405" lon="7.50536">
        <ele>1218.13</ele>
        <time>2019-04-01T14:25:11Z</time>
      </trkpt>
      <trkpt lat="60.36407" lon="7.50535">
        <ele>1218.13</ele>
        <time>2019-04-01T14:25:12Z</time>
      </trkpt>
      <trkpt lat="60.36411" lon="7.50532">
        <ele>1218.13</ele>
        <time>2019-04-01T14:25:16Z</time>
      </trkpt>
      <trkpt lat="60.36411" lon="7.5053">
        <ele>1218.13</ele>
        <time>2019-04-01T14:25:17Z</time>
      </trkpt>
      <trkpt lat="60.36413" lon="7.50523">
        <ele>1218.13</ele>
        <time>2019-04-01T14:25:22Z</time>
      </trkpt>
      <trkpt lat="60.36413" lon="7.5052">
        <ele>1218.13</ele>
        <time>2019-04-01T14:25:23Z</time>
      </trkpt>
      <trkpt lat="60.36414" lon="7.50517">
        <ele>1218.13</ele>
        <time>2019-04-01T14:25:24Z</time>
      </trkpt>
      <trkpt lat="60.36414" lon="7.50514">
        <ele>1218.61</ele>
        <time>2019-04-01T14:25:34Z</time>
      </trkpt>
      <trkpt lat="60.36415" lon="7.50507">
        <ele>1218.61</ele>
        <time>2019-04-01T14:25:39Z</time>
      </trkpt>
      <trkpt lat="60.3642" lon="7.50506">
        <ele>1219.09</ele>
        <time>2019-04-01T14:25:45Z</time>
      </trkpt>
      <trkpt lat="60.36424" lon="7.50505">
        <ele>1219.09</ele>
        <time>2019-04-01T14:25:51Z</time>
      </trkpt>
      <trkpt lat="60.36428" lon="7.505">
        <ele>1219.09</ele>
        <time>2019-04-01T14:26:03Z</time>
      </trkpt>
      <trkpt lat="60.36429" lon="7.50494">
        <ele>1219.57</ele>
        <time>2019-04-01T14:26:13Z</time>
      </trkpt>
      <trkpt lat="60.36433" lon="7.50488">
        <ele>1220.05</ele>
        <time>2019-04-01T14:26:18Z</time>
      </trkpt>
      <trkpt lat="60.36434" lon="7.50482">
        <ele>1220.05</ele>
        <time>2019-04-01T14:26:23Z</time>
      </trkpt>
      <trkpt lat="60.3644" lon="7.50477">
        <ele>1220.05</ele>
        <time>2019-04-01T14:26:33Z</time>
      </trkpt>
      <trkpt lat="60.3644" lon="7.50476">
        <ele>1220.05</ele>
        <time>2019-04-01T14:26:34Z</time>
      </trkpt>
      <trkpt lat="60.36443" lon="7.50472">
        <ele>1220.53</ele>
        <time>2019-04-01T14:26:39Z</time>
      </trkpt>
      <trkpt lat="60.36444" lon="7.50467">
        <ele>1220.53</ele>
        <time>2019-04-01T14:26:44Z</time>
      </trkpt>
      <trkpt lat="60.36448" lon="7.50462">
        <ele>1221.01</ele>
        <time>2019-04-01T14:26:50Z</time>
      </trkpt>
      <trkpt lat="60.36451" lon="7.50459">
        <ele>1221.01</ele>
        <time>2019-04-01T14:26:56Z</time>
      </trkpt>
      <trkpt lat="60.36453" lon="7.50455">
        <ele>1221.01</ele>
        <time>2019-04-01T14:27:06Z</time>
      </trkpt>
      <trkpt lat="60.36457" lon="7.50448">
        <ele>1221.01</ele>
        <time>2019-04-01T14:27:17Z</time>
      </trkpt>
      <trkpt lat="60.36462" lon="7.50442">
        <ele>1221.49</ele>
        <time>2019-04-01T14:27:30Z</time>
      </trkpt>
      <trkpt lat="60.36465" lon="7.50439">
        <ele>1221.49</ele>
        <time>2019-04-01T14:27:36Z</time>
      </trkpt>
      <trkpt lat="60.36467" lon="7.50435">
        <ele>1221.49</ele>
        <time>2019-04-01T14:27:48Z</time>
      </trkpt>
      <trkpt lat="60.36468" lon="7.50434">
        <ele>1221.49</ele>
        <time>2019-04-01T14:27:52Z</time>
      </trkpt>
      <trkpt lat="60.36472" lon="7.50431">
        <ele>1221.49</ele>
        <time>2019-04-01T14:27:57Z</time>
      </trkpt>
      <trkpt lat="60.36472" lon="7.50424">
        <ele>1221.49</ele>
        <time>2019-04-01T14:28:03Z</time>
      </trkpt>
      <trkpt lat="60.36476" lon="7.50417">
        <ele>1221.97</ele>
        <time>2019-04-01T14:28:09Z</time>
      </trkpt>
      <trkpt lat="60.36476" lon="7.50408">
        <ele>1221.97</ele>
        <time>2019-04-01T14:28:14Z</time>
      </trkpt>
      <trkpt lat="60.36479" lon="7.50401">
        <ele>1222.45</ele>
        <time>2019-04-01T14:28:20Z</time>
      </trkpt>
      <trkpt lat="60.36479" lon="7.50393">
        <ele>1222.45</ele>
        <time>2019-04-01T14:28:25Z</time>
      </trkpt>
      <trkpt lat="60.36484" lon="7.50387">
        <ele>1222.93</ele>
        <time>2019-04-01T14:28:31Z</time>
      </trkpt>
      <trkpt lat="60.36486" lon="7.5038">
        <ele>1222.93</ele>
        <time>2019-04-01T14:28:36Z</time>
      </trkpt>
      <trkpt lat="60.36492" lon="7.50374">
        <ele>1223.42</ele>
        <time>2019-04-01T14:28:42Z</time>
      </trkpt>
      <trkpt lat="60.36493" lon="7.50366">
        <ele>1223.9</ele>
        <time>2019-04-01T14:28:47Z</time>
      </trkpt>
      <trkpt lat="60.36496" lon="7.5036">
        <ele>1223.9</ele>
        <time>2019-04-01T14:28:53Z</time>
      </trkpt>
      <trkpt lat="60.36499" lon="7.50353">
        <ele>1223.9</ele>
        <time>2019-04-01T14:28:59Z</time>
      </trkpt>
      <trkpt lat="60.36503" lon="7.50349">
        <ele>1224.38</ele>
        <time>2019-04-01T14:29:05Z</time>
      </trkpt>
      <trkpt lat="60.36505" lon="7.50344">
        <ele>1224.38</ele>
        <time>2019-04-01T14:29:11Z</time>
      </trkpt>
      <trkpt lat="60.36507" lon="7.50341">
        <ele>1224.38</ele>
        <time>2019-04-01T14:29:17Z</time>
      </trkpt>
      <trkpt lat="60.36514" lon="7.50327">
        <ele>1225.34</ele>
        <time>2019-04-01T14:29:27Z</time>
      </trkpt>
      <trkpt lat="60.36513" lon="7.50318">
        <ele>1225.34</ele>
        <time>2019-04-01T14:29:33Z</time>
      </trkpt>
      <trkpt lat="60.36515" lon="7.50315">
        <ele>1225.34</ele>
        <time>2019-04-01T14:29:35Z</time>
      </trkpt>
      <trkpt lat="60.36517" lon="7.50313">
        <ele>1225.34</ele>
        <time>2019-04-01T14:29:36Z</time>
      </trkpt>
      <trkpt lat="60.36519" lon="7.50311">
        <ele>1225.82</ele>
        <time>2019-04-01T14:29:40Z</time>
      </trkpt>
      <trkpt lat="60.36519" lon="7.50308">
        <ele>1225.82</ele>
        <time>2019-04-01T14:29:41Z</time>
      </trkpt>
      <trkpt lat="60.3652" lon="7.50306">
        <ele>1225.82</ele>
        <time>2019-04-01T14:29:42Z</time>
      </trkpt>
      <trkpt lat="60.36521" lon="7.50301">
        <ele>1225.82</ele>
        <time>2019-04-01T14:29:45Z</time>
      </trkpt>
      <trkpt lat="60.36523" lon="7.50299">
        <ele>1225.82</ele>
        <time>2019-04-01T14:29:46Z</time>
      </trkpt>
      <trkpt lat="60.36524" lon="7.50297">
        <ele>1226.78</ele>
        <time>2019-04-01T14:29:47Z</time>
      </trkpt>
      <trkpt lat="60.36524" lon="7.50296">
        <ele>1226.78</ele>
        <time>2019-04-01T14:29:50Z</time>
      </trkpt>
      <trkpt lat="60.36526" lon="7.5029">
        <ele>1227.26</ele>
        <time>2019-04-01T14:29:54Z</time>
      </trkpt>
      <trkpt lat="60.36531" lon="7.50282">
        <ele>1228.22</ele>
        <time>2019-04-01T14:29:59Z</time>
      </trkpt>
      <trkpt lat="60.36533" lon="7.50273">
        <ele>1228.7</ele>
        <time>2019-04-01T14:30:03Z</time>
      </trkpt>
      <trkpt lat="60.36537" lon="7.50268">
        <ele>1230.14</ele>
        <time>2019-04-01T14:30:08Z</time>
      </trkpt>
      <trkpt lat="60.36539" lon="7.50262">
        <ele>1230.62</ele>
        <time>2019-04-01T14:30:15Z</time>
      </trkpt>
      <trkpt lat="60.3654" lon="7.50257">
        <ele>1230.62</ele>
        <time>2019-04-01T14:30:18Z</time>
      </trkpt>
      <trkpt lat="60.36542" lon="7.50254">
        <ele>1231.11</ele>
        <time>2019-04-01T14:30:21Z</time>
      </trkpt>
      <trkpt lat="60.36547" lon="7.50247">
        <ele>1232.55</ele>
        <time>2019-04-01T14:30:26Z</time>
      </trkpt>
      <trkpt lat="60.3655" lon="7.50242">
        <ele>1233.03</ele>
        <time>2019-04-01T14:30:30Z</time>
      </trkpt>
      <trkpt lat="60.36552" lon="7.50237">
        <ele>1233.99</ele>
        <time>2019-04-01T14:30:36Z</time>
      </trkpt>
      <trkpt lat="60.36556" lon="7.50234">
        <ele>1234.47</ele>
        <time>2019-04-01T14:30:43Z</time>
      </trkpt>
      <trkpt lat="60.36567" lon="7.5023">
        <ele>1235.43</ele>
        <time>2019-04-01T14:30:53Z</time>
      </trkpt>
      <trkpt lat="60.36569" lon="7.50226">
        <ele>1235.91</ele>
        <time>2019-04-01T14:30:56Z</time>
      </trkpt>
      <trkpt lat="60.36569" lon="7.50211">
        <ele>1236.87</ele>
        <time>2019-04-01T14:31:02Z</time>
      </trkpt>
      <trkpt lat="60.36569" lon="7.50203">
        <ele>1237.83</ele>
        <time>2019-04-01T14:31:09Z</time>
      </trkpt>
      <trkpt lat="60.36571" lon="7.50197">
        <ele>1238.8</ele>
        <time>2019-04-01T14:31:13Z</time>
      </trkpt>
      <trkpt lat="60.36578" lon="7.50195">
        <ele>1239.76</ele>
        <time>2019-04-01T14:31:19Z</time>
      </trkpt>
      <trkpt lat="60.36582" lon="7.50187">
        <ele>1240.72</ele>
        <time>2019-04-01T14:31:24Z</time>
      </trkpt>
      <trkpt lat="60.36584" lon="7.50179">
        <ele>1242.16</ele>
        <time>2019-04-01T14:31:28Z</time>
      </trkpt>
      <trkpt lat="60.3659" lon="7.50163">
        <ele>1243.12</ele>
        <time>2019-04-01T14:31:37Z</time>
      </trkpt>
      <trkpt lat="60.3659" lon="7.50163">
        <ele>1243.12</ele>
        <time>2019-04-01T14:31:38Z</time>
      </trkpt>
      <trkpt lat="60.36601" lon="7.5016">
        <ele>1244.08</ele>
        <time>2019-04-01T14:31:44Z</time>
      </trkpt>
      <trkpt lat="60.36631" lon="7.50198">
        <ele>1242.16</ele>
        <time>2019-04-01T14:31:53Z</time>
      </trkpt>
      <trkpt lat="60.36632" lon="7.50197">
        <ele>1242.16</ele>
        <time>2019-04-01T14:31:54Z</time>
      </trkpt>
      <trkpt lat="60.36633" lon="7.50196">
        <ele>1242.16</ele>
        <time>2019-04-01T14:31:55Z</time>
      </trkpt>
      <trkpt lat="60.36612" lon="7.50174">
        <ele>1244.08</ele>
        <time>2019-04-01T14:32:05Z</time>
      </trkpt>
      <trkpt lat="60.36611" lon="7.50173">
        <ele>1244.08</ele>
        <time>2019-04-01T14:32:06Z</time>
      </trkpt>
      <trkpt lat="60.36608" lon="7.50169">
        <ele>1244.08</ele>
        <time>2019-04-01T14:32:09Z</time>
      </trkpt>
      <trkpt lat="60.36593" lon="7.50163">
        <ele>1244.08</ele>
        <time>2019-04-01T14:32:16Z</time>
      </trkpt>
      <trkpt lat="60.3658" lon="7.50158">
        <ele>1242.16</ele>
        <time>2019-04-01T14:32:19Z</time>
      </trkpt>
      <trkpt lat="60.36575" lon="7.50156">
        <ele>1241.68</ele>
        <time>2019-04-01T14:32:20Z</time>
      </trkpt>
      <trkpt lat="60.36568" lon="7.50147">
        <ele>1240.72</ele>
        <time>2019-04-01T14:32:25Z</time>
      </trkpt>
      <trkpt lat="60.36577" lon="7.50146">
        <ele>1241.68</ele>
        <time>2019-04-01T14:32:29Z</time>
      </trkpt>
      <trkpt lat="60.36589" lon="7.50139">
        <ele>1243.6</ele>
        <time>2019-04-01T14:32:34Z</time>
      </trkpt>
      <trkpt lat="60.36614" lon="7.50154">
        <ele>1246.01</ele>
        <time>2019-04-01T14:32:41Z</time>
      </trkpt>
      <trkpt lat="60.36645" lon="7.50232">
        <ele>1241.2</ele>
        <time>2019-04-01T14:32:50Z</time>
      </trkpt>
      <trkpt lat="60.36649" lon="7.50236">
        <ele>1240.24</ele>
        <time>2019-04-01T14:32:51Z</time>
      </trkpt>
      <trkpt lat="60.36672" lon="7.50279">
        <ele>1237.83</ele>
        <time>2019-04-01T14:32:56Z</time>
      </trkpt>
      <trkpt lat="60.3668" lon="7.50302">
        <ele>1233.99</ele>
        <time>2019-04-01T14:32:59Z</time>
      </trkpt>
      <trkpt lat="60.36681" lon="7.50302">
        <ele>1233.99</ele>
        <time>2019-04-01T14:33:00Z</time>
      </trkpt>
      <trkpt lat="60.36681" lon="7.50301">
        <ele>1233.99</ele>
        <time>2019-04-01T14:33:03Z</time>
      </trkpt>
      <trkpt lat="60.36672" lon="7.50287">
        <ele>1233.51</ele>
        <time>2019-04-01T14:33:09Z</time>
      </trkpt>
      <trkpt lat="60.36671" lon="7.50284">
        <ele>1234.95</ele>
        <time>2019-04-01T14:33:11Z</time>
      </trkpt>
      <trkpt lat="60.36664" lon="7.50272">
        <ele>1235.43</ele>
        <time>2019-04-01T14:33:20Z</time>
      </trkpt>
      <trkpt lat="60.36664" lon="7.50272">
        <ele>1235.43</ele>
        <time>2019-04-01T14:33:22Z</time>
      </trkpt>
      <trkpt lat="60.36661" lon="7.50265">
        <ele>1236.39</ele>
        <time>2019-04-01T14:33:25Z</time>
      </trkpt>
      <trkpt lat="60.36655" lon="7.50246">
        <ele>1237.35</ele>
        <time>2019-04-01T14:33:30Z</time>
      </trkpt>
      <trkpt lat="60.3665" lon="7.50231">
        <ele>1238.8</ele>
        <time>2019-04-01T14:33:36Z</time>
      </trkpt>
      <trkpt lat="60.36644" lon="7.50219">
        <ele>1240.72</ele>
        <time>2019-04-01T14:33:43Z</time>
      </trkpt>
      <trkpt lat="60.36636" lon="7.50208">
        <ele>1242.16</ele>
        <time>2019-04-01T14:33:47Z</time>
      </trkpt>
      <trkpt lat="60.36633" lon="7.50202">
        <ele>1242.16</ele>
        <time>2019-04-01T14:33:50Z</time>
      </trkpt>
      <trkpt lat="60.36621" lon="7.50195">
        <ele>1243.6</ele>
        <time>2019-04-01T14:33:54Z</time>
      </trkpt>
      <trkpt lat="60.36612" lon="7.50185">
        <ele>1243.6</ele>
        <time>2019-04-01T14:33:58Z</time>
      </trkpt>
      <trkpt lat="60.36594" lon="7.50169">
        <ele>1244.08</ele>
        <time>2019-04-01T14:34:02Z</time>
      </trkpt>
      <trkpt lat="60.36567" lon="7.50157">
        <ele>1242.16</ele>
        <time>2019-04-01T14:34:06Z</time>
      </trkpt>
      <trkpt lat="60.36559" lon="7.50153">
        <ele>1240.72</ele>
        <time>2019-04-01T14:34:07Z</time>
      </trkpt>
      <trkpt lat="60.36545" lon="7.50148">
        <ele>1239.76</ele>
        <time>2019-04-01T14:34:09Z</time>
      </trkpt>
      <trkpt lat="60.36534" lon="7.50135">
        <ele>1236.39</ele>
        <time>2019-04-01T14:34:11Z</time>
      </trkpt>
      <trkpt lat="60.36523" lon="7.501">
        <ele>1238.32</ele>
        <time>2019-04-01T14:34:16Z</time>
      </trkpt>
      <trkpt lat="60.36528" lon="7.50076">
        <ele>1238.8</ele>
        <time>2019-04-01T14:34:24Z</time>
      </trkpt>
      <trkpt lat="60.36532" lon="7.50072">
        <ele>1238.8</ele>
        <time>2019-04-01T14:34:26Z</time>
      </trkpt>
      <trkpt lat="60.36546" lon="7.50072">
        <ele>1241.2</ele>
        <time>2019-04-01T14:34:31Z</time>
      </trkpt>
      <trkpt lat="60.36549" lon="7.50072">
        <ele>1241.2</ele>
        <time>2019-04-01T14:34:33Z</time>
      </trkpt>
      <trkpt lat="60.36552" lon="7.50075">
        <ele>1241.68</ele>
        <time>2019-04-01T14:34:34Z</time>
      </trkpt>
      <trkpt lat="60.36561" lon="7.50078">
        <ele>1242.64</ele>
        <time>2019-04-01T14:34:41Z</time>
      </trkpt>
      <trkpt lat="60.36563" lon="7.50077">
        <ele>1243.12</ele>
        <time>2019-04-01T14:34:42Z</time>
      </trkpt>
      <trkpt lat="60.36567" lon="7.50078">
        <ele>1244.08</ele>
        <time>2019-04-01T14:34:43Z</time>
      </trkpt>
      <trkpt lat="60.36571" lon="7.50081">
        <ele>1244.08</ele>
        <time>2019-04-01T14:34:44Z</time>
      </trkpt>
      <trkpt lat="60.36575" lon="7.50085">
        <ele>1245.04</ele>
        <time>2019-04-01T14:34:45Z</time>
      </trkpt>
      <trkpt lat="60.36578" lon="7.50089">
        <ele>1245.04</ele>
        <time>2019-04-01T14:34:46Z</time>
      </trkpt>
      <trkpt lat="60.36582" lon="7.50093">
        <ele>1245.04</ele>
        <time>2019-04-01T14:34:47Z</time>
      </trkpt>
      <trkpt lat="60.36606" lon="7.50145">
        <ele>1246.01</ele>
        <time>2019-04-01T14:34:58Z</time>
      </trkpt>
      <trkpt lat="60.36622" lon="7.50171">
        <ele>1246.01</ele>
        <time>2019-04-01T14:35:07Z</time>
      </trkpt>
      <trkpt lat="60.36627" lon="7.50183">
        <ele>1246.01</ele>
        <time>2019-04-01T14:35:09Z</time>
      </trkpt>
      <trkpt lat="60.36633" lon="7.50199">
        <ele>1244.56</ele>
        <time>2019-04-01T14:35:11Z</time>
      </trkpt>
      <trkpt lat="60.36648" lon="7.50266">
        <ele>1240.72</ele>
        <time>2019-04-01T14:35:17Z</time>
      </trkpt>
      <trkpt lat="60.36651" lon="7.50279">
        <ele>1239.76</ele>
        <time>2019-04-01T14:35:18Z</time>
      </trkpt>
      <trkpt lat="60.3666" lon="7.50315">
        <ele>1237.35</ele>
        <time>2019-04-01T14:35:21Z</time>
      </trkpt>
      <trkpt lat="60.36668" lon="7.50356">
        <ele>1233.99</ele>
        <time>2019-04-01T14:35:25Z</time>
      </trkpt>
      <trkpt lat="60.3667" lon="7.50354">
        <ele>1232.07</ele>
        <time>2019-04-01T14:35:31Z</time>
      </trkpt>
      <trkpt lat="60.36669" lon="7.50351">
        <ele>1232.07</ele>
        <time>2019-04-01T14:35:32Z</time>
      </trkpt>
      <trkpt lat="60.36667" lon="7.50348">
        <ele>1232.07</ele>
        <time>2019-04-01T14:35:33Z</time>
      </trkpt>
      <trkpt lat="60.36664" lon="7.50336">
        <ele>1232.07</ele>
        <time>2019-04-01T14:35:36Z</time>
      </trkpt>
      <trkpt lat="60.36655" lon="7.50306">
        <ele>1235.43</ele>
        <time>2019-04-01T14:35:43Z</time>
      </trkpt>
      <trkpt lat="60.36631" lon="7.50277">
        <ele>1238.32</ele>
        <time>2019-04-01T14:35:52Z</time>
      </trkpt>
      <trkpt lat="60.36623" lon="7.50264">
        <ele>1238.8</ele>
        <time>2019-04-01T14:35:57Z</time>
      </trkpt>
      <trkpt lat="60.36613" lon="7.50258">
        <ele>1239.28</ele>
        <time>2019-04-01T14:36:00Z</time>
      </trkpt>
      <trkpt lat="60.36606" lon="7.50232">
        <ele>1240.72</ele>
        <time>2019-04-01T14:36:04Z</time>
      </trkpt>
      <trkpt lat="60.366" lon="7.50219">
        <ele>1241.68</ele>
        <time>2019-04-01T14:36:06Z</time>
      </trkpt>
      <trkpt lat="60.36575" lon="7.50181">
        <ele>1238.8</ele>
        <time>2019-04-01T14:36:13Z</time>
      </trkpt>
      <trkpt lat="60.36574" lon="7.50178">
        <ele>1241.2</ele>
        <time>2019-04-01T14:36:15Z</time>
      </trkpt>
      <trkpt lat="60.36581" lon="7.50184">
        <ele>1242.16</ele>
        <time>2019-04-01T14:36:23Z</time>
      </trkpt>
      <trkpt lat="60.36582" lon="7.50182">
        <ele>1242.16</ele>
        <time>2019-04-01T14:36:27Z</time>
      </trkpt>
      <trkpt lat="60.36585" lon="7.50185">
        <ele>1242.16</ele>
        <time>2019-04-01T14:36:38Z</time>
      </trkpt>
      <trkpt lat="60.36585" lon="7.50189">
        <ele>1242.16</ele>
        <time>2019-04-01T14:36:50Z</time>
      </trkpt>
      <trkpt lat="60.36585" lon="7.5019">
        <ele>1242.16</ele>
        <time>2019-04-01T14:36:51Z</time>
      </trkpt>
      <trkpt lat="60.36589" lon="7.50189">
        <ele>1242.64</ele>
        <time>2019-04-01T14:36:59Z</time>
      </trkpt>
      <trkpt lat="60.36609" lon="7.50216">
        <ele>1243.6</ele>
        <time>2019-04-01T14:37:09Z</time>
      </trkpt>
      <trkpt lat="60.36631" lon="7.50239">
        <ele>1241.2</ele>
        <time>2019-04-01T14:37:17Z</time>
      </trkpt>
      <trkpt lat="60.36661" lon="7.5027">
        <ele>1238.32</ele>
        <time>2019-04-01T14:37:24Z</time>
      </trkpt>
      <trkpt lat="60.36666" lon="7.50278">
        <ele>1237.83</ele>
        <time>2019-04-01T14:37:25Z</time>
      </trkpt>
      <trkpt lat="60.36708" lon="7.50369">
        <ele>1234.47</ele>
        <time>2019-04-01T14:37:35Z</time>
      </trkpt>
      <trkpt lat="60.36722" lon="7.50404">
        <ele>1233.99</ele>
        <time>2019-04-01T14:37:39Z</time>
      </trkpt>
      <trkpt lat="60.36736" lon="7.50444">
        <ele>1231.59</ele>
        <time>2019-04-01T14:37:43Z</time>
      </trkpt>
      <trkpt lat="60.36741" lon="7.50454">
        <ele>1231.11</ele>
        <time>2019-04-01T14:37:50Z</time>
      </trkpt>
      <trkpt lat="60.36741" lon="7.50459">
        <ele>1231.11</ele>
        <time>2019-04-01T14:38:04Z</time>
      </trkpt>
      <trkpt lat="60.3674" lon="7.50461">
        <ele>1231.11</ele>
        <time>2019-04-01T14:38:23Z</time>
      </trkpt>
      <trkpt lat="60.3674" lon="7.50459">
        <ele>1231.11</ele>
        <time>2019-04-01T14:38:48Z</time>
      </trkpt>
      <trkpt lat="60.36742" lon="7.50454">
        <ele>1231.11</ele>
        <time>2019-04-01T14:39:10Z</time>
      </trkpt>
      <trkpt lat="60.36743" lon="7.50451">
        <ele>1232.55</ele>
        <time>2019-04-01T14:39:17Z</time>
      </trkpt>
      <trkpt lat="60.36744" lon="7.50446">
        <ele>1233.51</ele>
        <time>2019-04-01T14:39:32Z</time>
      </trkpt>
      <trkpt lat="60.36745" lon="7.50443">
        <ele>1233.51</ele>
        <time>2019-04-01T14:39:45Z</time>
      </trkpt>
      <trkpt lat="60.36744" lon="7.50444">
        <ele>1233.99</ele>
        <time>2019-04-01T14:40:17Z</time>
      </trkpt>
      <trkpt lat="60.36744" lon="7.50444">
        <ele>1233.99</ele>
        <time>2019-04-01T14:40:38Z</time>
      </trkpt>
      <trkpt lat="60.36745" lon="7.50442">
        <ele>1233.99</ele>
        <time>2019-04-01T14:41:02Z</time>
      </trkpt>
      <trkpt lat="60.36747" lon="7.5044">
        <ele>1234.95</ele>
        <time>2019-04-01T14:41:14Z</time>
      </trkpt>
      <trkpt lat="60.36748" lon="7.50437">
        <ele>1234.95</ele>
        <time>2019-04-01T14:41:28Z</time>
      </trkpt>
      <trkpt lat="60.36747" lon="7.5044">
        <ele>1235.91</ele>
        <time>2019-04-01T14:41:46Z</time>
      </trkpt>
      <trkpt lat="60.36746" lon="7.5044">
        <ele>1235.91</ele>
        <time>2019-04-01T14:42:02Z</time>
      </trkpt>
      <trkpt lat="60.36743" lon="7.50447">
        <ele>1233.99</ele>
        <time>2019-04-01T14:42:15Z</time>
      </trkpt>
      <trkpt lat="60.36738" lon="7.50451">
        <ele>1232.07</ele>
        <time>2019-04-01T14:42:22Z</time>
      </trkpt>
      <trkpt lat="60.36736" lon="7.50452">
        <ele>1231.59</ele>
        <time>2019-04-01T14:42:25Z</time>
      </trkpt>
      <trkpt lat="60.36733" lon="7.50455">
        <ele>1230.62</ele>
        <time>2019-04-01T14:42:29Z</time>
      </trkpt>
      <trkpt lat="60.36731" lon="7.50457">
        <ele>1230.14</ele>
        <time>2019-04-01T14:42:38Z</time>
      </trkpt>
      <trkpt lat="60.36735" lon="7.5045">
        <ele>1230.14</ele>
        <time>2019-04-01T14:43:00Z</time>
      </trkpt>
      <trkpt lat="60.36733" lon="7.5045">
        <ele>1230.14</ele>
        <time>2019-04-01T14:43:13Z</time>
      </trkpt>
      <trkpt lat="60.36734" lon="7.5045">
        <ele>1230.14</ele>
        <time>2019-04-01T14:43:28Z</time>
      </trkpt>
      <trkpt lat="60.36735" lon="7.5045">
        <ele>1230.14</ele>
        <time>2019-04-01T14:43:50Z</time>
      </trkpt>
      <trkpt lat="60.36732" lon="7.50447">
        <ele>1230.14</ele>
        <time>2019-04-01T14:44:01Z</time>
      </trkpt>
      <trkpt lat="60.36735" lon="7.50452">
        <ele>1230.14</ele>
        <time>2019-04-01T14:44:14Z</time>
      </trkpt>
      <trkpt lat="60.36736" lon="7.50454">
        <ele>1230.14</ele>
        <time>2019-04-01T14:44:28Z</time>
      </trkpt>
      <trkpt lat="60.36736" lon="7.50456">
        <ele>1231.59</ele>
        <time>2019-04-01T14:44:44Z</time>
      </trkpt>
      <trkpt lat="60.36738" lon="7.50454">
        <ele>1231.59</ele>
        <time>2019-04-01T14:44:55Z</time>
      </trkpt>
      <trkpt lat="60.36737" lon="7.50455">
        <ele>1230.14</ele>
        <time>2019-04-01T14:45:08Z</time>
      </trkpt>
      <trkpt lat="60.36737" lon="7.50453">
        <ele>1233.51</ele>
        <time>2019-04-01T14:45:13Z</time>
      </trkpt>
      <trkpt lat="60.36737" lon="7.50453">
        <ele>1226.78</ele>
        <time>2019-04-01T14:45:19Z</time>
      </trkpt>
      <trkpt lat="60.36737" lon="7.50454">
        <ele>1226.78</ele>
        <time>2019-04-01T14:45:20Z</time>
      </trkpt>
      <trkpt lat="60.36737" lon="7.50453">
        <ele>1238.8</ele>
        <time>2019-04-01T14:45:22Z</time>
      </trkpt>
      <trkpt lat="60.36736" lon="7.50453">
        <ele>1231.11</ele>
        <time>2019-04-01T14:45:23Z</time>
      </trkpt>
      <trkpt lat="60.36735" lon="7.50454">
        <ele>1231.11</ele>
        <time>2019-04-01T14:45:39Z</time>
      </trkpt>
      <trkpt lat="60.36736" lon="7.50454">
        <ele>1225.34</ele>
        <time>2019-04-01T14:45:46Z</time>
      </trkpt>
      <trkpt lat="60.36735" lon="7.50454">
        <ele>1233.51</ele>
        <time>2019-04-01T14:45:47Z</time>
      </trkpt>
      <trkpt lat="60.36735" lon="7.50455">
        <ele>1233.51</ele>
        <time>2019-04-01T14:45:48Z</time>
      </trkpt>
      <trkpt lat="60.36734" lon="7.50452">
        <ele>1231.11</ele>
        <time>2019-04-01T14:45:50Z</time>
      </trkpt>
      <trkpt lat="60.36736" lon="7.50455">
        <ele>1231.11</ele>
        <time>2019-04-01T14:45:55Z</time>
      </trkpt>
      <trkpt lat="60.36737" lon="7.50456">
        <ele>1223.42</ele>
        <time>2019-04-01T14:45:58Z</time>
      </trkpt>
      <trkpt lat="60.36736" lon="7.50456">
        <ele>1232.07</ele>
        <time>2019-04-01T14:45:59Z</time>
      </trkpt>
      <trkpt lat="60.36736" lon="7.50456">
        <ele>1236.39</ele>
        <time>2019-04-01T14:46:00Z</time>
      </trkpt>
      <trkpt lat="60.36736" lon="7.50455">
        <ele>1231.11</ele>
        <time>2019-04-01T14:46:01Z</time>
      </trkpt>
      <trkpt lat="60.36736" lon="7.50451">
        <ele>1227.74</ele>
        <time>2019-04-01T14:46:12Z</time>
      </trkpt>
      <trkpt lat="60.36734" lon="7.50452">
        <ele>1231.59</ele>
        <time>2019-04-01T14:46:14Z</time>
      </trkpt>
      <trkpt lat="60.36732" lon="7.50453">
        <ele>1237.35</ele>
        <time>2019-04-01T14:46:16Z</time>
      </trkpt>
      <trkpt lat="60.36733" lon="7.50452">
        <ele>1230.62</ele>
        <time>2019-04-01T14:46:17Z</time>
      </trkpt>
      <trkpt lat="60.36729" lon="7.50454">
        <ele>1231.59</ele>
        <time>2019-04-01T14:46:32Z</time>
      </trkpt>
      <trkpt lat="60.36729" lon="7.50454">
        <ele>1231.59</ele>
        <time>2019-04-01T14:46:33Z</time>
      </trkpt>
      <trkpt lat="60.36728" lon="7.50454">
        <ele>1228.22</ele>
        <time>2019-04-01T14:46:34Z</time>
      </trkpt>
      <trkpt lat="60.36727" lon="7.50453">
        <ele>1231.59</ele>
        <time>2019-04-01T14:46:36Z</time>
      </trkpt>
      <trkpt lat="60.36728" lon="7.50452">
        <ele>1236.87</ele>
        <time>2019-04-01T14:46:37Z</time>
      </trkpt>
      <trkpt lat="60.36731" lon="7.50451">
        <ele>1231.59</ele>
        <time>2019-04-01T14:46:51Z</time>
      </trkpt>
      <trkpt lat="60.36734" lon="7.50452">
        <ele>1230.62</ele>
        <time>2019-04-01T14:47:09Z</time>
      </trkpt>
      <trkpt lat="60.36737" lon="7.50455">
        <ele>1230.14</ele>
        <time>2019-04-01T14:47:33Z</time>
      </trkpt>
      <trkpt lat="60.36737" lon="7.50453">
        <ele>1230.14</ele>
        <time>2019-04-01T14:48:20Z</time>
      </trkpt>
      <trkpt lat="60.36736" lon="7.50454">
        <ele>1230.14</ele>
        <time>2019-04-01T14:49:00Z</time>
      </trkpt>
      <trkpt lat="60.36736" lon="7.50451">
        <ele>1230.14</ele>
        <time>2019-04-01T14:49:33Z</time>
      </trkpt>
      <trkpt lat="60.36735" lon="7.50452">
        <ele>1230.14</ele>
        <time>2019-04-01T14:49:55Z</time>
      </trkpt>
      <trkpt lat="60.36736" lon="7.5045">
        <ele>1232.07</ele>
        <time>2019-04-01T14:49:57Z</time>
      </trkpt>
      <trkpt lat="60.36734" lon="7.50458">
        <ele>1230.62</ele>
        <time>2019-04-01T14:50:04Z</time>
      </trkpt>
      <trkpt lat="60.36736" lon="7.5046">
        <ele>1230.62</ele>
        <time>2019-04-01T14:50:20Z</time>
      </trkpt>
      <trkpt lat="60.36736" lon="7.50461">
        <ele>1233.03</ele>
        <time>2019-04-01T14:50:44Z</time>
      </trkpt>
    </trkseg>
  </trk>
</gpx>